<?xml version="1.0" encoding="UTF-8" standalone="no" ?>
<gpx xmlns="http://www.topografix.com/GPX/1/1" xmlns:xsi="http://www.w3.org/2001/XMLSchema-instance" xsi:schemaLocation="http://www.topografix.com/GPX/1/1 http://www.topografix.com/GPX/1/1/gpx.xsd" version="1.1" creator="VisuGPX - https://www.visugpx.com">
  <metadata>
    <name>Marche nordique Ahuy</name>
    <desc><![CDATA[Combe Ranfert, Givot, Bois de Vantoux, Chemin des Vaches]]></desc>
  </metadata>
  <trk>
    <name><![CDATA[Ahuy Combe Grivot chemin des vaches]]></name>
    <trkseg>
      <trkpt lat="47.37017" lon="5.00899">
        <ele>321</ele>
        <time>2014-08-12T06:40:06.000Z</time>
      </trkpt>
      <trkpt lat="47.37016" lon="5.00894">
        <ele>321.20001220703</ele>
        <time>2014-08-12T06:40:10.000Z</time>
      </trkpt>
      <trkpt lat="47.37015" lon="5.0089">
        <ele>321.20001220703</ele>
        <time>2014-08-12T06:40:12.000Z</time>
      </trkpt>
      <trkpt lat="47.37012" lon="5.00881">
        <ele>321.20001220703</ele>
        <time>2014-08-12T06:40:18.000Z</time>
      </trkpt>
      <trkpt lat="47.37012" lon="5.00871">
        <ele>321.60000610352</ele>
        <time>2014-08-12T06:40:23.000Z</time>
      </trkpt>
      <trkpt lat="47.37015" lon="5.00861">
        <ele>322.60000610352</ele>
        <time>2014-08-12T06:40:26.000Z</time>
      </trkpt>
      <trkpt lat="47.37014" lon="5.00855">
        <ele>322.60000610352</ele>
        <time>2014-08-12T06:40:29.000Z</time>
      </trkpt>
      <trkpt lat="47.37013" lon="5.00853">
        <ele>322.60000610352</ele>
        <time>2014-08-12T06:40:31.000Z</time>
      </trkpt>
      <trkpt lat="47.37011" lon="5.00844">
        <ele>322.60000610352</ele>
        <time>2014-08-12T06:40:36.000Z</time>
      </trkpt>
      <trkpt lat="47.3701" lon="5.00839">
        <ele>322.60000610352</ele>
        <time>2014-08-12T06:40:39.000Z</time>
      </trkpt>
      <trkpt lat="47.3701" lon="5.00837">
        <ele>322.79998779297</ele>
        <time>2014-08-12T06:40:41.000Z</time>
      </trkpt>
      <trkpt lat="47.37007" lon="5.00829">
        <ele>322.79998779297</ele>
        <time>2014-08-12T06:40:47.000Z</time>
      </trkpt>
      <trkpt lat="47.37006" lon="5.00826">
        <ele>322.79998779297</ele>
        <time>2014-08-12T06:40:48.000Z</time>
      </trkpt>
      <trkpt lat="47.37005" lon="5.00812">
        <ele>323.20001220703</ele>
        <time>2014-08-12T06:40:53.000Z</time>
      </trkpt>
      <trkpt lat="47.37004" lon="5.00801">
        <ele>323.60000610352</ele>
        <time>2014-08-12T06:40:59.000Z</time>
      </trkpt>
      <trkpt lat="47.37004" lon="5.0079">
        <ele>324</ele>
        <time>2014-08-12T06:41:05.000Z</time>
      </trkpt>
      <trkpt lat="47.37004" lon="5.0078">
        <ele>324.20001220703</ele>
        <time>2014-08-12T06:41:09.000Z</time>
      </trkpt>
      <trkpt lat="47.37003" lon="5.00772">
        <ele>324.39999389648</ele>
        <time>2014-08-12T06:41:14.000Z</time>
      </trkpt>
      <trkpt lat="47.37002" lon="5.00771">
        <ele>324.20001220703</ele>
        <time>2014-08-12T06:41:15.000Z</time>
      </trkpt>
      <trkpt lat="47.37002" lon="5.00767">
        <ele>324.20001220703</ele>
        <time>2014-08-12T06:41:17.000Z</time>
      </trkpt>
      <trkpt lat="47.37004" lon="5.00757">
        <ele>324.79998779297</ele>
        <time>2014-08-12T06:41:22.000Z</time>
      </trkpt>
      <trkpt lat="47.37004" lon="5.00755">
        <ele>325</ele>
        <time>2014-08-12T06:41:24.000Z</time>
      </trkpt>
      <trkpt lat="47.37005" lon="5.00743">
        <ele>325.39999389648</ele>
        <time>2014-08-12T06:41:30.000Z</time>
      </trkpt>
      <trkpt lat="47.37004" lon="5.00741">
        <ele>325.39999389648</ele>
        <time>2014-08-12T06:41:31.000Z</time>
      </trkpt>
      <trkpt lat="47.37004" lon="5.0074">
        <ele>325.20001220703</ele>
        <time>2014-08-12T06:41:32.000Z</time>
      </trkpt>
      <trkpt lat="47.37004" lon="5.00732">
        <ele>325.39999389648</ele>
        <time>2014-08-12T06:41:36.000Z</time>
      </trkpt>
      <trkpt lat="47.37007" lon="5.00726">
        <ele>326</ele>
        <time>2014-08-12T06:41:38.000Z</time>
      </trkpt>
      <trkpt lat="47.37008" lon="5.0072">
        <ele>326.39999389648</ele>
        <time>2014-08-12T06:41:41.000Z</time>
      </trkpt>
      <trkpt lat="47.37008" lon="5.00716">
        <ele>326.60000610352</ele>
        <time>2014-08-12T06:41:44.000Z</time>
      </trkpt>
      <trkpt lat="47.37008" lon="5.00704">
        <ele>327</ele>
        <time>2014-08-12T06:41:50.000Z</time>
      </trkpt>
      <trkpt lat="47.37007" lon="5.00695">
        <ele>326.79998779297</ele>
        <time>2014-08-12T06:41:55.000Z</time>
      </trkpt>
      <trkpt lat="47.37006" lon="5.00691">
        <ele>326.79998779297</ele>
        <time>2014-08-12T06:41:57.000Z</time>
      </trkpt>
      <trkpt lat="47.37005" lon="5.00687">
        <ele>326.39999389648</ele>
        <time>2014-08-12T06:42:11.000Z</time>
      </trkpt>
      <trkpt lat="47.37002" lon="5.00675">
        <ele>325.79998779297</ele>
        <time>2014-08-12T06:42:17.000Z</time>
      </trkpt>
      <trkpt lat="47.37001" lon="5.00672">
        <ele>325.60000610352</ele>
        <time>2014-08-12T06:42:19.000Z</time>
      </trkpt>
      <trkpt lat="47.37" lon="5.00669">
        <ele>325.39999389648</ele>
        <time>2014-08-12T06:42:21.000Z</time>
      </trkpt>
      <trkpt lat="47.37" lon="5.00665">
        <ele>325.60000610352</ele>
        <time>2014-08-12T06:42:25.000Z</time>
      </trkpt>
      <trkpt lat="47.36999" lon="5.00654">
        <ele>325.20001220703</ele>
        <time>2014-08-12T06:42:30.000Z</time>
      </trkpt>
      <trkpt lat="47.37001" lon="5.0064">
        <ele>325.60000610352</ele>
        <time>2014-08-12T06:42:35.000Z</time>
      </trkpt>
      <trkpt lat="47.37" lon="5.00637">
        <ele>325.39999389648</ele>
        <time>2014-08-12T06:42:36.000Z</time>
      </trkpt>
      <trkpt lat="47.36999" lon="5.00628">
        <ele>325.39999389648</ele>
        <time>2014-08-12T06:42:41.000Z</time>
      </trkpt>
      <trkpt lat="47.36996" lon="5.00619">
        <ele>325.39999389648</ele>
        <time>2014-08-12T06:42:46.000Z</time>
      </trkpt>
      <trkpt lat="47.36996" lon="5.00611">
        <ele>325.60000610352</ele>
        <time>2014-08-12T06:42:50.000Z</time>
      </trkpt>
      <trkpt lat="47.36995" lon="5.00606">
        <ele>326</ele>
        <time>2014-08-12T06:42:52.000Z</time>
      </trkpt>
      <trkpt lat="47.36992" lon="5.00595">
        <ele>326.60000610352</ele>
        <time>2014-08-12T06:42:59.000Z</time>
      </trkpt>
      <trkpt lat="47.3699" lon="5.00593">
        <ele>327</ele>
        <time>2014-08-12T06:43:01.000Z</time>
      </trkpt>
      <trkpt lat="47.36988" lon="5.00588">
        <ele>327.60000610352</ele>
        <time>2014-08-12T06:43:05.000Z</time>
      </trkpt>
      <trkpt lat="47.36984" lon="5.0058">
        <ele>328.20001220703</ele>
        <time>2014-08-12T06:43:09.000Z</time>
      </trkpt>
      <trkpt lat="47.36984" lon="5.00575">
        <ele>328.39999389648</ele>
        <time>2014-08-12T06:43:12.000Z</time>
      </trkpt>
      <trkpt lat="47.36984" lon="5.00562">
        <ele>328.60000610352</ele>
        <time>2014-08-12T06:43:17.000Z</time>
      </trkpt>
      <trkpt lat="47.36984" lon="5.00559">
        <ele>328.79998779297</ele>
        <time>2014-08-12T06:43:19.000Z</time>
      </trkpt>
      <trkpt lat="47.36984" lon="5.00552">
        <ele>329</ele>
        <time>2014-08-12T06:43:24.000Z</time>
      </trkpt>
      <trkpt lat="47.36984" lon="5.00547">
        <ele>329</ele>
        <time>2014-08-12T06:43:28.000Z</time>
      </trkpt>
      <trkpt lat="47.36985" lon="5.00541">
        <ele>329</ele>
        <time>2014-08-12T06:43:31.000Z</time>
      </trkpt>
      <trkpt lat="47.36986" lon="5.0053">
        <ele>329.39999389648</ele>
        <time>2014-08-12T06:43:36.000Z</time>
      </trkpt>
      <trkpt lat="47.36984" lon="5.00522">
        <ele>330.20001220703</ele>
        <time>2014-08-12T06:43:39.000Z</time>
      </trkpt>
      <trkpt lat="47.36984" lon="5.00518">
        <ele>330.39999389648</ele>
        <time>2014-08-12T06:43:41.000Z</time>
      </trkpt>
      <trkpt lat="47.36985" lon="5.00512">
        <ele>330.60000610352</ele>
        <time>2014-08-12T06:43:44.000Z</time>
      </trkpt>
      <trkpt lat="47.36988" lon="5.00497">
        <ele>331.20001220703</ele>
        <time>2014-08-12T06:43:50.000Z</time>
      </trkpt>
      <trkpt lat="47.36989" lon="5.0049">
        <ele>331.39999389648</ele>
        <time>2014-08-12T06:43:52.000Z</time>
      </trkpt>
      <trkpt lat="47.3699" lon="5.00486">
        <ele>331.39999389648</ele>
        <time>2014-08-12T06:43:55.000Z</time>
      </trkpt>
      <trkpt lat="47.36991" lon="5.00481">
        <ele>331.60000610352</ele>
        <time>2014-08-12T06:44:02.000Z</time>
      </trkpt>
      <trkpt lat="47.36991" lon="5.00472">
        <ele>332.20001220703</ele>
        <time>2014-08-12T06:44:07.000Z</time>
      </trkpt>
      <trkpt lat="47.3699" lon="5.00469">
        <ele>332.60000610352</ele>
        <time>2014-08-12T06:44:10.000Z</time>
      </trkpt>
      <trkpt lat="47.36989" lon="5.00465">
        <ele>333</ele>
        <time>2014-08-12T06:44:12.000Z</time>
      </trkpt>
      <trkpt lat="47.36988" lon="5.00452">
        <ele>333.60000610352</ele>
        <time>2014-08-12T06:44:17.000Z</time>
      </trkpt>
      <trkpt lat="47.36984" lon="5.00448">
        <ele>334.20001220703</ele>
        <time>2014-08-12T06:44:21.000Z</time>
      </trkpt>
      <trkpt lat="47.36978" lon="5.00444">
        <ele>335</ele>
        <time>2014-08-12T06:44:25.000Z</time>
      </trkpt>
      <trkpt lat="47.36978" lon="5.0044">
        <ele>335.20001220703</ele>
        <time>2014-08-12T06:44:27.000Z</time>
      </trkpt>
      <trkpt lat="47.36977" lon="5.00433">
        <ele>335.39999389648</ele>
        <time>2014-08-12T06:44:31.000Z</time>
      </trkpt>
      <trkpt lat="47.36976" lon="5.00428">
        <ele>335.79998779297</ele>
        <time>2014-08-12T06:44:34.000Z</time>
      </trkpt>
      <trkpt lat="47.36974" lon="5.00426">
        <ele>336</ele>
        <time>2014-08-12T06:44:36.000Z</time>
      </trkpt>
      <trkpt lat="47.36972" lon="5.00417">
        <ele>336.60000610352</ele>
        <time>2014-08-12T06:44:40.000Z</time>
      </trkpt>
      <trkpt lat="47.36971" lon="5.00413">
        <ele>336.79998779297</ele>
        <time>2014-08-12T06:44:42.000Z</time>
      </trkpt>
      <trkpt lat="47.36969" lon="5.00403">
        <ele>337.39999389648</ele>
        <time>2014-08-12T06:44:46.000Z</time>
      </trkpt>
      <trkpt lat="47.36967" lon="5.00398">
        <ele>337.79998779297</ele>
        <time>2014-08-12T06:44:48.000Z</time>
      </trkpt>
      <trkpt lat="47.36963" lon="5.00388">
        <ele>338.60000610352</ele>
        <time>2014-08-12T06:44:53.000Z</time>
      </trkpt>
      <trkpt lat="47.3696" lon="5.00381">
        <ele>339.39999389648</ele>
        <time>2014-08-12T06:44:58.000Z</time>
      </trkpt>
      <trkpt lat="47.36959" lon="5.0038">
        <ele>339.39999389648</ele>
        <time>2014-08-12T06:44:59.000Z</time>
      </trkpt>
      <trkpt lat="47.36957" lon="5.0038">
        <ele>339.79998779297</ele>
        <time>2014-08-12T06:45:02.000Z</time>
      </trkpt>
      <trkpt lat="47.36955" lon="5.00377">
        <ele>340</ele>
        <time>2014-08-12T06:45:04.000Z</time>
      </trkpt>
      <trkpt lat="47.36952" lon="5.00369">
        <ele>340.20001220703</ele>
        <time>2014-08-12T06:45:08.000Z</time>
      </trkpt>
      <trkpt lat="47.36948" lon="5.00362">
        <ele>340.60000610352</ele>
        <time>2014-08-12T06:45:14.000Z</time>
      </trkpt>
      <trkpt lat="47.36948" lon="5.00362">
        <ele>340.39999389648</ele>
        <time>2014-08-12T06:45:15.000Z</time>
      </trkpt>
      <trkpt lat="47.36947" lon="5.0036">
        <ele>340.60000610352</ele>
        <time>2014-08-12T06:45:16.000Z</time>
      </trkpt>
      <trkpt lat="47.36941" lon="5.00353">
        <ele>341</ele>
        <time>2014-08-12T06:45:22.000Z</time>
      </trkpt>
      <trkpt lat="47.36939" lon="5.00351">
        <ele>341.20001220703</ele>
        <time>2014-08-12T06:45:25.000Z</time>
      </trkpt>
      <trkpt lat="47.36933" lon="5.00344">
        <ele>341.60000610352</ele>
        <time>2014-08-12T06:45:32.000Z</time>
      </trkpt>
      <trkpt lat="47.36931" lon="5.00335">
        <ele>341.60000610352</ele>
        <time>2014-08-12T06:45:37.000Z</time>
      </trkpt>
      <trkpt lat="47.36929" lon="5.00331">
        <ele>341.60000610352</ele>
        <time>2014-08-12T06:45:40.000Z</time>
      </trkpt>
      <trkpt lat="47.36926" lon="5.0033">
        <ele>342</ele>
        <time>2014-08-12T06:45:42.000Z</time>
      </trkpt>
      <trkpt lat="47.36922" lon="5.00319">
        <ele>342.20001220703</ele>
        <time>2014-08-12T06:45:47.000Z</time>
      </trkpt>
      <trkpt lat="47.36921" lon="5.00311">
        <ele>342</ele>
        <time>2014-08-12T06:45:52.000Z</time>
      </trkpt>
      <trkpt lat="47.36913" lon="5.00297">
        <ele>342.39999389648</ele>
        <time>2014-08-12T06:45:58.000Z</time>
      </trkpt>
      <trkpt lat="47.36909" lon="5.00288">
        <ele>342.79998779297</ele>
        <time>2014-08-12T06:46:04.000Z</time>
      </trkpt>
      <trkpt lat="47.36906" lon="5.00282">
        <ele>343.20001220703</ele>
        <time>2014-08-12T06:46:07.000Z</time>
      </trkpt>
      <trkpt lat="47.36906" lon="5.00278">
        <ele>343.20001220703</ele>
        <time>2014-08-12T06:46:09.000Z</time>
      </trkpt>
      <trkpt lat="47.36901" lon="5.0027">
        <ele>343.79998779297</ele>
        <time>2014-08-12T06:46:12.000Z</time>
      </trkpt>
      <trkpt lat="47.36899" lon="5.00266">
        <ele>344.20001220703</ele>
        <time>2014-08-12T06:46:15.000Z</time>
      </trkpt>
      <trkpt lat="47.36898" lon="5.0026">
        <ele>344.39999389648</ele>
        <time>2014-08-12T06:46:18.000Z</time>
      </trkpt>
      <trkpt lat="47.36897" lon="5.0025">
        <ele>344.39999389648</ele>
        <time>2014-08-12T06:46:24.000Z</time>
      </trkpt>
      <trkpt lat="47.36897" lon="5.00243">
        <ele>344.60000610352</ele>
        <time>2014-08-12T06:46:29.000Z</time>
      </trkpt>
      <trkpt lat="47.36895" lon="5.00237">
        <ele>344.79998779297</ele>
        <time>2014-08-12T06:46:32.000Z</time>
      </trkpt>
      <trkpt lat="47.36894" lon="5.00232">
        <ele>345</ele>
        <time>2014-08-12T06:46:36.000Z</time>
      </trkpt>
      <trkpt lat="47.36893" lon="5.00221">
        <ele>345</ele>
        <time>2014-08-12T06:46:42.000Z</time>
      </trkpt>
      <trkpt lat="47.36893" lon="5.0022">
        <ele>345</ele>
        <time>2014-08-12T06:46:44.000Z</time>
      </trkpt>
      <trkpt lat="47.36895" lon="5.00218">
        <ele>344.79998779297</ele>
        <time>2014-08-12T06:46:46.000Z</time>
      </trkpt>
      <trkpt lat="47.36893" lon="5.00206">
        <ele>345.20001220703</ele>
        <time>2014-08-12T06:46:52.000Z</time>
      </trkpt>
      <trkpt lat="47.36894" lon="5.00203">
        <ele>345</ele>
        <time>2014-08-12T06:46:54.000Z</time>
      </trkpt>
      <trkpt lat="47.36894" lon="5.00199">
        <ele>345</ele>
        <time>2014-08-12T06:46:56.000Z</time>
      </trkpt>
      <trkpt lat="47.36893" lon="5.00194">
        <ele>345</ele>
        <time>2014-08-12T06:47:00.000Z</time>
      </trkpt>
      <trkpt lat="47.36893" lon="5.00192">
        <ele>344.79998779297</ele>
        <time>2014-08-12T06:47:01.000Z</time>
      </trkpt>
      <trkpt lat="47.36893" lon="5.00181">
        <ele>345</ele>
        <time>2014-08-12T06:47:04.000Z</time>
      </trkpt>
      <trkpt lat="47.36894" lon="5.00172">
        <ele>345.20001220703</ele>
        <time>2014-08-12T06:47:10.000Z</time>
      </trkpt>
      <trkpt lat="47.36893" lon="5.00164">
        <ele>345.39999389648</ele>
        <time>2014-08-12T06:47:15.000Z</time>
      </trkpt>
      <trkpt lat="47.36892" lon="5.00154">
        <ele>345.79998779297</ele>
        <time>2014-08-12T06:47:20.000Z</time>
      </trkpt>
      <trkpt lat="47.36892" lon="5.00149">
        <ele>345.79998779297</ele>
        <time>2014-08-12T06:47:22.000Z</time>
      </trkpt>
      <trkpt lat="47.36892" lon="5.00146">
        <ele>346</ele>
        <time>2014-08-12T06:47:25.000Z</time>
      </trkpt>
      <trkpt lat="47.36889" lon="5.00138">
        <ele>346.39999389648</ele>
        <time>2014-08-12T06:47:30.000Z</time>
      </trkpt>
      <trkpt lat="47.36886" lon="5.00131">
        <ele>347</ele>
        <time>2014-08-12T06:47:35.000Z</time>
      </trkpt>
      <trkpt lat="47.36884" lon="5.00121">
        <ele>347.39999389648</ele>
        <time>2014-08-12T06:47:40.000Z</time>
      </trkpt>
      <trkpt lat="47.36883" lon="5.00108">
        <ele>347.60000610352</ele>
        <time>2014-08-12T06:47:46.000Z</time>
      </trkpt>
      <trkpt lat="47.36882" lon="5.00102">
        <ele>347.79998779297</ele>
        <time>2014-08-12T06:47:49.000Z</time>
      </trkpt>
      <trkpt lat="47.36881" lon="5.00091">
        <ele>348</ele>
        <time>2014-08-12T06:47:55.000Z</time>
      </trkpt>
      <trkpt lat="47.36882" lon="5.0008">
        <ele>348.39999389648</ele>
        <time>2014-08-12T06:48:00.000Z</time>
      </trkpt>
      <trkpt lat="47.36882" lon="5.00079">
        <ele>348.60000610352</ele>
        <time>2014-08-12T06:48:01.000Z</time>
      </trkpt>
      <trkpt lat="47.36882" lon="5.00076">
        <ele>348.60000610352</ele>
        <time>2014-08-12T06:48:03.000Z</time>
      </trkpt>
      <trkpt lat="47.36885" lon="5.00067">
        <ele>348.79998779297</ele>
        <time>2014-08-12T06:48:08.000Z</time>
      </trkpt>
      <trkpt lat="47.36884" lon="5.00056">
        <ele>349.39999389648</ele>
        <time>2014-08-12T06:48:13.000Z</time>
      </trkpt>
      <trkpt lat="47.36883" lon="5.00047">
        <ele>350</ele>
        <time>2014-08-12T06:48:17.000Z</time>
      </trkpt>
      <trkpt lat="47.36882" lon="5.00037">
        <ele>360.20001220703</ele>
        <time>2014-08-12T06:48:22.000Z</time>
      </trkpt>
      <trkpt lat="47.36882" lon="5.00036">
        <ele>360.20001220703</ele>
        <time>2014-08-12T06:48:23.000Z</time>
      </trkpt>
      <trkpt lat="47.36881" lon="5.00029">
        <ele>360.60000610352</ele>
        <time>2014-08-12T06:48:26.000Z</time>
      </trkpt>
      <trkpt lat="47.36883" lon="5.0002">
        <ele>361</ele>
        <time>2014-08-12T06:48:30.000Z</time>
      </trkpt>
      <trkpt lat="47.36883" lon="5.00016">
        <ele>361.20001220703</ele>
        <time>2014-08-12T06:48:32.000Z</time>
      </trkpt>
      <trkpt lat="47.36882" lon="5.00007">
        <ele>361.60000610352</ele>
        <time>2014-08-12T06:48:37.000Z</time>
      </trkpt>
      <trkpt lat="47.36881" lon="5.00003">
        <ele>361.39999389648</ele>
        <time>2014-08-12T06:48:39.000Z</time>
      </trkpt>
      <trkpt lat="47.36881" lon="4.99998">
        <ele>361.20001220703</ele>
        <time>2014-08-12T06:48:41.000Z</time>
      </trkpt>
      <trkpt lat="47.36881" lon="4.9999">
        <ele>361</ele>
        <time>2014-08-12T06:48:46.000Z</time>
      </trkpt>
      <trkpt lat="47.36882" lon="4.99983">
        <ele>360.60000610352</ele>
        <time>2014-08-12T06:48:52.000Z</time>
      </trkpt>
      <trkpt lat="47.36883" lon="4.99978">
        <ele>360.39999389648</ele>
        <time>2014-08-12T06:48:54.000Z</time>
      </trkpt>
      <trkpt lat="47.36885" lon="4.99968">
        <ele>359.79998779297</ele>
        <time>2014-08-12T06:48:59.000Z</time>
      </trkpt>
      <trkpt lat="47.36884" lon="4.99959">
        <ele>359.60000610352</ele>
        <time>2014-08-12T06:49:04.000Z</time>
      </trkpt>
      <trkpt lat="47.36883" lon="4.99948">
        <ele>360</ele>
        <time>2014-08-12T06:49:09.000Z</time>
      </trkpt>
      <trkpt lat="47.36884" lon="4.99936">
        <ele>360.39999389648</ele>
        <time>2014-08-12T06:49:15.000Z</time>
      </trkpt>
      <trkpt lat="47.36885" lon="4.99931">
        <ele>360.39999389648</ele>
        <time>2014-08-12T06:49:17.000Z</time>
      </trkpt>
      <trkpt lat="47.36885" lon="4.99928">
        <ele>360.60000610352</ele>
        <time>2014-08-12T06:49:19.000Z</time>
      </trkpt>
      <trkpt lat="47.36886" lon="4.9992">
        <ele>360.79998779297</ele>
        <time>2014-08-12T06:49:22.000Z</time>
      </trkpt>
      <trkpt lat="47.36887" lon="4.99917">
        <ele>360.79998779297</ele>
        <time>2014-08-12T06:49:25.000Z</time>
      </trkpt>
      <trkpt lat="47.36891" lon="4.9991">
        <ele>360.79998779297</ele>
        <time>2014-08-12T06:49:28.000Z</time>
      </trkpt>
      <trkpt lat="47.36891" lon="4.99904">
        <ele>360.79998779297</ele>
        <time>2014-08-12T06:49:31.000Z</time>
      </trkpt>
      <trkpt lat="47.36892" lon="4.999">
        <ele>361</ele>
        <time>2014-08-12T06:49:34.000Z</time>
      </trkpt>
      <trkpt lat="47.36892" lon="4.99895">
        <ele>361.20001220703</ele>
        <time>2014-08-12T06:49:37.000Z</time>
      </trkpt>
      <trkpt lat="47.36895" lon="4.99887">
        <ele>361.20001220703</ele>
        <time>2014-08-12T06:49:42.000Z</time>
      </trkpt>
      <trkpt lat="47.36895" lon="4.99886">
        <ele>361.20001220703</ele>
        <time>2014-08-12T06:49:44.000Z</time>
      </trkpt>
      <trkpt lat="47.36898" lon="4.99878">
        <ele>361.20001220703</ele>
        <time>2014-08-12T06:49:49.000Z</time>
      </trkpt>
      <trkpt lat="47.36899" lon="4.99877">
        <ele>361.20001220703</ele>
        <time>2014-08-12T06:49:50.000Z</time>
      </trkpt>
      <trkpt lat="47.369" lon="4.99874">
        <ele>361.20001220703</ele>
        <time>2014-08-12T06:49:52.000Z</time>
      </trkpt>
      <trkpt lat="47.36905" lon="4.99869">
        <ele>360.79998779297</ele>
        <time>2014-08-12T06:49:58.000Z</time>
      </trkpt>
      <trkpt lat="47.36906" lon="4.99866">
        <ele>360.79998779297</ele>
        <time>2014-08-12T06:50:02.000Z</time>
      </trkpt>
      <trkpt lat="47.36908" lon="4.99864">
        <ele>361</ele>
        <time>2014-08-12T06:50:04.000Z</time>
      </trkpt>
      <trkpt lat="47.36912" lon="4.99858">
        <ele>361.39999389648</ele>
        <time>2014-08-12T06:50:08.000Z</time>
      </trkpt>
      <trkpt lat="47.36913" lon="4.99854">
        <ele>361.79998779297</ele>
        <time>2014-08-12T06:50:10.000Z</time>
      </trkpt>
      <trkpt lat="47.36914" lon="4.99851">
        <ele>362</ele>
        <time>2014-08-12T06:50:12.000Z</time>
      </trkpt>
      <trkpt lat="47.36917" lon="4.99844">
        <ele>362.79998779297</ele>
        <time>2014-08-12T06:50:17.000Z</time>
      </trkpt>
      <trkpt lat="47.36921" lon="4.9984">
        <ele>363.39999389648</ele>
        <time>2014-08-12T06:50:22.000Z</time>
      </trkpt>
      <trkpt lat="47.36924" lon="4.99838">
        <ele>363.79998779297</ele>
        <time>2014-08-12T06:50:24.000Z</time>
      </trkpt>
      <trkpt lat="47.36927" lon="4.99834">
        <ele>364.39999389648</ele>
        <time>2014-08-12T06:50:29.000Z</time>
      </trkpt>
      <trkpt lat="47.36932" lon="4.99827">
        <ele>365.39999389648</ele>
        <time>2014-08-12T06:50:32.000Z</time>
      </trkpt>
      <trkpt lat="47.3694" lon="4.99821">
        <ele>366.39999389648</ele>
        <time>2014-08-12T06:50:39.000Z</time>
      </trkpt>
      <trkpt lat="47.36941" lon="4.99821">
        <ele>366.39999389648</ele>
        <time>2014-08-12T06:50:40.000Z</time>
      </trkpt>
      <trkpt lat="47.36942" lon="4.99819">
        <ele>366.60000610352</ele>
        <time>2014-08-12T06:50:41.000Z</time>
      </trkpt>
      <trkpt lat="47.36952" lon="4.99811">
        <ele>366.79998779297</ele>
        <time>2014-08-12T06:50:48.000Z</time>
      </trkpt>
      <trkpt lat="47.36952" lon="4.99809">
        <ele>366.79998779297</ele>
        <time>2014-08-12T06:50:49.000Z</time>
      </trkpt>
      <trkpt lat="47.36953" lon="4.99806">
        <ele>366.79998779297</ele>
        <time>2014-08-12T06:50:50.000Z</time>
      </trkpt>
      <trkpt lat="47.36957" lon="4.99802">
        <ele>366.79998779297</ele>
        <time>2014-08-12T06:50:52.000Z</time>
      </trkpt>
      <trkpt lat="47.36958" lon="4.99802">
        <ele>366.79998779297</ele>
        <time>2014-08-12T06:50:54.000Z</time>
      </trkpt>
      <trkpt lat="47.36963" lon="4.99796">
        <ele>367</ele>
        <time>2014-08-12T06:50:58.000Z</time>
      </trkpt>
      <trkpt lat="47.36964" lon="4.99795">
        <ele>367</ele>
        <time>2014-08-12T06:50:59.000Z</time>
      </trkpt>
      <trkpt lat="47.36969" lon="4.99789">
        <ele>367.20001220703</ele>
        <time>2014-08-12T06:51:02.000Z</time>
      </trkpt>
      <trkpt lat="47.36977" lon="4.99778">
        <ele>367.79998779297</ele>
        <time>2014-08-12T06:51:09.000Z</time>
      </trkpt>
      <trkpt lat="47.36983" lon="4.99768">
        <ele>368.39999389648</ele>
        <time>2014-08-12T06:51:14.000Z</time>
      </trkpt>
      <trkpt lat="47.3699" lon="4.99756">
        <ele>369.39999389648</ele>
        <time>2014-08-12T06:51:21.000Z</time>
      </trkpt>
      <trkpt lat="47.36992" lon="4.99752">
        <ele>369.79998779297</ele>
        <time>2014-08-12T06:51:24.000Z</time>
      </trkpt>
      <trkpt lat="47.36994" lon="4.99737">
        <ele>370.79998779297</ele>
        <time>2014-08-12T06:51:31.000Z</time>
      </trkpt>
      <trkpt lat="47.36995" lon="4.99736">
        <ele>371</ele>
        <time>2014-08-12T06:51:32.000Z</time>
      </trkpt>
      <trkpt lat="47.36996" lon="4.99731">
        <ele>371.39999389648</ele>
        <time>2014-08-12T06:51:34.000Z</time>
      </trkpt>
      <trkpt lat="47.37001" lon="4.99718">
        <ele>372.39999389648</ele>
        <time>2014-08-12T06:51:40.000Z</time>
      </trkpt>
      <trkpt lat="47.37004" lon="4.99707">
        <ele>373.20001220703</ele>
        <time>2014-08-12T06:51:45.000Z</time>
      </trkpt>
      <trkpt lat="47.37006" lon="4.99703">
        <ele>373.39999389648</ele>
        <time>2014-08-12T06:51:47.000Z</time>
      </trkpt>
      <trkpt lat="47.37007" lon="4.997">
        <ele>373.60000610352</ele>
        <time>2014-08-12T06:51:49.000Z</time>
      </trkpt>
      <trkpt lat="47.37011" lon="4.99692">
        <ele>373.79998779297</ele>
        <time>2014-08-12T06:51:52.000Z</time>
      </trkpt>
      <trkpt lat="47.37012" lon="4.99688">
        <ele>374</ele>
        <time>2014-08-12T06:51:55.000Z</time>
      </trkpt>
      <trkpt lat="47.37012" lon="4.99685">
        <ele>374</ele>
        <time>2014-08-12T06:51:57.000Z</time>
      </trkpt>
      <trkpt lat="47.37013" lon="4.99678">
        <ele>374.20001220703</ele>
        <time>2014-08-12T06:51:59.000Z</time>
      </trkpt>
      <trkpt lat="47.37014" lon="4.99674">
        <ele>374.39999389648</ele>
        <time>2014-08-12T06:52:02.000Z</time>
      </trkpt>
      <trkpt lat="47.37018" lon="4.99654">
        <ele>375</ele>
        <time>2014-08-12T06:52:09.000Z</time>
      </trkpt>
      <trkpt lat="47.3702" lon="4.99649">
        <ele>375.20001220703</ele>
        <time>2014-08-12T06:52:12.000Z</time>
      </trkpt>
      <trkpt lat="47.37023" lon="4.99634">
        <ele>375.39999389648</ele>
        <time>2014-08-12T06:52:17.000Z</time>
      </trkpt>
      <trkpt lat="47.37023" lon="4.99632">
        <ele>375.60000610352</ele>
        <time>2014-08-12T06:52:19.000Z</time>
      </trkpt>
      <trkpt lat="47.37026" lon="4.99626">
        <ele>375.60000610352</ele>
        <time>2014-08-12T06:52:21.000Z</time>
      </trkpt>
      <trkpt lat="47.37029" lon="4.99617">
        <ele>376</ele>
        <time>2014-08-12T06:52:26.000Z</time>
      </trkpt>
      <trkpt lat="47.37031" lon="4.99603">
        <ele>376.60000610352</ele>
        <time>2014-08-12T06:52:31.000Z</time>
      </trkpt>
      <trkpt lat="47.37031" lon="4.99599">
        <ele>376.79998779297</ele>
        <time>2014-08-12T06:52:33.000Z</time>
      </trkpt>
      <trkpt lat="47.3703" lon="4.99594">
        <ele>376.79998779297</ele>
        <time>2014-08-12T06:52:35.000Z</time>
      </trkpt>
      <trkpt lat="47.3703" lon="4.99584">
        <ele>377.20001220703</ele>
        <time>2014-08-12T06:52:39.000Z</time>
      </trkpt>
      <trkpt lat="47.37036" lon="4.99576">
        <ele>377.60000610352</ele>
        <time>2014-08-12T06:52:44.000Z</time>
      </trkpt>
      <trkpt lat="47.37037" lon="4.99575">
        <ele>377.60000610352</ele>
        <time>2014-08-12T06:52:45.000Z</time>
      </trkpt>
      <trkpt lat="47.37037" lon="4.99575">
        <ele>377.60000610352</ele>
        <time>2014-08-12T06:52:46.000Z</time>
      </trkpt>
      <trkpt lat="47.37038" lon="4.99573">
        <ele>377.79998779297</ele>
        <time>2014-08-12T06:52:58.000Z</time>
      </trkpt>
      <trkpt lat="47.37048" lon="4.99569">
        <ele>378</ele>
        <time>2014-08-12T06:53:54.000Z</time>
      </trkpt>
      <trkpt lat="47.37054" lon="4.99579">
        <ele>377.79998779297</ele>
        <time>2014-08-12T06:54:02.000Z</time>
      </trkpt>
      <trkpt lat="47.37059" lon="4.9959">
        <ele>377.60000610352</ele>
        <time>2014-08-12T06:54:08.000Z</time>
      </trkpt>
      <trkpt lat="47.37066" lon="4.99603">
        <ele>377.39999389648</ele>
        <time>2014-08-12T06:54:17.000Z</time>
      </trkpt>
      <trkpt lat="47.37074" lon="4.99617">
        <ele>377</ele>
        <time>2014-08-12T06:54:25.000Z</time>
      </trkpt>
      <trkpt lat="47.37082" lon="4.99629">
        <ele>377</ele>
        <time>2014-08-12T06:54:34.000Z</time>
      </trkpt>
      <trkpt lat="47.3709" lon="4.9964">
        <ele>377.20001220703</ele>
        <time>2014-08-12T06:54:42.000Z</time>
      </trkpt>
      <trkpt lat="47.37097" lon="4.99648">
        <ele>377.39999389648</ele>
        <time>2014-08-12T06:54:48.000Z</time>
      </trkpt>
      <trkpt lat="47.37103" lon="4.99656">
        <ele>377.60000610352</ele>
        <time>2014-08-12T06:54:54.000Z</time>
      </trkpt>
      <trkpt lat="47.37111" lon="4.99662">
        <ele>378</ele>
        <time>2014-08-12T06:55:00.000Z</time>
      </trkpt>
      <trkpt lat="47.37119" lon="4.99669">
        <ele>378.20001220703</ele>
        <time>2014-08-12T06:55:07.000Z</time>
      </trkpt>
      <trkpt lat="47.37124" lon="4.99673">
        <ele>378.39999389648</ele>
        <time>2014-08-12T06:55:10.000Z</time>
      </trkpt>
      <trkpt lat="47.37134" lon="4.99682">
        <ele>378.79998779297</ele>
        <time>2014-08-12T06:55:18.000Z</time>
      </trkpt>
      <trkpt lat="47.37148" lon="4.99689">
        <ele>379.60000610352</ele>
        <time>2014-08-12T06:55:27.000Z</time>
      </trkpt>
      <trkpt lat="47.3716" lon="4.99693">
        <ele>380.39999389648</ele>
        <time>2014-08-12T06:55:34.000Z</time>
      </trkpt>
      <trkpt lat="47.37171" lon="4.99697">
        <ele>380.79998779297</ele>
        <time>2014-08-12T06:55:42.000Z</time>
      </trkpt>
      <trkpt lat="47.37181" lon="4.99702">
        <ele>381</ele>
        <time>2014-08-12T06:55:48.000Z</time>
      </trkpt>
      <trkpt lat="47.37191" lon="4.99706">
        <ele>381.39999389648</ele>
        <time>2014-08-12T06:55:54.000Z</time>
      </trkpt>
      <trkpt lat="47.37199" lon="4.99712">
        <ele>381.39999389648</ele>
        <time>2014-08-12T06:56:00.000Z</time>
      </trkpt>
      <trkpt lat="47.37209" lon="4.99717">
        <ele>381.79998779297</ele>
        <time>2014-08-12T06:56:07.000Z</time>
      </trkpt>
      <trkpt lat="47.37222" lon="4.99725">
        <ele>382</ele>
        <time>2014-08-12T06:56:16.000Z</time>
      </trkpt>
      <trkpt lat="47.37233" lon="4.9973">
        <ele>382.20001220703</ele>
        <time>2014-08-12T06:56:22.000Z</time>
      </trkpt>
      <trkpt lat="47.37242" lon="4.99734">
        <ele>382.39999389648</ele>
        <time>2014-08-12T06:56:28.000Z</time>
      </trkpt>
      <trkpt lat="47.37255" lon="4.99743">
        <ele>382.60000610352</ele>
        <time>2014-08-12T06:56:38.000Z</time>
      </trkpt>
      <trkpt lat="47.37262" lon="4.99747">
        <ele>382.60000610352</ele>
        <time>2014-08-12T06:56:43.000Z</time>
      </trkpt>
      <trkpt lat="47.37269" lon="4.99754">
        <ele>382.60000610352</ele>
        <time>2014-08-12T06:56:49.000Z</time>
      </trkpt>
      <trkpt lat="47.37278" lon="4.99763">
        <ele>382.39999389648</ele>
        <time>2014-08-12T06:56:55.000Z</time>
      </trkpt>
      <trkpt lat="47.37291" lon="4.9977">
        <ele>382.60000610352</ele>
        <time>2014-08-12T06:57:02.000Z</time>
      </trkpt>
      <trkpt lat="47.373" lon="4.99773">
        <ele>382.79998779297</ele>
        <time>2014-08-12T06:57:08.000Z</time>
      </trkpt>
      <trkpt lat="47.37311" lon="4.99773">
        <ele>383.20001220703</ele>
        <time>2014-08-12T06:57:14.000Z</time>
      </trkpt>
      <trkpt lat="47.37313" lon="4.99773">
        <ele>383.20001220703</ele>
        <time>2014-08-12T06:57:15.000Z</time>
      </trkpt>
      <trkpt lat="47.37323" lon="4.99775">
        <ele>383.60000610352</ele>
        <time>2014-08-12T06:57:21.000Z</time>
      </trkpt>
      <trkpt lat="47.37332" lon="4.99775">
        <ele>384</ele>
        <time>2014-08-12T06:57:27.000Z</time>
      </trkpt>
      <trkpt lat="47.3734" lon="4.99775">
        <ele>383.79998779297</ele>
        <time>2014-08-12T06:57:32.000Z</time>
      </trkpt>
      <trkpt lat="47.37348" lon="4.99774">
        <ele>383.79998779297</ele>
        <time>2014-08-12T06:57:38.000Z</time>
      </trkpt>
      <trkpt lat="47.37358" lon="4.99774">
        <ele>383.79998779297</ele>
        <time>2014-08-12T06:57:44.000Z</time>
      </trkpt>
      <trkpt lat="47.37367" lon="4.99777">
        <ele>383.39999389648</ele>
        <time>2014-08-12T06:57:49.000Z</time>
      </trkpt>
      <trkpt lat="47.37368" lon="4.99778">
        <ele>383.39999389648</ele>
        <time>2014-08-12T06:57:50.000Z</time>
      </trkpt>
      <trkpt lat="47.37379" lon="4.9978">
        <ele>383.20001220703</ele>
        <time>2014-08-12T06:57:56.000Z</time>
      </trkpt>
      <trkpt lat="47.37389" lon="4.99778">
        <ele>383.20001220703</ele>
        <time>2014-08-12T06:58:02.000Z</time>
      </trkpt>
      <trkpt lat="47.37395" lon="4.99777">
        <ele>383.20001220703</ele>
        <time>2014-08-12T06:58:06.000Z</time>
      </trkpt>
      <trkpt lat="47.3741" lon="4.99778">
        <ele>382.79998779297</ele>
        <time>2014-08-12T06:58:16.000Z</time>
      </trkpt>
      <trkpt lat="47.37421" lon="4.99779">
        <ele>382.79998779297</ele>
        <time>2014-08-12T06:58:24.000Z</time>
      </trkpt>
      <trkpt lat="47.37431" lon="4.99774">
        <ele>383.39999389648</ele>
        <time>2014-08-12T06:58:31.000Z</time>
      </trkpt>
      <trkpt lat="47.37439" lon="4.99775">
        <ele>383.60000610352</ele>
        <time>2014-08-12T06:58:36.000Z</time>
      </trkpt>
      <trkpt lat="47.37442" lon="4.99775">
        <ele>383.79998779297</ele>
        <time>2014-08-12T06:58:38.000Z</time>
      </trkpt>
      <trkpt lat="47.37446" lon="4.99775">
        <ele>384</ele>
        <time>2014-08-12T06:58:40.000Z</time>
      </trkpt>
      <trkpt lat="47.37449" lon="4.99775">
        <ele>384</ele>
        <time>2014-08-12T06:58:45.000Z</time>
      </trkpt>
      <trkpt lat="47.37452" lon="4.99776">
        <ele>384</ele>
        <time>2014-08-12T06:58:51.000Z</time>
      </trkpt>
      <trkpt lat="47.37456" lon="4.99779">
        <ele>384</ele>
        <time>2014-08-12T06:59:51.000Z</time>
      </trkpt>
      <trkpt lat="47.37467" lon="4.99788">
        <ele>384</ele>
        <time>2014-08-12T06:59:59.000Z</time>
      </trkpt>
      <trkpt lat="47.37478" lon="4.99795">
        <ele>384</ele>
        <time>2014-08-12T07:00:06.000Z</time>
      </trkpt>
      <trkpt lat="47.37491" lon="4.99804">
        <ele>384</ele>
        <time>2014-08-12T07:00:14.000Z</time>
      </trkpt>
      <trkpt lat="47.37503" lon="4.99811">
        <ele>384.20001220703</ele>
        <time>2014-08-12T07:00:23.000Z</time>
      </trkpt>
      <trkpt lat="47.37527" lon="4.99826">
        <ele>385.39999389648</ele>
        <time>2014-08-12T07:00:38.000Z</time>
      </trkpt>
      <trkpt lat="47.37535" lon="4.99831">
        <ele>385.79998779297</ele>
        <time>2014-08-12T07:00:44.000Z</time>
      </trkpt>
      <trkpt lat="47.37543" lon="4.99835">
        <ele>386.20001220703</ele>
        <time>2014-08-12T07:00:51.000Z</time>
      </trkpt>
      <trkpt lat="47.37551" lon="4.99838">
        <ele>386.39999389648</ele>
        <time>2014-08-12T07:00:59.000Z</time>
      </trkpt>
      <trkpt lat="47.37558" lon="4.99841">
        <ele>386.79998779297</ele>
        <time>2014-08-12T07:01:05.000Z</time>
      </trkpt>
      <trkpt lat="47.3757" lon="4.99845">
        <ele>387.20001220703</ele>
        <time>2014-08-12T07:01:13.000Z</time>
      </trkpt>
      <trkpt lat="47.37584" lon="4.99849">
        <ele>387.79998779297</ele>
        <time>2014-08-12T07:01:23.000Z</time>
      </trkpt>
      <trkpt lat="47.37598" lon="4.99854">
        <ele>388.60000610352</ele>
        <time>2014-08-12T07:01:31.000Z</time>
      </trkpt>
      <trkpt lat="47.3761" lon="4.99858">
        <ele>389.20001220703</ele>
        <time>2014-08-12T07:01:39.000Z</time>
      </trkpt>
      <trkpt lat="47.37623" lon="4.99862">
        <ele>389.79998779297</ele>
        <time>2014-08-12T07:01:48.000Z</time>
      </trkpt>
      <trkpt lat="47.37636" lon="4.99865">
        <ele>390.60000610352</ele>
        <time>2014-08-12T07:01:56.000Z</time>
      </trkpt>
      <trkpt lat="47.37646" lon="4.99868">
        <ele>391</ele>
        <time>2014-08-12T07:02:04.000Z</time>
      </trkpt>
      <trkpt lat="47.37661" lon="4.99871">
        <ele>391.79998779297</ele>
        <time>2014-08-12T07:02:14.000Z</time>
      </trkpt>
      <trkpt lat="47.37678" lon="4.99873">
        <ele>391.79998779297</ele>
        <time>2014-08-12T07:02:24.000Z</time>
      </trkpt>
      <trkpt lat="47.37688" lon="4.99873">
        <ele>391.79998779297</ele>
        <time>2014-08-12T07:02:31.000Z</time>
      </trkpt>
      <trkpt lat="47.37696" lon="4.99873">
        <ele>391.60000610352</ele>
        <time>2014-08-12T07:02:36.000Z</time>
      </trkpt>
      <trkpt lat="47.37703" lon="4.99872">
        <ele>391.60000610352</ele>
        <time>2014-08-12T07:02:41.000Z</time>
      </trkpt>
      <trkpt lat="47.37711" lon="4.99873">
        <ele>391.39999389648</ele>
        <time>2014-08-12T07:02:48.000Z</time>
      </trkpt>
      <trkpt lat="47.37718" lon="4.99874">
        <ele>391.39999389648</ele>
        <time>2014-08-12T07:02:53.000Z</time>
      </trkpt>
      <trkpt lat="47.37727" lon="4.99873">
        <ele>391.20001220703</ele>
        <time>2014-08-12T07:02:59.000Z</time>
      </trkpt>
      <trkpt lat="47.37736" lon="4.99874">
        <ele>391.20001220703</ele>
        <time>2014-08-12T07:03:04.000Z</time>
      </trkpt>
      <trkpt lat="47.37743" lon="4.99873">
        <ele>391</ele>
        <time>2014-08-12T07:03:09.000Z</time>
      </trkpt>
      <trkpt lat="47.37751" lon="4.99871">
        <ele>391.20001220703</ele>
        <time>2014-08-12T07:03:14.000Z</time>
      </trkpt>
      <trkpt lat="47.37758" lon="4.99872">
        <ele>391.20001220703</ele>
        <time>2014-08-12T07:03:20.000Z</time>
      </trkpt>
      <trkpt lat="47.37761" lon="4.99871">
        <ele>391.20001220703</ele>
        <time>2014-08-12T07:03:21.000Z</time>
      </trkpt>
      <trkpt lat="47.37771" lon="4.99872">
        <ele>391.20001220703</ele>
        <time>2014-08-12T07:03:28.000Z</time>
      </trkpt>
      <trkpt lat="47.37773" lon="4.99872">
        <ele>391.20001220703</ele>
        <time>2014-08-12T07:03:30.000Z</time>
      </trkpt>
      <trkpt lat="47.37784" lon="4.99873">
        <ele>391</ele>
        <time>2014-08-12T07:03:36.000Z</time>
      </trkpt>
      <trkpt lat="47.37792" lon="4.99873">
        <ele>391</ele>
        <time>2014-08-12T07:03:41.000Z</time>
      </trkpt>
      <trkpt lat="47.37797" lon="4.99876">
        <ele>391</ele>
        <time>2014-08-12T07:03:46.000Z</time>
      </trkpt>
      <trkpt lat="47.378" lon="4.99876">
        <ele>391</ele>
        <time>2014-08-12T07:03:48.000Z</time>
      </trkpt>
      <trkpt lat="47.37803" lon="4.99875">
        <ele>391</ele>
        <time>2014-08-12T07:03:50.000Z</time>
      </trkpt>
      <trkpt lat="47.37808" lon="4.99875">
        <ele>391</ele>
        <time>2014-08-12T07:03:54.000Z</time>
      </trkpt>
      <trkpt lat="47.37814" lon="4.99875">
        <ele>391</ele>
        <time>2014-08-12T07:03:58.000Z</time>
      </trkpt>
      <trkpt lat="47.37818" lon="4.99878">
        <ele>391</ele>
        <time>2014-08-12T07:04:01.000Z</time>
      </trkpt>
      <trkpt lat="47.37822" lon="4.99878">
        <ele>391</ele>
        <time>2014-08-12T07:04:02.000Z</time>
      </trkpt>
      <trkpt lat="47.37827" lon="4.9988">
        <ele>391</ele>
        <time>2014-08-12T07:04:05.000Z</time>
      </trkpt>
      <trkpt lat="47.37831" lon="4.99883">
        <ele>391</ele>
        <time>2014-08-12T07:04:08.000Z</time>
      </trkpt>
      <trkpt lat="47.37837" lon="4.99887">
        <ele>391</ele>
        <time>2014-08-12T07:04:11.000Z</time>
      </trkpt>
      <trkpt lat="47.37846" lon="4.99889">
        <ele>391</ele>
        <time>2014-08-12T07:04:18.000Z</time>
      </trkpt>
      <trkpt lat="47.37849" lon="4.9989">
        <ele>391</ele>
        <time>2014-08-12T07:04:20.000Z</time>
      </trkpt>
      <trkpt lat="47.37854" lon="4.99891">
        <ele>391</ele>
        <time>2014-08-12T07:04:23.000Z</time>
      </trkpt>
      <trkpt lat="47.37865" lon="4.99896">
        <ele>391</ele>
        <time>2014-08-12T07:04:29.000Z</time>
      </trkpt>
      <trkpt lat="47.37872" lon="4.99899">
        <ele>391</ele>
        <time>2014-08-12T07:04:34.000Z</time>
      </trkpt>
      <trkpt lat="47.37873" lon="4.99899">
        <ele>391</ele>
        <time>2014-08-12T07:04:35.000Z</time>
      </trkpt>
      <trkpt lat="47.37887" lon="4.99901">
        <ele>391</ele>
        <time>2014-08-12T07:04:43.000Z</time>
      </trkpt>
      <trkpt lat="47.37897" lon="4.99902">
        <ele>391</ele>
        <time>2014-08-12T07:04:49.000Z</time>
      </trkpt>
      <trkpt lat="47.37902" lon="4.99902">
        <ele>391</ele>
        <time>2014-08-12T07:04:52.000Z</time>
      </trkpt>
      <trkpt lat="47.37907" lon="4.99905">
        <ele>391</ele>
        <time>2014-08-12T07:04:56.000Z</time>
      </trkpt>
      <trkpt lat="47.37911" lon="4.99906">
        <ele>391</ele>
        <time>2014-08-12T07:04:59.000Z</time>
      </trkpt>
      <trkpt lat="47.37918" lon="4.99907">
        <ele>391</ele>
        <time>2014-08-12T07:05:04.000Z</time>
      </trkpt>
      <trkpt lat="47.37928" lon="4.99904">
        <ele>391</ele>
        <time>2014-08-12T07:05:08.000Z</time>
      </trkpt>
      <trkpt lat="47.37937" lon="4.99902">
        <ele>391</ele>
        <time>2014-08-12T07:05:14.000Z</time>
      </trkpt>
      <trkpt lat="47.37943" lon="4.99901">
        <ele>391</ele>
        <time>2014-08-12T07:05:17.000Z</time>
      </trkpt>
      <trkpt lat="47.37946" lon="4.99899">
        <ele>391.20001220703</ele>
        <time>2014-08-12T07:05:20.000Z</time>
      </trkpt>
      <trkpt lat="47.37956" lon="4.99898">
        <ele>391.60000610352</ele>
        <time>2014-08-12T07:05:25.000Z</time>
      </trkpt>
      <trkpt lat="47.37965" lon="4.99898">
        <ele>392</ele>
        <time>2014-08-12T07:05:31.000Z</time>
      </trkpt>
      <trkpt lat="47.37967" lon="4.99898">
        <ele>392</ele>
        <time>2014-08-12T07:05:33.000Z</time>
      </trkpt>
      <trkpt lat="47.3797" lon="4.99899">
        <ele>392.20001220703</ele>
        <time>2014-08-12T07:05:35.000Z</time>
      </trkpt>
      <trkpt lat="47.37979" lon="4.99899">
        <ele>392.39999389648</ele>
        <time>2014-08-12T07:05:41.000Z</time>
      </trkpt>
      <trkpt lat="47.37985" lon="4.99899">
        <ele>392.60000610352</ele>
        <time>2014-08-12T07:05:45.000Z</time>
      </trkpt>
      <trkpt lat="47.37988" lon="4.99899">
        <ele>392.79998779297</ele>
        <time>2014-08-12T07:05:47.000Z</time>
      </trkpt>
      <trkpt lat="47.37993" lon="4.99901">
        <ele>392.79998779297</ele>
        <time>2014-08-12T07:05:51.000Z</time>
      </trkpt>
      <trkpt lat="47.37998" lon="4.99902">
        <ele>393</ele>
        <time>2014-08-12T07:05:55.000Z</time>
      </trkpt>
      <trkpt lat="47.38004" lon="4.999">
        <ele>393.20001220703</ele>
        <time>2014-08-12T07:05:59.000Z</time>
      </trkpt>
      <trkpt lat="47.38008" lon="4.99899">
        <ele>393.20001220703</ele>
        <time>2014-08-12T07:06:02.000Z</time>
      </trkpt>
      <trkpt lat="47.38012" lon="4.99899">
        <ele>393.20001220703</ele>
        <time>2014-08-12T07:06:04.000Z</time>
      </trkpt>
      <trkpt lat="47.38013" lon="4.99898">
        <ele>393.20001220703</ele>
        <time>2014-08-12T07:06:06.000Z</time>
      </trkpt>
      <trkpt lat="47.38027" lon="4.99897">
        <ele>393.20001220703</ele>
        <time>2014-08-12T07:06:13.000Z</time>
      </trkpt>
      <trkpt lat="47.3804" lon="4.99896">
        <ele>393</ele>
        <time>2014-08-12T07:06:20.000Z</time>
      </trkpt>
      <trkpt lat="47.38052" lon="4.99893">
        <ele>393</ele>
        <time>2014-08-12T07:06:28.000Z</time>
      </trkpt>
      <trkpt lat="47.38063" lon="4.99888">
        <ele>393</ele>
        <time>2014-08-12T07:06:35.000Z</time>
      </trkpt>
      <trkpt lat="47.38071" lon="4.99884">
        <ele>393</ele>
        <time>2014-08-12T07:06:39.000Z</time>
      </trkpt>
      <trkpt lat="47.38082" lon="4.99878">
        <ele>393</ele>
        <time>2014-08-12T07:06:46.000Z</time>
      </trkpt>
      <trkpt lat="47.38093" lon="4.9987">
        <ele>393.39999389648</ele>
        <time>2014-08-12T07:06:51.000Z</time>
      </trkpt>
      <trkpt lat="47.381" lon="4.99866">
        <ele>393.79998779297</ele>
        <time>2014-08-12T07:06:55.000Z</time>
      </trkpt>
      <trkpt lat="47.38106" lon="4.99861">
        <ele>394.20001220703</ele>
        <time>2014-08-12T07:06:59.000Z</time>
      </trkpt>
      <trkpt lat="47.3811" lon="4.99861">
        <ele>394.39999389648</ele>
        <time>2014-08-12T07:07:02.000Z</time>
      </trkpt>
      <trkpt lat="47.38112" lon="4.9986">
        <ele>394.39999389648</ele>
        <time>2014-08-12T07:07:04.000Z</time>
      </trkpt>
      <trkpt lat="47.38117" lon="4.99859">
        <ele>394.60000610352</ele>
        <time>2014-08-12T07:07:08.000Z</time>
      </trkpt>
      <trkpt lat="47.38123" lon="4.99856">
        <ele>394.79998779297</ele>
        <time>2014-08-12T07:07:22.000Z</time>
      </trkpt>
      <trkpt lat="47.38123" lon="4.99853">
        <ele>395</ele>
        <time>2014-08-12T07:07:25.000Z</time>
      </trkpt>
      <trkpt lat="47.38124" lon="4.99842">
        <ele>395.60000610352</ele>
        <time>2014-08-12T07:07:30.000Z</time>
      </trkpt>
      <trkpt lat="47.38124" lon="4.99834">
        <ele>396</ele>
        <time>2014-08-12T07:07:35.000Z</time>
      </trkpt>
      <trkpt lat="47.38128" lon="4.99825">
        <ele>396</ele>
        <time>2014-08-12T07:07:40.000Z</time>
      </trkpt>
      <trkpt lat="47.38134" lon="4.99813">
        <ele>396.20001220703</ele>
        <time>2014-08-12T07:07:46.000Z</time>
      </trkpt>
      <trkpt lat="47.38137" lon="4.99807">
        <ele>396.20001220703</ele>
        <time>2014-08-12T07:07:50.000Z</time>
      </trkpt>
      <trkpt lat="47.38139" lon="4.99803">
        <ele>396.20001220703</ele>
        <time>2014-08-12T07:07:51.000Z</time>
      </trkpt>
      <trkpt lat="47.38141" lon="4.99798">
        <ele>396.20001220703</ele>
        <time>2014-08-12T07:07:55.000Z</time>
      </trkpt>
      <trkpt lat="47.38147" lon="4.99785">
        <ele>396.39999389648</ele>
        <time>2014-08-12T07:08:04.000Z</time>
      </trkpt>
      <trkpt lat="47.38149" lon="4.99782">
        <ele>396.39999389648</ele>
        <time>2014-08-12T07:08:06.000Z</time>
      </trkpt>
      <trkpt lat="47.38151" lon="4.99778">
        <ele>396.60000610352</ele>
        <time>2014-08-12T07:08:08.000Z</time>
      </trkpt>
      <trkpt lat="47.38156" lon="4.99767">
        <ele>396.39999389648</ele>
        <time>2014-08-12T07:08:14.000Z</time>
      </trkpt>
      <trkpt lat="47.38157" lon="4.99762">
        <ele>396.20001220703</ele>
        <time>2014-08-12T07:08:16.000Z</time>
      </trkpt>
      <trkpt lat="47.38157" lon="4.9976">
        <ele>396.20001220703</ele>
        <time>2014-08-12T07:08:18.000Z</time>
      </trkpt>
      <trkpt lat="47.38163" lon="4.99751">
        <ele>396</ele>
        <time>2014-08-12T07:08:23.000Z</time>
      </trkpt>
      <trkpt lat="47.38167" lon="4.99741">
        <ele>396</ele>
        <time>2014-08-12T07:08:28.000Z</time>
      </trkpt>
      <trkpt lat="47.38171" lon="4.99732">
        <ele>396.20001220703</ele>
        <time>2014-08-12T07:08:32.000Z</time>
      </trkpt>
      <trkpt lat="47.38174" lon="4.99726">
        <ele>396.20001220703</ele>
        <time>2014-08-12T07:08:36.000Z</time>
      </trkpt>
      <trkpt lat="47.38178" lon="4.99719">
        <ele>396.39999389648</ele>
        <time>2014-08-12T07:08:40.000Z</time>
      </trkpt>
      <trkpt lat="47.3818" lon="4.99715">
        <ele>396.39999389648</ele>
        <time>2014-08-12T07:08:41.000Z</time>
      </trkpt>
      <trkpt lat="47.38187" lon="4.99703">
        <ele>396.60000610352</ele>
        <time>2014-08-12T07:08:49.000Z</time>
      </trkpt>
      <trkpt lat="47.38189" lon="4.997">
        <ele>396.60000610352</ele>
        <time>2014-08-12T07:08:50.000Z</time>
      </trkpt>
      <trkpt lat="47.38195" lon="4.9969">
        <ele>396.79998779297</ele>
        <time>2014-08-12T07:08:56.000Z</time>
      </trkpt>
      <trkpt lat="47.38196" lon="4.99688">
        <ele>396.79998779297</ele>
        <time>2014-08-12T07:08:58.000Z</time>
      </trkpt>
      <trkpt lat="47.382" lon="4.99678">
        <ele>396.79998779297</ele>
        <time>2014-08-12T07:09:01.000Z</time>
      </trkpt>
      <trkpt lat="47.38201" lon="4.99677">
        <ele>396.79998779297</ele>
        <time>2014-08-12T07:09:02.000Z</time>
      </trkpt>
      <trkpt lat="47.38204" lon="4.99673">
        <ele>397</ele>
        <time>2014-08-12T07:09:05.000Z</time>
      </trkpt>
      <trkpt lat="47.3821" lon="4.99664">
        <ele>397</ele>
        <time>2014-08-12T07:09:10.000Z</time>
      </trkpt>
      <trkpt lat="47.38216" lon="4.99654">
        <ele>397</ele>
        <time>2014-08-12T07:09:14.000Z</time>
      </trkpt>
      <trkpt lat="47.38221" lon="4.99648">
        <ele>397</ele>
        <time>2014-08-12T07:09:19.000Z</time>
      </trkpt>
      <trkpt lat="47.38223" lon="4.99643">
        <ele>397</ele>
        <time>2014-08-12T07:09:22.000Z</time>
      </trkpt>
      <trkpt lat="47.38226" lon="4.99637">
        <ele>396.79998779297</ele>
        <time>2014-08-12T07:09:26.000Z</time>
      </trkpt>
      <trkpt lat="47.38229" lon="4.99633">
        <ele>396.79998779297</ele>
        <time>2014-08-12T07:09:30.000Z</time>
      </trkpt>
      <trkpt lat="47.38238" lon="4.99622">
        <ele>397</ele>
        <time>2014-08-12T07:09:36.000Z</time>
      </trkpt>
      <trkpt lat="47.38241" lon="4.9962">
        <ele>397</ele>
        <time>2014-08-12T07:09:38.000Z</time>
      </trkpt>
      <trkpt lat="47.3825" lon="4.99609">
        <ele>397.20001220703</ele>
        <time>2014-08-12T07:09:45.000Z</time>
      </trkpt>
      <trkpt lat="47.38251" lon="4.99608">
        <ele>397.20001220703</ele>
        <time>2014-08-12T07:09:46.000Z</time>
      </trkpt>
      <trkpt lat="47.38256" lon="4.99599">
        <ele>397.39999389648</ele>
        <time>2014-08-12T07:09:50.000Z</time>
      </trkpt>
      <trkpt lat="47.3826" lon="4.99593">
        <ele>397.39999389648</ele>
        <time>2014-08-12T07:09:53.000Z</time>
      </trkpt>
      <trkpt lat="47.38268" lon="4.99583">
        <ele>397.60000610352</ele>
        <time>2014-08-12T07:09:58.000Z</time>
      </trkpt>
      <trkpt lat="47.38271" lon="4.9958">
        <ele>397.60000610352</ele>
        <time>2014-08-12T07:10:00.000Z</time>
      </trkpt>
      <trkpt lat="47.38279" lon="4.9957">
        <ele>397.60000610352</ele>
        <time>2014-08-12T07:10:08.000Z</time>
      </trkpt>
      <trkpt lat="47.38282" lon="4.99566">
        <ele>397.60000610352</ele>
        <time>2014-08-12T07:10:11.000Z</time>
      </trkpt>
      <trkpt lat="47.38285" lon="4.99563">
        <ele>397.60000610352</ele>
        <time>2014-08-12T07:10:14.000Z</time>
      </trkpt>
      <trkpt lat="47.3829" lon="4.99557">
        <ele>397.60000610352</ele>
        <time>2014-08-12T07:10:20.000Z</time>
      </trkpt>
      <trkpt lat="47.38293" lon="4.99554">
        <ele>397.39999389648</ele>
        <time>2014-08-12T07:10:23.000Z</time>
      </trkpt>
      <trkpt lat="47.38298" lon="4.99551">
        <ele>397.39999389648</ele>
        <time>2014-08-12T07:10:26.000Z</time>
      </trkpt>
      <trkpt lat="47.38304" lon="4.99542">
        <ele>397.39999389648</ele>
        <time>2014-08-12T07:10:33.000Z</time>
      </trkpt>
      <trkpt lat="47.38308" lon="4.99538">
        <ele>397.20001220703</ele>
        <time>2014-08-12T07:10:36.000Z</time>
      </trkpt>
      <trkpt lat="47.38311" lon="4.99535">
        <ele>397</ele>
        <time>2014-08-12T07:10:38.000Z</time>
      </trkpt>
      <trkpt lat="47.38317" lon="4.99532">
        <ele>397</ele>
        <time>2014-08-12T07:10:42.000Z</time>
      </trkpt>
      <trkpt lat="47.38327" lon="4.99528">
        <ele>396.60000610352</ele>
        <time>2014-08-12T07:10:47.000Z</time>
      </trkpt>
      <trkpt lat="47.38328" lon="4.99527">
        <ele>396.60000610352</ele>
        <time>2014-08-12T07:10:48.000Z</time>
      </trkpt>
      <trkpt lat="47.3833" lon="4.99526">
        <ele>396.39999389648</ele>
        <time>2014-08-12T07:10:49.000Z</time>
      </trkpt>
      <trkpt lat="47.38337" lon="4.99519">
        <ele>396</ele>
        <time>2014-08-12T07:10:53.000Z</time>
      </trkpt>
      <trkpt lat="47.38348" lon="4.99512">
        <ele>395.39999389648</ele>
        <time>2014-08-12T07:11:00.000Z</time>
      </trkpt>
      <trkpt lat="47.38351" lon="4.99511">
        <ele>395.20001220703</ele>
        <time>2014-08-12T07:11:02.000Z</time>
      </trkpt>
      <trkpt lat="47.38362" lon="4.99505">
        <ele>394.60000610352</ele>
        <time>2014-08-12T07:11:08.000Z</time>
      </trkpt>
      <trkpt lat="47.38371" lon="4.995">
        <ele>394</ele>
        <time>2014-08-12T07:11:13.000Z</time>
      </trkpt>
      <trkpt lat="47.38373" lon="4.99499">
        <ele>394</ele>
        <time>2014-08-12T07:11:14.000Z</time>
      </trkpt>
      <trkpt lat="47.38383" lon="4.99493">
        <ele>393.20001220703</ele>
        <time>2014-08-12T07:11:22.000Z</time>
      </trkpt>
      <trkpt lat="47.38385" lon="4.99493">
        <ele>393</ele>
        <time>2014-08-12T07:11:23.000Z</time>
      </trkpt>
      <trkpt lat="47.38392" lon="4.99491">
        <ele>392.60000610352</ele>
        <time>2014-08-12T07:11:28.000Z</time>
      </trkpt>
      <trkpt lat="47.38396" lon="4.99491">
        <ele>392.39999389648</ele>
        <time>2014-08-12T07:11:31.000Z</time>
      </trkpt>
      <trkpt lat="47.38399" lon="4.9949">
        <ele>392.20001220703</ele>
        <time>2014-08-12T07:11:33.000Z</time>
      </trkpt>
      <trkpt lat="47.38404" lon="4.99491">
        <ele>392</ele>
        <time>2014-08-12T07:11:36.000Z</time>
      </trkpt>
      <trkpt lat="47.3841" lon="4.99492">
        <ele>391.79998779297</ele>
        <time>2014-08-12T07:11:40.000Z</time>
      </trkpt>
      <trkpt lat="47.38419" lon="4.99493">
        <ele>391.39999389648</ele>
        <time>2014-08-12T07:11:46.000Z</time>
      </trkpt>
      <trkpt lat="47.38425" lon="4.99497">
        <ele>391.20001220703</ele>
        <time>2014-08-12T07:11:52.000Z</time>
      </trkpt>
      <trkpt lat="47.38426" lon="4.99497">
        <ele>391</ele>
        <time>2014-08-12T07:11:53.000Z</time>
      </trkpt>
      <trkpt lat="47.38429" lon="4.99497">
        <ele>390.79998779297</ele>
        <time>2014-08-12T07:11:55.000Z</time>
      </trkpt>
      <trkpt lat="47.38439" lon="4.99493">
        <ele>390</ele>
        <time>2014-08-12T07:12:00.000Z</time>
      </trkpt>
      <trkpt lat="47.38446" lon="4.99491">
        <ele>389.20001220703</ele>
        <time>2014-08-12T07:12:04.000Z</time>
      </trkpt>
      <trkpt lat="47.38448" lon="4.99491">
        <ele>389.20001220703</ele>
        <time>2014-08-12T07:12:05.000Z</time>
      </trkpt>
      <trkpt lat="47.38458" lon="4.99489">
        <ele>388</ele>
        <time>2014-08-12T07:12:11.000Z</time>
      </trkpt>
      <trkpt lat="47.38467" lon="4.99487">
        <ele>387</ele>
        <time>2014-08-12T07:12:16.000Z</time>
      </trkpt>
      <trkpt lat="47.3847" lon="4.99486">
        <ele>386.60000610352</ele>
        <time>2014-08-12T07:12:17.000Z</time>
      </trkpt>
      <trkpt lat="47.38477" lon="4.99481">
        <ele>385.60000610352</ele>
        <time>2014-08-12T07:12:23.000Z</time>
      </trkpt>
      <trkpt lat="47.38479" lon="4.99481">
        <ele>385.39999389648</ele>
        <time>2014-08-12T07:12:24.000Z</time>
      </trkpt>
      <trkpt lat="47.38481" lon="4.99483">
        <ele>385.39999389648</ele>
        <time>2014-08-12T07:12:26.000Z</time>
      </trkpt>
      <trkpt lat="47.38488" lon="4.99485">
        <ele>384.79998779297</ele>
        <time>2014-08-12T07:12:32.000Z</time>
      </trkpt>
      <trkpt lat="47.38494" lon="4.99487">
        <ele>384.39999389648</ele>
        <time>2014-08-12T07:12:36.000Z</time>
      </trkpt>
      <trkpt lat="47.38499" lon="4.99486">
        <ele>383.79998779297</ele>
        <time>2014-08-12T07:12:39.000Z</time>
      </trkpt>
      <trkpt lat="47.38507" lon="4.99487">
        <ele>382.79998779297</ele>
        <time>2014-08-12T07:12:45.000Z</time>
      </trkpt>
      <trkpt lat="47.3851" lon="4.99486">
        <ele>382.39999389648</ele>
        <time>2014-08-12T07:12:47.000Z</time>
      </trkpt>
      <trkpt lat="47.38511" lon="4.99485">
        <ele>382.20001220703</ele>
        <time>2014-08-12T07:12:48.000Z</time>
      </trkpt>
      <trkpt lat="47.38517" lon="4.99486">
        <ele>381.60000610352</ele>
        <time>2014-08-12T07:12:52.000Z</time>
      </trkpt>
      <trkpt lat="47.38519" lon="4.99486">
        <ele>381.20001220703</ele>
        <time>2014-08-12T07:12:54.000Z</time>
      </trkpt>
      <trkpt lat="47.38524" lon="4.99484">
        <ele>380.39999389648</ele>
        <time>2014-08-12T07:12:58.000Z</time>
      </trkpt>
      <trkpt lat="47.38526" lon="4.99485">
        <ele>380.20001220703</ele>
        <time>2014-08-12T07:13:00.000Z</time>
      </trkpt>
      <trkpt lat="47.38532" lon="4.99486">
        <ele>379.39999389648</ele>
        <time>2014-08-12T07:13:05.000Z</time>
      </trkpt>
      <trkpt lat="47.38539" lon="4.99483">
        <ele>378</ele>
        <time>2014-08-12T07:13:10.000Z</time>
      </trkpt>
      <trkpt lat="47.3854" lon="4.99483">
        <ele>377.79998779297</ele>
        <time>2014-08-12T07:13:11.000Z</time>
      </trkpt>
      <trkpt lat="47.38549" lon="4.9948">
        <ele>376.20001220703</ele>
        <time>2014-08-12T07:13:23.000Z</time>
      </trkpt>
      <trkpt lat="47.3855" lon="4.99479">
        <ele>376</ele>
        <time>2014-08-12T07:13:25.000Z</time>
      </trkpt>
      <trkpt lat="47.38553" lon="4.99475">
        <ele>375</ele>
        <time>2014-08-12T07:13:29.000Z</time>
      </trkpt>
      <trkpt lat="47.38555" lon="4.99474">
        <ele>374.60000610352</ele>
        <time>2014-08-12T07:13:31.000Z</time>
      </trkpt>
      <trkpt lat="47.38564" lon="4.99467">
        <ele>372.60000610352</ele>
        <time>2014-08-12T07:13:39.000Z</time>
      </trkpt>
      <trkpt lat="47.38564" lon="4.99466">
        <ele>372.39999389648</ele>
        <time>2014-08-12T07:13:40.000Z</time>
      </trkpt>
      <trkpt lat="47.38566" lon="4.99463">
        <ele>371.79998779297</ele>
        <time>2014-08-12T07:13:45.000Z</time>
      </trkpt>
      <trkpt lat="47.38567" lon="4.99465">
        <ele>372</ele>
        <time>2014-08-12T07:13:46.000Z</time>
      </trkpt>
      <trkpt lat="47.38564" lon="4.99468">
        <ele>372.60000610352</ele>
        <time>2014-08-12T07:13:50.000Z</time>
      </trkpt>
      <trkpt lat="47.38563" lon="4.99471">
        <ele>373.20001220703</ele>
        <time>2014-08-12T07:13:51.000Z</time>
      </trkpt>
      <trkpt lat="47.3856" lon="4.99472">
        <ele>373.79998779297</ele>
        <time>2014-08-12T07:13:54.000Z</time>
      </trkpt>
      <trkpt lat="47.38556" lon="4.99478">
        <ele>374.79998779297</ele>
        <time>2014-08-12T07:13:59.000Z</time>
      </trkpt>
      <trkpt lat="47.38557" lon="4.99479">
        <ele>374.79998779297</ele>
        <time>2014-08-12T07:14:00.000Z</time>
      </trkpt>
      <trkpt lat="47.3856" lon="4.99487">
        <ele>375</ele>
        <time>2014-08-12T07:14:06.000Z</time>
      </trkpt>
      <trkpt lat="47.38564" lon="4.99495">
        <ele>375.39999389648</ele>
        <time>2014-08-12T07:14:11.000Z</time>
      </trkpt>
      <trkpt lat="47.38564" lon="4.99497">
        <ele>375.39999389648</ele>
        <time>2014-08-12T07:14:12.000Z</time>
      </trkpt>
      <trkpt lat="47.38563" lon="4.99494">
        <ele>375.20001220703</ele>
        <time>2014-08-12T07:14:22.000Z</time>
      </trkpt>
      <trkpt lat="47.38561" lon="4.9949">
        <ele>375.20001220703</ele>
        <time>2014-08-12T07:14:25.000Z</time>
      </trkpt>
      <trkpt lat="47.38565" lon="4.99487">
        <ele>374.39999389648</ele>
        <time>2014-08-12T07:14:31.000Z</time>
      </trkpt>
      <trkpt lat="47.38566" lon="4.99487">
        <ele>374.20001220703</ele>
        <time>2014-08-12T07:14:32.000Z</time>
      </trkpt>
      <trkpt lat="47.38567" lon="4.99487">
        <ele>374</ele>
        <time>2014-08-12T07:14:33.000Z</time>
      </trkpt>
      <trkpt lat="47.38571" lon="4.9949">
        <ele>373.60000610352</ele>
        <time>2014-08-12T07:14:36.000Z</time>
      </trkpt>
      <trkpt lat="47.38575" lon="4.99491">
        <ele>373.20001220703</ele>
        <time>2014-08-12T07:14:40.000Z</time>
      </trkpt>
      <trkpt lat="47.38576" lon="4.99492">
        <ele>373</ele>
        <time>2014-08-12T07:14:41.000Z</time>
      </trkpt>
      <trkpt lat="47.38583" lon="4.99493">
        <ele>372.20001220703</ele>
        <time>2014-08-12T07:14:47.000Z</time>
      </trkpt>
      <trkpt lat="47.38586" lon="4.99495">
        <ele>371.79998779297</ele>
        <time>2014-08-12T07:14:49.000Z</time>
      </trkpt>
      <trkpt lat="47.38589" lon="4.99497">
        <ele>371.60000610352</ele>
        <time>2014-08-12T07:14:51.000Z</time>
      </trkpt>
      <trkpt lat="47.38594" lon="4.99499">
        <ele>371</ele>
        <time>2014-08-12T07:14:55.000Z</time>
      </trkpt>
      <trkpt lat="47.386" lon="4.99501">
        <ele>370.39999389648</ele>
        <time>2014-08-12T07:15:00.000Z</time>
      </trkpt>
      <trkpt lat="47.38603" lon="4.99503">
        <ele>370.20001220703</ele>
        <time>2014-08-12T07:15:02.000Z</time>
      </trkpt>
      <trkpt lat="47.38608" lon="4.99504">
        <ele>369.60000610352</ele>
        <time>2014-08-12T07:15:05.000Z</time>
      </trkpt>
      <trkpt lat="47.3861" lon="4.99504">
        <ele>369.39999389648</ele>
        <time>2014-08-12T07:15:07.000Z</time>
      </trkpt>
      <trkpt lat="47.38614" lon="4.99507">
        <ele>369</ele>
        <time>2014-08-12T07:15:11.000Z</time>
      </trkpt>
      <trkpt lat="47.38621" lon="4.99513">
        <ele>368.60000610352</ele>
        <time>2014-08-12T07:15:16.000Z</time>
      </trkpt>
      <trkpt lat="47.38627" lon="4.99519">
        <ele>368.20001220703</ele>
        <time>2014-08-12T07:15:20.000Z</time>
      </trkpt>
      <trkpt lat="47.38629" lon="4.99519">
        <ele>368</ele>
        <time>2014-08-12T07:15:23.000Z</time>
      </trkpt>
      <trkpt lat="47.38642" lon="4.99535">
        <ele>367.60000610352</ele>
        <time>2014-08-12T07:15:32.000Z</time>
      </trkpt>
      <trkpt lat="47.38647" lon="4.99543">
        <ele>367.79998779297</ele>
        <time>2014-08-12T07:15:36.000Z</time>
      </trkpt>
      <trkpt lat="47.38648" lon="4.99543">
        <ele>367.60000610352</ele>
        <time>2014-08-12T07:15:37.000Z</time>
      </trkpt>
      <trkpt lat="47.38649" lon="4.99544">
        <ele>367.60000610352</ele>
        <time>2014-08-12T07:15:38.000Z</time>
      </trkpt>
      <trkpt lat="47.38654" lon="4.99559">
        <ele>368.39999389648</ele>
        <time>2014-08-12T07:15:45.000Z</time>
      </trkpt>
      <trkpt lat="47.38655" lon="4.99561">
        <ele>368.60000610352</ele>
        <time>2014-08-12T07:15:46.000Z</time>
      </trkpt>
      <trkpt lat="47.3866" lon="4.99568">
        <ele>368.60000610352</ele>
        <time>2014-08-12T07:15:50.000Z</time>
      </trkpt>
      <trkpt lat="47.38662" lon="4.99573">
        <ele>368.79998779297</ele>
        <time>2014-08-12T07:15:53.000Z</time>
      </trkpt>
      <trkpt lat="47.38668" lon="4.99583">
        <ele>369</ele>
        <time>2014-08-12T07:15:59.000Z</time>
      </trkpt>
      <trkpt lat="47.38669" lon="4.99584">
        <ele>369</ele>
        <time>2014-08-12T07:16:00.000Z</time>
      </trkpt>
      <trkpt lat="47.38671" lon="4.99586">
        <ele>369</ele>
        <time>2014-08-12T07:16:02.000Z</time>
      </trkpt>
      <trkpt lat="47.38676" lon="4.99594">
        <ele>369</ele>
        <time>2014-08-12T07:16:07.000Z</time>
      </trkpt>
      <trkpt lat="47.38678" lon="4.99595">
        <ele>369</ele>
        <time>2014-08-12T07:16:08.000Z</time>
      </trkpt>
      <trkpt lat="47.38678" lon="4.99598">
        <ele>369</ele>
        <time>2014-08-12T07:16:09.000Z</time>
      </trkpt>
      <trkpt lat="47.38679" lon="4.99598">
        <ele>369</ele>
        <time>2014-08-12T07:16:10.000Z</time>
      </trkpt>
      <trkpt lat="47.38684" lon="4.99606">
        <ele>369.20001220703</ele>
        <time>2014-08-12T07:16:15.000Z</time>
      </trkpt>
      <trkpt lat="47.38687" lon="4.99609">
        <ele>369</ele>
        <time>2014-08-12T07:16:16.000Z</time>
      </trkpt>
      <trkpt lat="47.38689" lon="4.9961">
        <ele>369</ele>
        <time>2014-08-12T07:16:18.000Z</time>
      </trkpt>
      <trkpt lat="47.38694" lon="4.99616">
        <ele>368.79998779297</ele>
        <time>2014-08-12T07:16:24.000Z</time>
      </trkpt>
      <trkpt lat="47.38695" lon="4.99618">
        <ele>369</ele>
        <time>2014-08-12T07:16:25.000Z</time>
      </trkpt>
      <trkpt lat="47.38702" lon="4.99624">
        <ele>368.60000610352</ele>
        <time>2014-08-12T07:16:30.000Z</time>
      </trkpt>
      <trkpt lat="47.38707" lon="4.99632">
        <ele>368.79998779297</ele>
        <time>2014-08-12T07:16:33.000Z</time>
      </trkpt>
      <trkpt lat="47.38711" lon="4.99635">
        <ele>368.39999389648</ele>
        <time>2014-08-12T07:16:36.000Z</time>
      </trkpt>
      <trkpt lat="47.38713" lon="4.99636">
        <ele>368.20001220703</ele>
        <time>2014-08-12T07:16:38.000Z</time>
      </trkpt>
      <trkpt lat="47.38718" lon="4.99645">
        <ele>368.60000610352</ele>
        <time>2014-08-12T07:16:43.000Z</time>
      </trkpt>
      <trkpt lat="47.38719" lon="4.99646">
        <ele>368.39999389648</ele>
        <time>2014-08-12T07:16:44.000Z</time>
      </trkpt>
      <trkpt lat="47.38726" lon="4.99652">
        <ele>368.20001220703</ele>
        <time>2014-08-12T07:16:49.000Z</time>
      </trkpt>
      <trkpt lat="47.38731" lon="4.99661">
        <ele>368.39999389648</ele>
        <time>2014-08-12T07:16:53.000Z</time>
      </trkpt>
      <trkpt lat="47.38737" lon="4.9967">
        <ele>368.39999389648</ele>
        <time>2014-08-12T07:16:59.000Z</time>
      </trkpt>
      <trkpt lat="47.38738" lon="4.99672">
        <ele>368.60000610352</ele>
        <time>2014-08-12T07:17:00.000Z</time>
      </trkpt>
      <trkpt lat="47.38744" lon="4.99683">
        <ele>369</ele>
        <time>2014-08-12T07:17:06.000Z</time>
      </trkpt>
      <trkpt lat="47.38745" lon="4.99685">
        <ele>369</ele>
        <time>2014-08-12T07:17:07.000Z</time>
      </trkpt>
      <trkpt lat="47.38748" lon="4.99688">
        <ele>368.79998779297</ele>
        <time>2014-08-12T07:17:09.000Z</time>
      </trkpt>
      <trkpt lat="47.38754" lon="4.99694">
        <ele>368.60000610352</ele>
        <time>2014-08-12T07:17:13.000Z</time>
      </trkpt>
      <trkpt lat="47.38761" lon="4.99703">
        <ele>368.20001220703</ele>
        <time>2014-08-12T07:17:20.000Z</time>
      </trkpt>
      <trkpt lat="47.38766" lon="4.99713">
        <ele>368.39999389648</ele>
        <time>2014-08-12T07:17:25.000Z</time>
      </trkpt>
      <trkpt lat="47.38773" lon="4.99722">
        <ele>368.20001220703</ele>
        <time>2014-08-12T07:17:31.000Z</time>
      </trkpt>
      <trkpt lat="47.3878" lon="4.99727">
        <ele>367.79998779297</ele>
        <time>2014-08-12T07:17:36.000Z</time>
      </trkpt>
      <trkpt lat="47.38781" lon="4.99727">
        <ele>367.60000610352</ele>
        <time>2014-08-12T07:17:37.000Z</time>
      </trkpt>
      <trkpt lat="47.38782" lon="4.99729">
        <ele>367.39999389648</ele>
        <time>2014-08-12T07:17:38.000Z</time>
      </trkpt>
      <trkpt lat="47.38792" lon="4.99738">
        <ele>367</ele>
        <time>2014-08-12T07:17:45.000Z</time>
      </trkpt>
      <trkpt lat="47.388" lon="4.99744">
        <ele>366.20001220703</ele>
        <time>2014-08-12T07:17:51.000Z</time>
      </trkpt>
      <trkpt lat="47.3881" lon="4.99758">
        <ele>366</ele>
        <time>2014-08-12T07:17:58.000Z</time>
      </trkpt>
      <trkpt lat="47.38818" lon="4.99769">
        <ele>365.79998779297</ele>
        <time>2014-08-12T07:18:03.000Z</time>
      </trkpt>
      <trkpt lat="47.38822" lon="4.99778">
        <ele>366.20001220703</ele>
        <time>2014-08-12T07:18:06.000Z</time>
      </trkpt>
      <trkpt lat="47.38823" lon="4.99777">
        <ele>365.79998779297</ele>
        <time>2014-08-12T07:18:07.000Z</time>
      </trkpt>
      <trkpt lat="47.38828" lon="4.99786">
        <ele>366</ele>
        <time>2014-08-12T07:18:11.000Z</time>
      </trkpt>
      <trkpt lat="47.38829" lon="4.99786">
        <ele>365.79998779297</ele>
        <time>2014-08-12T07:18:12.000Z</time>
      </trkpt>
      <trkpt lat="47.38831" lon="4.99789">
        <ele>365.79998779297</ele>
        <time>2014-08-12T07:18:14.000Z</time>
      </trkpt>
      <trkpt lat="47.38835" lon="4.99797">
        <ele>365.79998779297</ele>
        <time>2014-08-12T07:18:19.000Z</time>
      </trkpt>
      <trkpt lat="47.38836" lon="4.99799">
        <ele>365.79998779297</ele>
        <time>2014-08-12T07:18:20.000Z</time>
      </trkpt>
      <trkpt lat="47.38842" lon="4.99806">
        <ele>365.20001220703</ele>
        <time>2014-08-12T07:18:25.000Z</time>
      </trkpt>
      <trkpt lat="47.38846" lon="4.99814">
        <ele>365.20001220703</ele>
        <time>2014-08-12T07:18:28.000Z</time>
      </trkpt>
      <trkpt lat="47.38851" lon="4.99821">
        <ele>364.79998779297</ele>
        <time>2014-08-12T07:18:32.000Z</time>
      </trkpt>
      <trkpt lat="47.38857" lon="4.99827">
        <ele>364.20001220703</ele>
        <time>2014-08-12T07:18:36.000Z</time>
      </trkpt>
      <trkpt lat="47.3886" lon="4.99831">
        <ele>364.20001220703</ele>
        <time>2014-08-12T07:18:39.000Z</time>
      </trkpt>
      <trkpt lat="47.38866" lon="4.99841">
        <ele>363.79998779297</ele>
        <time>2014-08-12T07:18:45.000Z</time>
      </trkpt>
      <trkpt lat="47.38867" lon="4.99844">
        <ele>363.79998779297</ele>
        <time>2014-08-12T07:18:46.000Z</time>
      </trkpt>
      <trkpt lat="47.38872" lon="4.99851">
        <ele>363.60000610352</ele>
        <time>2014-08-12T07:18:51.000Z</time>
      </trkpt>
      <trkpt lat="47.38879" lon="4.99862">
        <ele>363.20001220703</ele>
        <time>2014-08-12T07:18:56.000Z</time>
      </trkpt>
      <trkpt lat="47.38879" lon="4.99863">
        <ele>363.20001220703</ele>
        <time>2014-08-12T07:18:57.000Z</time>
      </trkpt>
      <trkpt lat="47.38888" lon="4.99872">
        <ele>362.39999389648</ele>
        <time>2014-08-12T07:19:02.000Z</time>
      </trkpt>
      <trkpt lat="47.38889" lon="4.99873">
        <ele>362.20001220703</ele>
        <time>2014-08-12T07:19:04.000Z</time>
      </trkpt>
      <trkpt lat="47.38893" lon="4.99881">
        <ele>362.20001220703</ele>
        <time>2014-08-12T07:19:08.000Z</time>
      </trkpt>
      <trkpt lat="47.38894" lon="4.99882">
        <ele>362.20001220703</ele>
        <time>2014-08-12T07:19:09.000Z</time>
      </trkpt>
      <trkpt lat="47.38898" lon="4.99885">
        <ele>361.79998779297</ele>
        <time>2014-08-12T07:19:12.000Z</time>
      </trkpt>
      <trkpt lat="47.38908" lon="4.99894">
        <ele>361</ele>
        <time>2014-08-12T07:19:19.000Z</time>
      </trkpt>
      <trkpt lat="47.38909" lon="4.99895">
        <ele>360.79998779297</ele>
        <time>2014-08-12T07:19:20.000Z</time>
      </trkpt>
      <trkpt lat="47.38917" lon="4.99907">
        <ele>360.79998779297</ele>
        <time>2014-08-12T07:19:27.000Z</time>
      </trkpt>
      <trkpt lat="47.38918" lon="4.99909">
        <ele>361</ele>
        <time>2014-08-12T07:19:28.000Z</time>
      </trkpt>
      <trkpt lat="47.3892" lon="4.99912">
        <ele>361</ele>
        <time>2014-08-12T07:19:30.000Z</time>
      </trkpt>
      <trkpt lat="47.38924" lon="4.9992">
        <ele>361.20001220703</ele>
        <time>2014-08-12T07:19:35.000Z</time>
      </trkpt>
      <trkpt lat="47.38926" lon="4.99922">
        <ele>361.20001220703</ele>
        <time>2014-08-12T07:19:36.000Z</time>
      </trkpt>
      <trkpt lat="47.38931" lon="4.99926">
        <ele>361</ele>
        <time>2014-08-12T07:19:40.000Z</time>
      </trkpt>
      <trkpt lat="47.38939" lon="4.99934">
        <ele>360.79998779297</ele>
        <time>2014-08-12T07:19:46.000Z</time>
      </trkpt>
      <trkpt lat="47.3894" lon="4.99936">
        <ele>360.79998779297</ele>
        <time>2014-08-12T07:19:47.000Z</time>
      </trkpt>
      <trkpt lat="47.38944" lon="4.99941">
        <ele>360.79998779297</ele>
        <time>2014-08-12T07:19:50.000Z</time>
      </trkpt>
      <trkpt lat="47.38949" lon="4.99947">
        <ele>360.79998779297</ele>
        <time>2014-08-12T07:19:55.000Z</time>
      </trkpt>
      <trkpt lat="47.38954" lon="4.99951">
        <ele>360.60000610352</ele>
        <time>2014-08-12T07:19:59.000Z</time>
      </trkpt>
      <trkpt lat="47.38958" lon="4.99955">
        <ele>360.60000610352</ele>
        <time>2014-08-12T07:20:02.000Z</time>
      </trkpt>
      <trkpt lat="47.38962" lon="4.99964">
        <ele>360.60000610352</ele>
        <time>2014-08-12T07:20:07.000Z</time>
      </trkpt>
      <trkpt lat="47.38979" lon="4.99983">
        <ele>359.79998779297</ele>
        <time>2014-08-12T07:20:21.000Z</time>
      </trkpt>
      <trkpt lat="47.38985" lon="4.99994">
        <ele>359.79998779297</ele>
        <time>2014-08-12T07:20:26.000Z</time>
      </trkpt>
      <trkpt lat="47.38988" lon="5.00002">
        <ele>359.79998779297</ele>
        <time>2014-08-12T07:20:30.000Z</time>
      </trkpt>
      <trkpt lat="47.38993" lon="5.00008">
        <ele>359.60000610352</ele>
        <time>2014-08-12T07:20:34.000Z</time>
      </trkpt>
      <trkpt lat="47.38997" lon="5.00015">
        <ele>359.60000610352</ele>
        <time>2014-08-12T07:20:38.000Z</time>
      </trkpt>
      <trkpt lat="47.39003" lon="5.00025">
        <ele>348.79998779297</ele>
        <time>2014-08-12T07:20:44.000Z</time>
      </trkpt>
      <trkpt lat="47.39005" lon="5.00028">
        <ele>348.39999389648</ele>
        <time>2014-08-12T07:20:46.000Z</time>
      </trkpt>
      <trkpt lat="47.3901" lon="5.00035">
        <ele>347.60000610352</ele>
        <time>2014-08-12T07:20:51.000Z</time>
      </trkpt>
      <trkpt lat="47.39015" lon="5.00045">
        <ele>362.39999389648</ele>
        <time>2014-08-12T07:20:56.000Z</time>
      </trkpt>
      <trkpt lat="47.39017" lon="5.00046">
        <ele>362.20001220703</ele>
        <time>2014-08-12T07:20:58.000Z</time>
      </trkpt>
      <trkpt lat="47.39022" lon="5.00053">
        <ele>361.79998779297</ele>
        <time>2014-08-12T07:21:03.000Z</time>
      </trkpt>
      <trkpt lat="47.39031" lon="5.00062">
        <ele>361</ele>
        <time>2014-08-12T07:21:10.000Z</time>
      </trkpt>
      <trkpt lat="47.39032" lon="5.00064">
        <ele>360.79998779297</ele>
        <time>2014-08-12T07:21:11.000Z</time>
      </trkpt>
      <trkpt lat="47.39038" lon="5.00077">
        <ele>360.79998779297</ele>
        <time>2014-08-12T07:21:18.000Z</time>
      </trkpt>
      <trkpt lat="47.39045" lon="5.00086">
        <ele>360.39999389648</ele>
        <time>2014-08-12T07:21:23.000Z</time>
      </trkpt>
      <trkpt lat="47.39051" lon="5.00097">
        <ele>360</ele>
        <time>2014-08-12T07:21:29.000Z</time>
      </trkpt>
      <trkpt lat="47.39058" lon="5.00107">
        <ele>359.79998779297</ele>
        <time>2014-08-12T07:21:35.000Z</time>
      </trkpt>
      <trkpt lat="47.39067" lon="5.00119">
        <ele>359</ele>
        <time>2014-08-12T07:21:43.000Z</time>
      </trkpt>
      <trkpt lat="47.39068" lon="5.0012">
        <ele>359</ele>
        <time>2014-08-12T07:21:44.000Z</time>
      </trkpt>
      <trkpt lat="47.39074" lon="5.00131">
        <ele>358.60000610352</ele>
        <time>2014-08-12T07:21:50.000Z</time>
      </trkpt>
      <trkpt lat="47.39078" lon="5.0014">
        <ele>358.79998779297</ele>
        <time>2014-08-12T07:21:54.000Z</time>
      </trkpt>
      <trkpt lat="47.39084" lon="5.00147">
        <ele>358</ele>
        <time>2014-08-12T07:21:59.000Z</time>
      </trkpt>
      <trkpt lat="47.3909" lon="5.00161">
        <ele>357.79998779297</ele>
        <time>2014-08-12T07:22:06.000Z</time>
      </trkpt>
      <trkpt lat="47.39097" lon="5.0017">
        <ele>357.20001220703</ele>
        <time>2014-08-12T07:22:12.000Z</time>
      </trkpt>
      <trkpt lat="47.39097" lon="5.00172">
        <ele>357.20001220703</ele>
        <time>2014-08-12T07:22:13.000Z</time>
      </trkpt>
      <trkpt lat="47.39107" lon="5.00182">
        <ele>356</ele>
        <time>2014-08-12T07:22:20.000Z</time>
      </trkpt>
      <trkpt lat="47.3911" lon="5.00191">
        <ele>356</ele>
        <time>2014-08-12T07:22:25.000Z</time>
      </trkpt>
      <trkpt lat="47.39111" lon="5.002">
        <ele>356.20001220703</ele>
        <time>2014-08-12T07:22:29.000Z</time>
      </trkpt>
      <trkpt lat="47.39116" lon="5.00209">
        <ele>356</ele>
        <time>2014-08-12T07:22:35.000Z</time>
      </trkpt>
      <trkpt lat="47.39117" lon="5.00212">
        <ele>356</ele>
        <time>2014-08-12T07:22:36.000Z</time>
      </trkpt>
      <trkpt lat="47.39118" lon="5.00214">
        <ele>356</ele>
        <time>2014-08-12T07:22:38.000Z</time>
      </trkpt>
      <trkpt lat="47.39124" lon="5.00224">
        <ele>355.60000610352</ele>
        <time>2014-08-12T07:22:45.000Z</time>
      </trkpt>
      <trkpt lat="47.39129" lon="5.00233">
        <ele>355.20001220703</ele>
        <time>2014-08-12T07:22:50.000Z</time>
      </trkpt>
      <trkpt lat="47.3913" lon="5.00235">
        <ele>355.20001220703</ele>
        <time>2014-08-12T07:22:51.000Z</time>
      </trkpt>
      <trkpt lat="47.39135" lon="5.00245">
        <ele>354.79998779297</ele>
        <time>2014-08-12T07:22:57.000Z</time>
      </trkpt>
      <trkpt lat="47.39139" lon="5.00259">
        <ele>355</ele>
        <time>2014-08-12T07:23:04.000Z</time>
      </trkpt>
      <trkpt lat="47.39142" lon="5.0027">
        <ele>355</ele>
        <time>2014-08-12T07:23:08.000Z</time>
      </trkpt>
      <trkpt lat="47.39146" lon="5.00278">
        <ele>354.79998779297</ele>
        <time>2014-08-12T07:23:12.000Z</time>
      </trkpt>
      <trkpt lat="47.39153" lon="5.00291">
        <ele>354</ele>
        <time>2014-08-12T07:23:19.000Z</time>
      </trkpt>
      <trkpt lat="47.39157" lon="5.00299">
        <ele>354.20001220703</ele>
        <time>2014-08-12T07:23:23.000Z</time>
      </trkpt>
      <trkpt lat="47.39158" lon="5.00303">
        <ele>354.20001220703</ele>
        <time>2014-08-12T07:23:25.000Z</time>
      </trkpt>
      <trkpt lat="47.39161" lon="5.00311">
        <ele>354.39999389648</ele>
        <time>2014-08-12T07:23:30.000Z</time>
      </trkpt>
      <trkpt lat="47.39167" lon="5.00322">
        <ele>354.39999389648</ele>
        <time>2014-08-12T07:23:35.000Z</time>
      </trkpt>
      <trkpt lat="47.39169" lon="5.00324">
        <ele>354.39999389648</ele>
        <time>2014-08-12T07:23:36.000Z</time>
      </trkpt>
      <trkpt lat="47.39172" lon="5.00327">
        <ele>354</ele>
        <time>2014-08-12T07:23:39.000Z</time>
      </trkpt>
      <trkpt lat="47.39179" lon="5.00335">
        <ele>353.39999389648</ele>
        <time>2014-08-12T07:23:44.000Z</time>
      </trkpt>
      <trkpt lat="47.3918" lon="5.00337">
        <ele>353.39999389648</ele>
        <time>2014-08-12T07:23:45.000Z</time>
      </trkpt>
      <trkpt lat="47.39189" lon="5.00352">
        <ele>353</ele>
        <time>2014-08-12T07:23:53.000Z</time>
      </trkpt>
      <trkpt lat="47.39197" lon="5.00365">
        <ele>352.79998779297</ele>
        <time>2014-08-12T07:24:00.000Z</time>
      </trkpt>
      <trkpt lat="47.39204" lon="5.00371">
        <ele>352.20001220703</ele>
        <time>2014-08-12T07:24:05.000Z</time>
      </trkpt>
      <trkpt lat="47.39208" lon="5.00378">
        <ele>352</ele>
        <time>2014-08-12T07:24:09.000Z</time>
      </trkpt>
      <trkpt lat="47.3921" lon="5.00379">
        <ele>351.79998779297</ele>
        <time>2014-08-12T07:24:11.000Z</time>
      </trkpt>
      <trkpt lat="47.39216" lon="5.00387">
        <ele>351.39999389648</ele>
        <time>2014-08-12T07:24:16.000Z</time>
      </trkpt>
      <trkpt lat="47.39217" lon="5.00389">
        <ele>351.20001220703</ele>
        <time>2014-08-12T07:24:18.000Z</time>
      </trkpt>
      <trkpt lat="47.39221" lon="5.00392">
        <ele>350.79998779297</ele>
        <time>2014-08-12T07:24:21.000Z</time>
      </trkpt>
      <trkpt lat="47.39223" lon="5.00396">
        <ele>350.79998779297</ele>
        <time>2014-08-12T07:24:23.000Z</time>
      </trkpt>
      <trkpt lat="47.39232" lon="5.00404">
        <ele>350</ele>
        <time>2014-08-12T07:24:30.000Z</time>
      </trkpt>
      <trkpt lat="47.39239" lon="5.00414">
        <ele>349.39999389648</ele>
        <time>2014-08-12T07:24:36.000Z</time>
      </trkpt>
      <trkpt lat="47.39245" lon="5.00425">
        <ele>349.39999389648</ele>
        <time>2014-08-12T07:24:42.000Z</time>
      </trkpt>
      <trkpt lat="47.39251" lon="5.00437">
        <ele>349.39999389648</ele>
        <time>2014-08-12T07:24:48.000Z</time>
      </trkpt>
      <trkpt lat="47.39252" lon="5.00438">
        <ele>349.39999389648</ele>
        <time>2014-08-12T07:24:49.000Z</time>
      </trkpt>
      <trkpt lat="47.39255" lon="5.00442">
        <ele>349.20001220703</ele>
        <time>2014-08-12T07:24:52.000Z</time>
      </trkpt>
      <trkpt lat="47.39264" lon="5.00453">
        <ele>348.79998779297</ele>
        <time>2014-08-12T07:24:59.000Z</time>
      </trkpt>
      <trkpt lat="47.39272" lon="5.00462">
        <ele>348.39999389648</ele>
        <time>2014-08-12T07:25:04.000Z</time>
      </trkpt>
      <trkpt lat="47.39279" lon="5.00472">
        <ele>347.79998779297</ele>
        <time>2014-08-12T07:25:10.000Z</time>
      </trkpt>
      <trkpt lat="47.39279" lon="5.00473">
        <ele>347.79998779297</ele>
        <time>2014-08-12T07:25:11.000Z</time>
      </trkpt>
      <trkpt lat="47.39289" lon="5.00485">
        <ele>346.60000610352</ele>
        <time>2014-08-12T07:25:19.000Z</time>
      </trkpt>
      <trkpt lat="47.39293" lon="5.00489">
        <ele>346.39999389648</ele>
        <time>2014-08-12T07:25:21.000Z</time>
      </trkpt>
      <trkpt lat="47.39295" lon="5.00496">
        <ele>346.39999389648</ele>
        <time>2014-08-12T07:25:24.000Z</time>
      </trkpt>
      <trkpt lat="47.39301" lon="5.00505">
        <ele>345.79998779297</ele>
        <time>2014-08-12T07:25:30.000Z</time>
      </trkpt>
      <trkpt lat="47.39306" lon="5.00517">
        <ele>345.79998779297</ele>
        <time>2014-08-12T07:25:36.000Z</time>
      </trkpt>
      <trkpt lat="47.39308" lon="5.00521">
        <ele>345.60000610352</ele>
        <time>2014-08-12T07:25:38.000Z</time>
      </trkpt>
      <trkpt lat="47.3931" lon="5.00525">
        <ele>345.39999389648</ele>
        <time>2014-08-12T07:25:40.000Z</time>
      </trkpt>
      <trkpt lat="47.39318" lon="5.00532">
        <ele>344.60000610352</ele>
        <time>2014-08-12T07:25:44.000Z</time>
      </trkpt>
      <trkpt lat="47.39322" lon="5.00537">
        <ele>344.20001220703</ele>
        <time>2014-08-12T07:25:47.000Z</time>
      </trkpt>
      <trkpt lat="47.39323" lon="5.00541">
        <ele>344.20001220703</ele>
        <time>2014-08-12T07:25:49.000Z</time>
      </trkpt>
      <trkpt lat="47.39326" lon="5.0055">
        <ele>344.20001220703</ele>
        <time>2014-08-12T07:25:53.000Z</time>
      </trkpt>
      <trkpt lat="47.39332" lon="5.00558">
        <ele>343.79998779297</ele>
        <time>2014-08-12T07:25:58.000Z</time>
      </trkpt>
      <trkpt lat="47.39336" lon="5.00564">
        <ele>343.39999389648</ele>
        <time>2014-08-12T07:26:02.000Z</time>
      </trkpt>
      <trkpt lat="47.39341" lon="5.00574">
        <ele>343.20001220703</ele>
        <time>2014-08-12T07:26:07.000Z</time>
      </trkpt>
      <trkpt lat="47.39341" lon="5.00576">
        <ele>343.20001220703</ele>
        <time>2014-08-12T07:26:08.000Z</time>
      </trkpt>
      <trkpt lat="47.39349" lon="5.0059">
        <ele>342.60000610352</ele>
        <time>2014-08-12T07:26:16.000Z</time>
      </trkpt>
      <trkpt lat="47.39354" lon="5.006">
        <ele>342.39999389648</ele>
        <time>2014-08-12T07:26:21.000Z</time>
      </trkpt>
      <trkpt lat="47.39359" lon="5.00608">
        <ele>341.79998779297</ele>
        <time>2014-08-12T07:26:26.000Z</time>
      </trkpt>
      <trkpt lat="47.3936" lon="5.00609">
        <ele>341.79998779297</ele>
        <time>2014-08-12T07:26:27.000Z</time>
      </trkpt>
      <trkpt lat="47.39366" lon="5.00614">
        <ele>341.20001220703</ele>
        <time>2014-08-12T07:26:32.000Z</time>
      </trkpt>
      <trkpt lat="47.39371" lon="5.00619">
        <ele>340.60000610352</ele>
        <time>2014-08-12T07:26:36.000Z</time>
      </trkpt>
      <trkpt lat="47.39373" lon="5.00623">
        <ele>340.39999389648</ele>
        <time>2014-08-12T07:26:38.000Z</time>
      </trkpt>
      <trkpt lat="47.39375" lon="5.00626">
        <ele>340.20001220703</ele>
        <time>2014-08-12T07:26:40.000Z</time>
      </trkpt>
      <trkpt lat="47.39379" lon="5.00631">
        <ele>339.79998779297</ele>
        <time>2014-08-12T07:26:43.000Z</time>
      </trkpt>
      <trkpt lat="47.39384" lon="5.00643">
        <ele>339</ele>
        <time>2014-08-12T07:26:50.000Z</time>
      </trkpt>
      <trkpt lat="47.39386" lon="5.0065">
        <ele>338.79998779297</ele>
        <time>2014-08-12T07:26:53.000Z</time>
      </trkpt>
      <trkpt lat="47.39387" lon="5.00652">
        <ele>338.79998779297</ele>
        <time>2014-08-12T07:26:54.000Z</time>
      </trkpt>
      <trkpt lat="47.39389" lon="5.00661">
        <ele>338.39999389648</ele>
        <time>2014-08-12T07:26:58.000Z</time>
      </trkpt>
      <trkpt lat="47.39391" lon="5.00674">
        <ele>338.20001220703</ele>
        <time>2014-08-12T07:27:04.000Z</time>
      </trkpt>
      <trkpt lat="47.39391" lon="5.00685">
        <ele>338.39999389648</ele>
        <time>2014-08-12T07:27:08.000Z</time>
      </trkpt>
      <trkpt lat="47.39391" lon="5.00689">
        <ele>338.60000610352</ele>
        <time>2014-08-12T07:27:10.000Z</time>
      </trkpt>
      <trkpt lat="47.39392" lon="5.00702">
        <ele>338.39999389648</ele>
        <time>2014-08-12T07:27:17.000Z</time>
      </trkpt>
      <trkpt lat="47.39393" lon="5.00712">
        <ele>338.39999389648</ele>
        <time>2014-08-12T07:27:21.000Z</time>
      </trkpt>
      <trkpt lat="47.39394" lon="5.00715">
        <ele>338.39999389648</ele>
        <time>2014-08-12T07:27:23.000Z</time>
      </trkpt>
      <trkpt lat="47.39394" lon="5.00719">
        <ele>338.20001220703</ele>
        <time>2014-08-12T07:27:26.000Z</time>
      </trkpt>
      <trkpt lat="47.39393" lon="5.00732">
        <ele>338.39999389648</ele>
        <time>2014-08-12T07:27:31.000Z</time>
      </trkpt>
      <trkpt lat="47.39393" lon="5.00735">
        <ele>338.39999389648</ele>
        <time>2014-08-12T07:27:32.000Z</time>
      </trkpt>
      <trkpt lat="47.39393" lon="5.00758">
        <ele>338.39999389648</ele>
        <time>2014-08-12T07:27:40.000Z</time>
      </trkpt>
      <trkpt lat="47.39394" lon="5.00762">
        <ele>338.20001220703</ele>
        <time>2014-08-12T07:27:41.000Z</time>
      </trkpt>
      <trkpt lat="47.39397" lon="5.00775">
        <ele>337.79998779297</ele>
        <time>2014-08-12T07:27:46.000Z</time>
      </trkpt>
      <trkpt lat="47.39397" lon="5.00777">
        <ele>337.79998779297</ele>
        <time>2014-08-12T07:27:47.000Z</time>
      </trkpt>
      <trkpt lat="47.39398" lon="5.00778">
        <ele>337.79998779297</ele>
        <time>2014-08-12T07:27:48.000Z</time>
      </trkpt>
      <trkpt lat="47.394" lon="5.0079">
        <ele>337.60000610352</ele>
        <time>2014-08-12T07:27:53.000Z</time>
      </trkpt>
      <trkpt lat="47.394" lon="5.00792">
        <ele>337.39999389648</ele>
        <time>2014-08-12T07:27:54.000Z</time>
      </trkpt>
      <trkpt lat="47.39402" lon="5.008">
        <ele>337.39999389648</ele>
        <time>2014-08-12T07:27:57.000Z</time>
      </trkpt>
      <trkpt lat="47.39404" lon="5.00803">
        <ele>337.20001220703</ele>
        <time>2014-08-12T07:28:05.000Z</time>
      </trkpt>
      <trkpt lat="47.39407" lon="5.00812">
        <ele>336.79998779297</ele>
        <time>2014-08-12T07:28:14.000Z</time>
      </trkpt>
      <trkpt lat="47.39408" lon="5.00814">
        <ele>336.60000610352</ele>
        <time>2014-08-12T07:28:15.000Z</time>
      </trkpt>
      <trkpt lat="47.39413" lon="5.00825">
        <ele>336.20001220703</ele>
        <time>2014-08-12T07:28:20.000Z</time>
      </trkpt>
      <trkpt lat="47.3942" lon="5.00834">
        <ele>335.39999389648</ele>
        <time>2014-08-12T07:28:25.000Z</time>
      </trkpt>
      <trkpt lat="47.39425" lon="5.00849">
        <ele>335</ele>
        <time>2014-08-12T07:28:32.000Z</time>
      </trkpt>
      <trkpt lat="47.39427" lon="5.00861">
        <ele>335.20001220703</ele>
        <time>2014-08-12T07:28:36.000Z</time>
      </trkpt>
      <trkpt lat="47.3943" lon="5.0087">
        <ele>335</ele>
        <time>2014-08-12T07:28:41.000Z</time>
      </trkpt>
      <trkpt lat="47.39433" lon="5.00874">
        <ele>334.60000610352</ele>
        <time>2014-08-12T07:28:44.000Z</time>
      </trkpt>
      <trkpt lat="47.39437" lon="5.00874">
        <ele>334</ele>
        <time>2014-08-12T07:28:46.000Z</time>
      </trkpt>
      <trkpt lat="47.39442" lon="5.00881">
        <ele>333.60000610352</ele>
        <time>2014-08-12T07:28:52.000Z</time>
      </trkpt>
      <trkpt lat="47.39448" lon="5.00893">
        <ele>333.20001220703</ele>
        <time>2014-08-12T07:28:59.000Z</time>
      </trkpt>
      <trkpt lat="47.39453" lon="5.00905">
        <ele>333</ele>
        <time>2014-08-12T07:29:05.000Z</time>
      </trkpt>
      <trkpt lat="47.39456" lon="5.00915">
        <ele>333</ele>
        <time>2014-08-12T07:29:10.000Z</time>
      </trkpt>
      <trkpt lat="47.39457" lon="5.00918">
        <ele>333</ele>
        <time>2014-08-12T07:29:11.000Z</time>
      </trkpt>
      <trkpt lat="47.39463" lon="5.00936">
        <ele>332.79998779297</ele>
        <time>2014-08-12T07:29:20.000Z</time>
      </trkpt>
      <trkpt lat="47.39464" lon="5.00944">
        <ele>333</ele>
        <time>2014-08-12T07:29:24.000Z</time>
      </trkpt>
      <trkpt lat="47.39469" lon="5.00955">
        <ele>332.79998779297</ele>
        <time>2014-08-12T07:29:29.000Z</time>
      </trkpt>
      <trkpt lat="47.39473" lon="5.00964">
        <ele>332.39999389648</ele>
        <time>2014-08-12T07:29:35.000Z</time>
      </trkpt>
      <trkpt lat="47.39475" lon="5.00968">
        <ele>332.39999389648</ele>
        <time>2014-08-12T07:29:37.000Z</time>
      </trkpt>
      <trkpt lat="47.39477" lon="5.0098">
        <ele>332.60000610352</ele>
        <time>2014-08-12T07:29:41.000Z</time>
      </trkpt>
      <trkpt lat="47.39478" lon="5.00984">
        <ele>332.60000610352</ele>
        <time>2014-08-12T07:29:43.000Z</time>
      </trkpt>
      <trkpt lat="47.39481" lon="5.00994">
        <ele>332.60000610352</ele>
        <time>2014-08-12T07:29:47.000Z</time>
      </trkpt>
      <trkpt lat="47.39486" lon="5.01004">
        <ele>332.20001220703</ele>
        <time>2014-08-12T07:29:53.000Z</time>
      </trkpt>
      <trkpt lat="47.39486" lon="5.01007">
        <ele>332.39999389648</ele>
        <time>2014-08-12T07:29:54.000Z</time>
      </trkpt>
      <trkpt lat="47.39486" lon="5.0101">
        <ele>332.39999389648</ele>
        <time>2014-08-12T07:29:55.000Z</time>
      </trkpt>
      <trkpt lat="47.3949" lon="5.01017">
        <ele>332.20001220703</ele>
        <time>2014-08-12T07:29:59.000Z</time>
      </trkpt>
      <trkpt lat="47.39493" lon="5.01025">
        <ele>332</ele>
        <time>2014-08-12T07:30:03.000Z</time>
      </trkpt>
      <trkpt lat="47.395" lon="5.01034">
        <ele>331.60000610352</ele>
        <time>2014-08-12T07:30:09.000Z</time>
      </trkpt>
      <trkpt lat="47.39505" lon="5.0104">
        <ele>331</ele>
        <time>2014-08-12T07:30:13.000Z</time>
      </trkpt>
      <trkpt lat="47.39507" lon="5.01044">
        <ele>331</ele>
        <time>2014-08-12T07:30:15.000Z</time>
      </trkpt>
      <trkpt lat="47.39516" lon="5.01053">
        <ele>330.39999389648</ele>
        <time>2014-08-12T07:30:22.000Z</time>
      </trkpt>
      <trkpt lat="47.39521" lon="5.01062">
        <ele>330.60000610352</ele>
        <time>2014-08-12T07:30:26.000Z</time>
      </trkpt>
      <trkpt lat="47.39529" lon="5.01074">
        <ele>330.60000610352</ele>
        <time>2014-08-12T07:30:33.000Z</time>
      </trkpt>
      <trkpt lat="47.3953" lon="5.01076">
        <ele>330.60000610352</ele>
        <time>2014-08-12T07:30:34.000Z</time>
      </trkpt>
      <trkpt lat="47.39538" lon="5.01083">
        <ele>330.20001220703</ele>
        <time>2014-08-12T07:30:40.000Z</time>
      </trkpt>
      <trkpt lat="47.39539" lon="5.01085">
        <ele>330.20001220703</ele>
        <time>2014-08-12T07:30:41.000Z</time>
      </trkpt>
      <trkpt lat="47.3954" lon="5.01087">
        <ele>330.20001220703</ele>
        <time>2014-08-12T07:30:42.000Z</time>
      </trkpt>
      <trkpt lat="47.39544" lon="5.01097">
        <ele>330.20001220703</ele>
        <time>2014-08-12T07:30:47.000Z</time>
      </trkpt>
      <trkpt lat="47.39544" lon="5.01099">
        <ele>330.20001220703</ele>
        <time>2014-08-12T07:30:48.000Z</time>
      </trkpt>
      <trkpt lat="47.39549" lon="5.01109">
        <ele>330.20001220703</ele>
        <time>2014-08-12T07:30:53.000Z</time>
      </trkpt>
      <trkpt lat="47.39556" lon="5.01116">
        <ele>329.79998779297</ele>
        <time>2014-08-12T07:30:58.000Z</time>
      </trkpt>
      <trkpt lat="47.39557" lon="5.01117">
        <ele>329.79998779297</ele>
        <time>2014-08-12T07:30:59.000Z</time>
      </trkpt>
      <trkpt lat="47.39558" lon="5.01119">
        <ele>329.79998779297</ele>
        <time>2014-08-12T07:31:00.000Z</time>
      </trkpt>
      <trkpt lat="47.39565" lon="5.01127">
        <ele>329.39999389648</ele>
        <time>2014-08-12T07:31:05.000Z</time>
      </trkpt>
      <trkpt lat="47.3957" lon="5.01133">
        <ele>329.39999389648</ele>
        <time>2014-08-12T07:31:09.000Z</time>
      </trkpt>
      <trkpt lat="47.3958" lon="5.01139">
        <ele>329</ele>
        <time>2014-08-12T07:31:15.000Z</time>
      </trkpt>
      <trkpt lat="47.39588" lon="5.01146">
        <ele>328.39999389648</ele>
        <time>2014-08-12T07:31:21.000Z</time>
      </trkpt>
      <trkpt lat="47.39589" lon="5.01147">
        <ele>328.39999389648</ele>
        <time>2014-08-12T07:31:22.000Z</time>
      </trkpt>
      <trkpt lat="47.39597" lon="5.01162">
        <ele>328.20001220703</ele>
        <time>2014-08-12T07:31:30.000Z</time>
      </trkpt>
      <trkpt lat="47.39599" lon="5.01166">
        <ele>328.20001220703</ele>
        <time>2014-08-12T07:31:32.000Z</time>
      </trkpt>
      <trkpt lat="47.39601" lon="5.01169">
        <ele>328</ele>
        <time>2014-08-12T07:31:35.000Z</time>
      </trkpt>
      <trkpt lat="47.39605" lon="5.01174">
        <ele>327.79998779297</ele>
        <time>2014-08-12T07:31:39.000Z</time>
      </trkpt>
      <trkpt lat="47.39609" lon="5.01178">
        <ele>327.60000610352</ele>
        <time>2014-08-12T07:31:42.000Z</time>
      </trkpt>
      <trkpt lat="47.39612" lon="5.01181">
        <ele>327.39999389648</ele>
        <time>2014-08-12T07:31:44.000Z</time>
      </trkpt>
      <trkpt lat="47.39615" lon="5.01186">
        <ele>327.20001220703</ele>
        <time>2014-08-12T07:31:47.000Z</time>
      </trkpt>
      <trkpt lat="47.39624" lon="5.01197">
        <ele>326.60000610352</ele>
        <time>2014-08-12T07:31:54.000Z</time>
      </trkpt>
      <trkpt lat="47.39625" lon="5.01198">
        <ele>326.60000610352</ele>
        <time>2014-08-12T07:31:55.000Z</time>
      </trkpt>
      <trkpt lat="47.3963" lon="5.01204">
        <ele>326.39999389648</ele>
        <time>2014-08-12T07:31:59.000Z</time>
      </trkpt>
      <trkpt lat="47.39635" lon="5.01211">
        <ele>326</ele>
        <time>2014-08-12T07:32:03.000Z</time>
      </trkpt>
      <trkpt lat="47.39645" lon="5.01222">
        <ele>325</ele>
        <time>2014-08-12T07:32:10.000Z</time>
      </trkpt>
      <trkpt lat="47.39647" lon="5.01223">
        <ele>324.79998779297</ele>
        <time>2014-08-12T07:32:11.000Z</time>
      </trkpt>
      <trkpt lat="47.39652" lon="5.01232">
        <ele>324.20001220703</ele>
        <time>2014-08-12T07:32:16.000Z</time>
      </trkpt>
      <trkpt lat="47.39659" lon="5.0124">
        <ele>323.60000610352</ele>
        <time>2014-08-12T07:32:21.000Z</time>
      </trkpt>
      <trkpt lat="47.3966" lon="5.01243">
        <ele>323.60000610352</ele>
        <time>2014-08-12T07:32:22.000Z</time>
      </trkpt>
      <trkpt lat="47.39664" lon="5.01252">
        <ele>323.20001220703</ele>
        <time>2014-08-12T07:32:27.000Z</time>
      </trkpt>
      <trkpt lat="47.39667" lon="5.01262">
        <ele>323</ele>
        <time>2014-08-12T07:32:31.000Z</time>
      </trkpt>
      <trkpt lat="47.39668" lon="5.01267">
        <ele>323</ele>
        <time>2014-08-12T07:32:33.000Z</time>
      </trkpt>
      <trkpt lat="47.39671" lon="5.01279">
        <ele>322.79998779297</ele>
        <time>2014-08-12T07:32:38.000Z</time>
      </trkpt>
      <trkpt lat="47.39672" lon="5.0128">
        <ele>322.79998779297</ele>
        <time>2014-08-12T07:32:39.000Z</time>
      </trkpt>
      <trkpt lat="47.39677" lon="5.01293">
        <ele>322.20001220703</ele>
        <time>2014-08-12T07:32:45.000Z</time>
      </trkpt>
      <trkpt lat="47.39683" lon="5.01297">
        <ele>321.39999389648</ele>
        <time>2014-08-12T07:32:49.000Z</time>
      </trkpt>
      <trkpt lat="47.39686" lon="5.01302">
        <ele>321</ele>
        <time>2014-08-12T07:32:52.000Z</time>
      </trkpt>
      <trkpt lat="47.39685" lon="5.0131">
        <ele>321.20001220703</ele>
        <time>2014-08-12T07:32:56.000Z</time>
      </trkpt>
      <trkpt lat="47.39686" lon="5.01318">
        <ele>321</ele>
        <time>2014-08-12T07:33:01.000Z</time>
      </trkpt>
      <trkpt lat="47.39691" lon="5.01327">
        <ele>320.20001220703</ele>
        <time>2014-08-12T07:33:06.000Z</time>
      </trkpt>
      <trkpt lat="47.39691" lon="5.0133">
        <ele>320.20001220703</ele>
        <time>2014-08-12T07:33:07.000Z</time>
      </trkpt>
      <trkpt lat="47.39692" lon="5.01338">
        <ele>320</ele>
        <time>2014-08-12T07:33:10.000Z</time>
      </trkpt>
      <trkpt lat="47.39696" lon="5.01354">
        <ele>319.39999389648</ele>
        <time>2014-08-12T07:33:17.000Z</time>
      </trkpt>
      <trkpt lat="47.39696" lon="5.01357">
        <ele>319.39999389648</ele>
        <time>2014-08-12T07:33:18.000Z</time>
      </trkpt>
      <trkpt lat="47.39698" lon="5.01366">
        <ele>319.39999389648</ele>
        <time>2014-08-12T07:33:22.000Z</time>
      </trkpt>
      <trkpt lat="47.397" lon="5.01376">
        <ele>319</ele>
        <time>2014-08-12T07:33:26.000Z</time>
      </trkpt>
      <trkpt lat="47.397" lon="5.01384">
        <ele>319</ele>
        <time>2014-08-12T07:33:29.000Z</time>
      </trkpt>
      <trkpt lat="47.39704" lon="5.01397">
        <ele>318.39999389648</ele>
        <time>2014-08-12T07:33:35.000Z</time>
      </trkpt>
      <trkpt lat="47.39703" lon="5.0141">
        <ele>318.60000610352</ele>
        <time>2014-08-12T07:33:39.000Z</time>
      </trkpt>
      <trkpt lat="47.39704" lon="5.01422">
        <ele>318.20001220703</ele>
        <time>2014-08-12T07:33:44.000Z</time>
      </trkpt>
      <trkpt lat="47.39705" lon="5.0143">
        <ele>317.79998779297</ele>
        <time>2014-08-12T07:33:48.000Z</time>
      </trkpt>
      <trkpt lat="47.39705" lon="5.01443">
        <ele>317.60000610352</ele>
        <time>2014-08-12T07:33:53.000Z</time>
      </trkpt>
      <trkpt lat="47.39704" lon="5.01455">
        <ele>317.39999389648</ele>
        <time>2014-08-12T07:33:58.000Z</time>
      </trkpt>
      <trkpt lat="47.39703" lon="5.01457">
        <ele>317.39999389648</ele>
        <time>2014-08-12T07:33:59.000Z</time>
      </trkpt>
      <trkpt lat="47.39704" lon="5.0146">
        <ele>317.39999389648</ele>
        <time>2014-08-12T07:34:01.000Z</time>
      </trkpt>
      <trkpt lat="47.39705" lon="5.01469">
        <ele>317.20001220703</ele>
        <time>2014-08-12T07:34:05.000Z</time>
      </trkpt>
      <trkpt lat="47.39705" lon="5.01474">
        <ele>317.20001220703</ele>
        <time>2014-08-12T07:34:07.000Z</time>
      </trkpt>
      <trkpt lat="47.39707" lon="5.01479">
        <ele>317</ele>
        <time>2014-08-12T07:34:10.000Z</time>
      </trkpt>
      <trkpt lat="47.39708" lon="5.0149">
        <ele>316.79998779297</ele>
        <time>2014-08-12T07:34:15.000Z</time>
      </trkpt>
      <trkpt lat="47.39708" lon="5.01493">
        <ele>316.79998779297</ele>
        <time>2014-08-12T07:34:16.000Z</time>
      </trkpt>
      <trkpt lat="47.39708" lon="5.01507">
        <ele>316.79998779297</ele>
        <time>2014-08-12T07:34:22.000Z</time>
      </trkpt>
      <trkpt lat="47.3971" lon="5.01515">
        <ele>316.20001220703</ele>
        <time>2014-08-12T07:34:26.000Z</time>
      </trkpt>
      <trkpt lat="47.39713" lon="5.01521">
        <ele>316</ele>
        <time>2014-08-12T07:34:29.000Z</time>
      </trkpt>
      <trkpt lat="47.39717" lon="5.01532">
        <ele>315.20001220703</ele>
        <time>2014-08-12T07:34:34.000Z</time>
      </trkpt>
      <trkpt lat="47.39716" lon="5.01549">
        <ele>314.79998779297</ele>
        <time>2014-08-12T07:34:40.000Z</time>
      </trkpt>
      <trkpt lat="47.39715" lon="5.01556">
        <ele>314.60000610352</ele>
        <time>2014-08-12T07:34:42.000Z</time>
      </trkpt>
      <trkpt lat="47.39714" lon="5.01573">
        <ele>314.20001220703</ele>
        <time>2014-08-12T07:34:49.000Z</time>
      </trkpt>
      <trkpt lat="47.39714" lon="5.01575">
        <ele>314</ele>
        <time>2014-08-12T07:34:50.000Z</time>
      </trkpt>
      <trkpt lat="47.39714" lon="5.01582">
        <ele>313.79998779297</ele>
        <time>2014-08-12T07:34:53.000Z</time>
      </trkpt>
      <trkpt lat="47.39714" lon="5.01587">
        <ele>313.60000610352</ele>
        <time>2014-08-12T07:35:01.000Z</time>
      </trkpt>
      <trkpt lat="47.39714" lon="5.01593">
        <ele>313.39999389648</ele>
        <time>2014-08-12T07:35:11.000Z</time>
      </trkpt>
      <trkpt lat="47.39718" lon="5.016">
        <ele>312.79998779297</ele>
        <time>2014-08-12T07:35:15.000Z</time>
      </trkpt>
      <trkpt lat="47.39718" lon="5.01607">
        <ele>312.39999389648</ele>
        <time>2014-08-12T07:35:18.000Z</time>
      </trkpt>
      <trkpt lat="47.39719" lon="5.01615">
        <ele>312</ele>
        <time>2014-08-12T07:35:22.000Z</time>
      </trkpt>
      <trkpt lat="47.39721" lon="5.01622">
        <ele>311.39999389648</ele>
        <time>2014-08-12T07:35:26.000Z</time>
      </trkpt>
      <trkpt lat="47.39724" lon="5.01634">
        <ele>311</ele>
        <time>2014-08-12T07:35:32.000Z</time>
      </trkpt>
      <trkpt lat="47.3973" lon="5.0164">
        <ele>310.39999389648</ele>
        <time>2014-08-12T07:35:37.000Z</time>
      </trkpt>
      <trkpt lat="47.39732" lon="5.01643">
        <ele>310.20001220703</ele>
        <time>2014-08-12T07:35:40.000Z</time>
      </trkpt>
      <trkpt lat="47.39737" lon="5.01654">
        <ele>309.60000610352</ele>
        <time>2014-08-12T07:35:46.000Z</time>
      </trkpt>
      <trkpt lat="47.39741" lon="5.01664">
        <ele>309.20001220703</ele>
        <time>2014-08-12T07:35:51.000Z</time>
      </trkpt>
      <trkpt lat="47.39741" lon="5.01666">
        <ele>309.20001220703</ele>
        <time>2014-08-12T07:35:52.000Z</time>
      </trkpt>
      <trkpt lat="47.39745" lon="5.0168">
        <ele>308.60000610352</ele>
        <time>2014-08-12T07:35:58.000Z</time>
      </trkpt>
      <trkpt lat="47.39746" lon="5.01681">
        <ele>308.39999389648</ele>
        <time>2014-08-12T07:35:59.000Z</time>
      </trkpt>
      <trkpt lat="47.39753" lon="5.01688">
        <ele>307.60000610352</ele>
        <time>2014-08-12T07:36:04.000Z</time>
      </trkpt>
      <trkpt lat="47.39754" lon="5.01691">
        <ele>307.20001220703</ele>
        <time>2014-08-12T07:36:06.000Z</time>
      </trkpt>
      <trkpt lat="47.39758" lon="5.01698">
        <ele>306.39999389648</ele>
        <time>2014-08-12T07:36:12.000Z</time>
      </trkpt>
      <trkpt lat="47.3976" lon="5.01698">
        <ele>306.20001220703</ele>
        <time>2014-08-12T07:36:18.000Z</time>
      </trkpt>
      <trkpt lat="47.3976" lon="5.01698">
        <ele>306.20001220703</ele>
        <time>2014-08-12T07:36:27.000Z</time>
      </trkpt>
      <trkpt lat="47.39757" lon="5.01695">
        <ele>306.60000610352</ele>
        <time>2014-08-12T07:36:32.000Z</time>
      </trkpt>
      <trkpt lat="47.39754" lon="5.01689">
        <ele>307.39999389648</ele>
        <time>2014-08-12T07:36:39.000Z</time>
      </trkpt>
      <trkpt lat="47.39746" lon="5.01684">
        <ele>308.39999389648</ele>
        <time>2014-08-12T07:36:46.000Z</time>
      </trkpt>
      <trkpt lat="47.3974" lon="5.01681">
        <ele>309</ele>
        <time>2014-08-12T07:36:51.000Z</time>
      </trkpt>
      <trkpt lat="47.39734" lon="5.01674">
        <ele>309.60000610352</ele>
        <time>2014-08-12T07:36:58.000Z</time>
      </trkpt>
      <trkpt lat="47.39728" lon="5.01666">
        <ele>310.20001220703</ele>
        <time>2014-08-12T07:37:04.000Z</time>
      </trkpt>
      <trkpt lat="47.39721" lon="5.01657">
        <ele>310.79998779297</ele>
        <time>2014-08-12T07:37:10.000Z</time>
      </trkpt>
      <trkpt lat="47.39714" lon="5.01645">
        <ele>311.60000610352</ele>
        <time>2014-08-12T07:37:17.000Z</time>
      </trkpt>
      <trkpt lat="47.39713" lon="5.01643">
        <ele>311.79998779297</ele>
        <time>2014-08-12T07:37:18.000Z</time>
      </trkpt>
      <trkpt lat="47.3971" lon="5.01638">
        <ele>312</ele>
        <time>2014-08-12T07:37:21.000Z</time>
      </trkpt>
      <trkpt lat="47.39704" lon="5.01629">
        <ele>312.60000610352</ele>
        <time>2014-08-12T07:37:27.000Z</time>
      </trkpt>
      <trkpt lat="47.39698" lon="5.01619">
        <ele>313.60000610352</ele>
        <time>2014-08-12T07:37:33.000Z</time>
      </trkpt>
      <trkpt lat="47.39691" lon="5.01611">
        <ele>314.39999389648</ele>
        <time>2014-08-12T07:37:39.000Z</time>
      </trkpt>
      <trkpt lat="47.39684" lon="5.01602">
        <ele>315.60000610352</ele>
        <time>2014-08-12T07:37:46.000Z</time>
      </trkpt>
      <trkpt lat="47.39683" lon="5.016">
        <ele>315.79998779297</ele>
        <time>2014-08-12T07:37:47.000Z</time>
      </trkpt>
      <trkpt lat="47.39674" lon="5.01595">
        <ele>316.79998779297</ele>
        <time>2014-08-12T07:37:53.000Z</time>
      </trkpt>
      <trkpt lat="47.3967" lon="5.01587">
        <ele>317.39999389648</ele>
        <time>2014-08-12T07:37:57.000Z</time>
      </trkpt>
      <trkpt lat="47.39663" lon="5.01573">
        <ele>318.60000610352</ele>
        <time>2014-08-12T07:38:05.000Z</time>
      </trkpt>
      <trkpt lat="47.39655" lon="5.01568">
        <ele>318.79998779297</ele>
        <time>2014-08-12T07:38:11.000Z</time>
      </trkpt>
      <trkpt lat="47.39653" lon="5.01568">
        <ele>319</ele>
        <time>2014-08-12T07:38:12.000Z</time>
      </trkpt>
      <trkpt lat="47.3965" lon="5.01568">
        <ele>319</ele>
        <time>2014-08-12T07:38:15.000Z</time>
      </trkpt>
      <trkpt lat="47.39646" lon="5.01566">
        <ele>319</ele>
        <time>2014-08-12T07:38:17.000Z</time>
      </trkpt>
      <trkpt lat="47.39636" lon="5.01564">
        <ele>319.20001220703</ele>
        <time>2014-08-12T07:38:24.000Z</time>
      </trkpt>
      <trkpt lat="47.39636" lon="5.01564">
        <ele>319.20001220703</ele>
        <time>2014-08-12T07:38:25.000Z</time>
      </trkpt>
      <trkpt lat="47.3963" lon="5.01563">
        <ele>319.39999389648</ele>
        <time>2014-08-12T07:38:29.000Z</time>
      </trkpt>
      <trkpt lat="47.39622" lon="5.01561">
        <ele>319.60000610352</ele>
        <time>2014-08-12T07:38:34.000Z</time>
      </trkpt>
      <trkpt lat="47.39613" lon="5.01562">
        <ele>319.60000610352</ele>
        <time>2014-08-12T07:38:39.000Z</time>
      </trkpt>
      <trkpt lat="47.39609" lon="5.01562">
        <ele>319.79998779297</ele>
        <time>2014-08-12T07:38:41.000Z</time>
      </trkpt>
      <trkpt lat="47.396" lon="5.01564">
        <ele>319.60000610352</ele>
        <time>2014-08-12T07:38:46.000Z</time>
      </trkpt>
      <trkpt lat="47.39593" lon="5.01565">
        <ele>319.60000610352</ele>
        <time>2014-08-12T07:38:50.000Z</time>
      </trkpt>
      <trkpt lat="47.39585" lon="5.01566">
        <ele>319.60000610352</ele>
        <time>2014-08-12T07:38:55.000Z</time>
      </trkpt>
      <trkpt lat="47.39575" lon="5.01566">
        <ele>320</ele>
        <time>2014-08-12T07:39:01.000Z</time>
      </trkpt>
      <trkpt lat="47.39567" lon="5.01566">
        <ele>320.60000610352</ele>
        <time>2014-08-12T07:39:07.000Z</time>
      </trkpt>
      <trkpt lat="47.39562" lon="5.01564">
        <ele>321</ele>
        <time>2014-08-12T07:39:10.000Z</time>
      </trkpt>
      <trkpt lat="47.39561" lon="5.01564">
        <ele>321.20001220703</ele>
        <time>2014-08-12T07:39:11.000Z</time>
      </trkpt>
      <trkpt lat="47.39551" lon="5.01562">
        <ele>322</ele>
        <time>2014-08-12T07:39:18.000Z</time>
      </trkpt>
      <trkpt lat="47.39539" lon="5.0156">
        <ele>323</ele>
        <time>2014-08-12T07:39:27.000Z</time>
      </trkpt>
      <trkpt lat="47.39538" lon="5.01559">
        <ele>323.20001220703</ele>
        <time>2014-08-12T07:39:28.000Z</time>
      </trkpt>
      <trkpt lat="47.39533" lon="5.01557">
        <ele>323.60000610352</ele>
        <time>2014-08-12T07:39:31.000Z</time>
      </trkpt>
      <trkpt lat="47.39525" lon="5.0155">
        <ele>324.60000610352</ele>
        <time>2014-08-12T07:39:36.000Z</time>
      </trkpt>
      <trkpt lat="47.39523" lon="5.01549">
        <ele>324.79998779297</ele>
        <time>2014-08-12T07:39:37.000Z</time>
      </trkpt>
      <trkpt lat="47.39516" lon="5.01548">
        <ele>325.39999389648</ele>
        <time>2014-08-12T07:39:43.000Z</time>
      </trkpt>
      <trkpt lat="47.39513" lon="5.01548">
        <ele>325.60000610352</ele>
        <time>2014-08-12T07:39:45.000Z</time>
      </trkpt>
      <trkpt lat="47.3951" lon="5.01546">
        <ele>326</ele>
        <time>2014-08-12T07:39:47.000Z</time>
      </trkpt>
      <trkpt lat="47.39506" lon="5.01543">
        <ele>326.39999389648</ele>
        <time>2014-08-12T07:39:51.000Z</time>
      </trkpt>
      <trkpt lat="47.39501" lon="5.01538">
        <ele>327</ele>
        <time>2014-08-12T07:39:55.000Z</time>
      </trkpt>
      <trkpt lat="47.39495" lon="5.01533">
        <ele>327.60000610352</ele>
        <time>2014-08-12T07:40:00.000Z</time>
      </trkpt>
      <trkpt lat="47.3949" lon="5.01529">
        <ele>328</ele>
        <time>2014-08-12T07:40:04.000Z</time>
      </trkpt>
      <trkpt lat="47.39485" lon="5.01528">
        <ele>328.39999389648</ele>
        <time>2014-08-12T07:40:09.000Z</time>
      </trkpt>
      <trkpt lat="47.39484" lon="5.01527">
        <ele>328.60000610352</ele>
        <time>2014-08-12T07:40:10.000Z</time>
      </trkpt>
      <trkpt lat="47.39483" lon="5.01526">
        <ele>328.60000610352</ele>
        <time>2014-08-12T07:40:11.000Z</time>
      </trkpt>
      <trkpt lat="47.39471" lon="5.01522">
        <ele>329.79998779297</ele>
        <time>2014-08-12T07:40:19.000Z</time>
      </trkpt>
      <trkpt lat="47.3947" lon="5.01522">
        <ele>329.79998779297</ele>
        <time>2014-08-12T07:40:20.000Z</time>
      </trkpt>
      <trkpt lat="47.39462" lon="5.01518">
        <ele>330.60000610352</ele>
        <time>2014-08-12T07:40:25.000Z</time>
      </trkpt>
      <trkpt lat="47.3946" lon="5.01518">
        <ele>330.79998779297</ele>
        <time>2014-08-12T07:40:26.000Z</time>
      </trkpt>
      <trkpt lat="47.39452" lon="5.01513">
        <ele>331.60000610352</ele>
        <time>2014-08-12T07:40:32.000Z</time>
      </trkpt>
      <trkpt lat="47.39451" lon="5.01512">
        <ele>331.60000610352</ele>
        <time>2014-08-12T07:40:33.000Z</time>
      </trkpt>
      <trkpt lat="47.39446" lon="5.01509">
        <ele>332.20001220703</ele>
        <time>2014-08-12T07:40:37.000Z</time>
      </trkpt>
      <trkpt lat="47.39442" lon="5.01508">
        <ele>332.60000610352</ele>
        <time>2014-08-12T07:40:39.000Z</time>
      </trkpt>
      <trkpt lat="47.39436" lon="5.01503">
        <ele>333.20001220703</ele>
        <time>2014-08-12T07:40:43.000Z</time>
      </trkpt>
      <trkpt lat="47.39431" lon="5.01497">
        <ele>333.79998779297</ele>
        <time>2014-08-12T07:40:48.000Z</time>
      </trkpt>
      <trkpt lat="47.39425" lon="5.01493">
        <ele>334.39999389648</ele>
        <time>2014-08-12T07:40:53.000Z</time>
      </trkpt>
      <trkpt lat="47.3942" lon="5.0149">
        <ele>334.79998779297</ele>
        <time>2014-08-12T07:40:56.000Z</time>
      </trkpt>
      <trkpt lat="47.39418" lon="5.01488">
        <ele>335</ele>
        <time>2014-08-12T07:40:58.000Z</time>
      </trkpt>
      <trkpt lat="47.39409" lon="5.01483">
        <ele>335.39999389648</ele>
        <time>2014-08-12T07:41:04.000Z</time>
      </trkpt>
      <trkpt lat="47.39403" lon="5.01482">
        <ele>335.60000610352</ele>
        <time>2014-08-12T07:41:08.000Z</time>
      </trkpt>
      <trkpt lat="47.39396" lon="5.0148">
        <ele>335.79998779297</ele>
        <time>2014-08-12T07:41:13.000Z</time>
      </trkpt>
      <trkpt lat="47.39395" lon="5.0148">
        <ele>335.79998779297</ele>
        <time>2014-08-12T07:41:14.000Z</time>
      </trkpt>
      <trkpt lat="47.3939" lon="5.01478">
        <ele>335.79998779297</ele>
        <time>2014-08-12T07:41:17.000Z</time>
      </trkpt>
      <trkpt lat="47.3938" lon="5.01475">
        <ele>336</ele>
        <time>2014-08-12T07:41:25.000Z</time>
      </trkpt>
      <trkpt lat="47.39373" lon="5.01471">
        <ele>336.20001220703</ele>
        <time>2014-08-12T07:41:30.000Z</time>
      </trkpt>
      <trkpt lat="47.39362" lon="5.01465">
        <ele>336.39999389648</ele>
        <time>2014-08-12T07:41:36.000Z</time>
      </trkpt>
      <trkpt lat="47.39358" lon="5.01464">
        <ele>336.60000610352</ele>
        <time>2014-08-12T07:41:39.000Z</time>
      </trkpt>
      <trkpt lat="47.39356" lon="5.01463">
        <ele>336.60000610352</ele>
        <time>2014-08-12T07:41:41.000Z</time>
      </trkpt>
      <trkpt lat="47.39349" lon="5.01457">
        <ele>336.79998779297</ele>
        <time>2014-08-12T07:41:45.000Z</time>
      </trkpt>
      <trkpt lat="47.39339" lon="5.01451">
        <ele>337</ele>
        <time>2014-08-12T07:41:51.000Z</time>
      </trkpt>
      <trkpt lat="47.39333" lon="5.01447">
        <ele>337.20001220703</ele>
        <time>2014-08-12T07:41:55.000Z</time>
      </trkpt>
      <trkpt lat="47.39326" lon="5.01442">
        <ele>337.39999389648</ele>
        <time>2014-08-12T07:41:59.000Z</time>
      </trkpt>
      <trkpt lat="47.39317" lon="5.01438">
        <ele>337.60000610352</ele>
        <time>2014-08-12T07:42:04.000Z</time>
      </trkpt>
      <trkpt lat="47.3931" lon="5.01434">
        <ele>337.79998779297</ele>
        <time>2014-08-12T07:42:09.000Z</time>
      </trkpt>
      <trkpt lat="47.39303" lon="5.0143">
        <ele>338</ele>
        <time>2014-08-12T07:42:14.000Z</time>
      </trkpt>
      <trkpt lat="47.39302" lon="5.0143">
        <ele>338</ele>
        <time>2014-08-12T07:42:15.000Z</time>
      </trkpt>
      <trkpt lat="47.39292" lon="5.01421">
        <ele>338.39999389648</ele>
        <time>2014-08-12T07:42:21.000Z</time>
      </trkpt>
      <trkpt lat="47.3928" lon="5.01413">
        <ele>338.79998779297</ele>
        <time>2014-08-12T07:42:30.000Z</time>
      </trkpt>
      <trkpt lat="47.39277" lon="5.01411">
        <ele>339</ele>
        <time>2014-08-12T07:42:32.000Z</time>
      </trkpt>
      <trkpt lat="47.39269" lon="5.01403">
        <ele>339.20001220703</ele>
        <time>2014-08-12T07:42:38.000Z</time>
      </trkpt>
      <trkpt lat="47.39263" lon="5.01399">
        <ele>339.39999389648</ele>
        <time>2014-08-12T07:42:43.000Z</time>
      </trkpt>
      <trkpt lat="47.39257" lon="5.01397">
        <ele>339.60000610352</ele>
        <time>2014-08-12T07:42:47.000Z</time>
      </trkpt>
      <trkpt lat="47.3925" lon="5.01395">
        <ele>340</ele>
        <time>2014-08-12T07:42:53.000Z</time>
      </trkpt>
      <trkpt lat="47.39244" lon="5.01392">
        <ele>340.20001220703</ele>
        <time>2014-08-12T07:42:58.000Z</time>
      </trkpt>
      <trkpt lat="47.39242" lon="5.01391">
        <ele>340.20001220703</ele>
        <time>2014-08-12T07:42:59.000Z</time>
      </trkpt>
      <trkpt lat="47.39241" lon="5.0139">
        <ele>340.39999389648</ele>
        <time>2014-08-12T07:43:00.000Z</time>
      </trkpt>
      <trkpt lat="47.39233" lon="5.01384">
        <ele>340.79998779297</ele>
        <time>2014-08-12T07:43:05.000Z</time>
      </trkpt>
      <trkpt lat="47.39229" lon="5.01383">
        <ele>341</ele>
        <time>2014-08-12T07:43:09.000Z</time>
      </trkpt>
      <trkpt lat="47.39227" lon="5.01382">
        <ele>341</ele>
        <time>2014-08-12T07:43:11.000Z</time>
      </trkpt>
      <trkpt lat="47.39222" lon="5.0138">
        <ele>341.20001220703</ele>
        <time>2014-08-12T07:43:14.000Z</time>
      </trkpt>
      <trkpt lat="47.39213" lon="5.01373">
        <ele>341.79998779297</ele>
        <time>2014-08-12T07:43:19.000Z</time>
      </trkpt>
      <trkpt lat="47.39202" lon="5.01366">
        <ele>342.39999389648</ele>
        <time>2014-08-12T07:43:25.000Z</time>
      </trkpt>
      <trkpt lat="47.39197" lon="5.01364">
        <ele>342.60000610352</ele>
        <time>2014-08-12T07:43:28.000Z</time>
      </trkpt>
      <trkpt lat="47.39193" lon="5.01363">
        <ele>342.79998779297</ele>
        <time>2014-08-12T07:43:30.000Z</time>
      </trkpt>
      <trkpt lat="47.39187" lon="5.01358">
        <ele>343.20001220703</ele>
        <time>2014-08-12T07:43:35.000Z</time>
      </trkpt>
      <trkpt lat="47.39179" lon="5.01354">
        <ele>343.60000610352</ele>
        <time>2014-08-12T07:43:41.000Z</time>
      </trkpt>
      <trkpt lat="47.39173" lon="5.01348">
        <ele>344</ele>
        <time>2014-08-12T07:43:46.000Z</time>
      </trkpt>
      <trkpt lat="47.39172" lon="5.01347">
        <ele>344</ele>
        <time>2014-08-12T07:43:47.000Z</time>
      </trkpt>
      <trkpt lat="47.39171" lon="5.01347">
        <ele>344</ele>
        <time>2014-08-12T07:43:48.000Z</time>
      </trkpt>
      <trkpt lat="47.39162" lon="5.01342">
        <ele>344.39999389648</ele>
        <time>2014-08-12T07:43:54.000Z</time>
      </trkpt>
      <trkpt lat="47.39154" lon="5.01337">
        <ele>344.39999389648</ele>
        <time>2014-08-12T07:43:58.000Z</time>
      </trkpt>
      <trkpt lat="47.39149" lon="5.01334">
        <ele>344.39999389648</ele>
        <time>2014-08-12T07:44:02.000Z</time>
      </trkpt>
      <trkpt lat="47.39141" lon="5.0133">
        <ele>344.60000610352</ele>
        <time>2014-08-12T07:44:07.000Z</time>
      </trkpt>
      <trkpt lat="47.39134" lon="5.01327">
        <ele>344.60000610352</ele>
        <time>2014-08-12T07:44:12.000Z</time>
      </trkpt>
      <trkpt lat="47.39134" lon="5.01327">
        <ele>344.60000610352</ele>
        <time>2014-08-12T07:44:13.000Z</time>
      </trkpt>
      <trkpt lat="47.39132" lon="5.01326">
        <ele>344.60000610352</ele>
        <time>2014-08-12T07:44:14.000Z</time>
      </trkpt>
      <trkpt lat="47.39125" lon="5.01327">
        <ele>344.60000610352</ele>
        <time>2014-08-12T07:44:18.000Z</time>
      </trkpt>
      <trkpt lat="47.39122" lon="5.01326">
        <ele>344.60000610352</ele>
        <time>2014-08-12T07:44:20.000Z</time>
      </trkpt>
      <trkpt lat="47.39116" lon="5.01322">
        <ele>344.60000610352</ele>
        <time>2014-08-12T07:44:24.000Z</time>
      </trkpt>
      <trkpt lat="47.39111" lon="5.01319">
        <ele>344.60000610352</ele>
        <time>2014-08-12T07:44:28.000Z</time>
      </trkpt>
      <trkpt lat="47.39108" lon="5.01317">
        <ele>344.60000610352</ele>
        <time>2014-08-12T07:44:30.000Z</time>
      </trkpt>
      <trkpt lat="47.39101" lon="5.01311">
        <ele>344.79998779297</ele>
        <time>2014-08-12T07:44:35.000Z</time>
      </trkpt>
      <trkpt lat="47.39097" lon="5.01308">
        <ele>344.79998779297</ele>
        <time>2014-08-12T07:44:37.000Z</time>
      </trkpt>
      <trkpt lat="47.39088" lon="5.01301">
        <ele>344.79998779297</ele>
        <time>2014-08-12T07:44:43.000Z</time>
      </trkpt>
      <trkpt lat="47.39085" lon="5.01301">
        <ele>344.79998779297</ele>
        <time>2014-08-12T07:44:44.000Z</time>
      </trkpt>
      <trkpt lat="47.39077" lon="5.01297">
        <ele>344.39999389648</ele>
        <time>2014-08-12T07:44:48.000Z</time>
      </trkpt>
      <trkpt lat="47.3907" lon="5.01291">
        <ele>344.20001220703</ele>
        <time>2014-08-12T07:44:53.000Z</time>
      </trkpt>
      <trkpt lat="47.39065" lon="5.01289">
        <ele>344</ele>
        <time>2014-08-12T07:44:56.000Z</time>
      </trkpt>
      <trkpt lat="47.39058" lon="5.01285">
        <ele>343.79998779297</ele>
        <time>2014-08-12T07:45:00.000Z</time>
      </trkpt>
      <trkpt lat="47.39055" lon="5.01283">
        <ele>343.79998779297</ele>
        <time>2014-08-12T07:45:02.000Z</time>
      </trkpt>
      <trkpt lat="47.39051" lon="5.01279">
        <ele>343.79998779297</ele>
        <time>2014-08-12T07:45:04.000Z</time>
      </trkpt>
      <trkpt lat="47.39042" lon="5.0127">
        <ele>343.79998779297</ele>
        <time>2014-08-12T07:45:10.000Z</time>
      </trkpt>
      <trkpt lat="47.3904" lon="5.01268">
        <ele>343.79998779297</ele>
        <time>2014-08-12T07:45:12.000Z</time>
      </trkpt>
      <trkpt lat="47.39036" lon="5.01262">
        <ele>344</ele>
        <time>2014-08-12T07:45:16.000Z</time>
      </trkpt>
      <trkpt lat="47.39032" lon="5.01255">
        <ele>344</ele>
        <time>2014-08-12T07:45:20.000Z</time>
      </trkpt>
      <trkpt lat="47.39026" lon="5.01248">
        <ele>344.20001220703</ele>
        <time>2014-08-12T07:45:24.000Z</time>
      </trkpt>
      <trkpt lat="47.3902" lon="5.01236">
        <ele>344.60000610352</ele>
        <time>2014-08-12T07:45:30.000Z</time>
      </trkpt>
      <trkpt lat="47.39019" lon="5.01235">
        <ele>344.60000610352</ele>
        <time>2014-08-12T07:45:31.000Z</time>
      </trkpt>
      <trkpt lat="47.39017" lon="5.01231">
        <ele>344.60000610352</ele>
        <time>2014-08-12T07:45:33.000Z</time>
      </trkpt>
      <trkpt lat="47.39011" lon="5.01223">
        <ele>344.79998779297</ele>
        <time>2014-08-12T07:45:38.000Z</time>
      </trkpt>
      <trkpt lat="47.39009" lon="5.01222">
        <ele>344.79998779297</ele>
        <time>2014-08-12T07:45:39.000Z</time>
      </trkpt>
      <trkpt lat="47.39007" lon="5.0122">
        <ele>344.79998779297</ele>
        <time>2014-08-12T07:45:41.000Z</time>
      </trkpt>
      <trkpt lat="47.39006" lon="5.0122">
        <ele>344.79998779297</ele>
        <time>2014-08-12T07:45:42.000Z</time>
      </trkpt>
      <trkpt lat="47.39003" lon="5.01214">
        <ele>345</ele>
        <time>2014-08-12T07:45:45.000Z</time>
      </trkpt>
      <trkpt lat="47.38999" lon="5.01208">
        <ele>345</ele>
        <time>2014-08-12T07:45:49.000Z</time>
      </trkpt>
      <trkpt lat="47.38995" lon="5.01202">
        <ele>345.20001220703</ele>
        <time>2014-08-12T07:45:54.000Z</time>
      </trkpt>
      <trkpt lat="47.38994" lon="5.012">
        <ele>345.39999389648</ele>
        <time>2014-08-12T07:45:55.000Z</time>
      </trkpt>
      <trkpt lat="47.38987" lon="5.01187">
        <ele>345.79998779297</ele>
        <time>2014-08-12T07:46:01.000Z</time>
      </trkpt>
      <trkpt lat="47.38986" lon="5.01185">
        <ele>346</ele>
        <time>2014-08-12T07:46:02.000Z</time>
      </trkpt>
      <trkpt lat="47.38983" lon="5.01183">
        <ele>346</ele>
        <time>2014-08-12T07:46:05.000Z</time>
      </trkpt>
      <trkpt lat="47.38977" lon="5.01174">
        <ele>346.39999389648</ele>
        <time>2014-08-12T07:46:10.000Z</time>
      </trkpt>
      <trkpt lat="47.38974" lon="5.0117">
        <ele>346.39999389648</ele>
        <time>2014-08-12T07:46:12.000Z</time>
      </trkpt>
      <trkpt lat="47.38968" lon="5.01162">
        <ele>346.60000610352</ele>
        <time>2014-08-12T07:46:17.000Z</time>
      </trkpt>
      <trkpt lat="47.38967" lon="5.01161">
        <ele>346.79998779297</ele>
        <time>2014-08-12T07:46:18.000Z</time>
      </trkpt>
      <trkpt lat="47.38961" lon="5.01148">
        <ele>347.20001220703</ele>
        <time>2014-08-12T07:46:24.000Z</time>
      </trkpt>
      <trkpt lat="47.38959" lon="5.01146">
        <ele>347.39999389648</ele>
        <time>2014-08-12T07:46:25.000Z</time>
      </trkpt>
      <trkpt lat="47.38954" lon="5.01139">
        <ele>347.60000610352</ele>
        <time>2014-08-12T07:46:30.000Z</time>
      </trkpt>
      <trkpt lat="47.3895" lon="5.01133">
        <ele>347.79998779297</ele>
        <time>2014-08-12T07:46:35.000Z</time>
      </trkpt>
      <trkpt lat="47.38948" lon="5.01129">
        <ele>348</ele>
        <time>2014-08-12T07:46:37.000Z</time>
      </trkpt>
      <trkpt lat="47.38941" lon="5.0112">
        <ele>348.20001220703</ele>
        <time>2014-08-12T07:46:43.000Z</time>
      </trkpt>
      <trkpt lat="47.38937" lon="5.01114">
        <ele>348.39999389648</ele>
        <time>2014-08-12T07:46:47.000Z</time>
      </trkpt>
      <trkpt lat="47.38933" lon="5.01106">
        <ele>348.60000610352</ele>
        <time>2014-08-12T07:46:52.000Z</time>
      </trkpt>
      <trkpt lat="47.38928" lon="5.011">
        <ele>348.79998779297</ele>
        <time>2014-08-12T07:46:56.000Z</time>
      </trkpt>
      <trkpt lat="47.38924" lon="5.01093">
        <ele>348.79998779297</ele>
        <time>2014-08-12T07:47:00.000Z</time>
      </trkpt>
      <trkpt lat="47.38915" lon="5.01081">
        <ele>349.20001220703</ele>
        <time>2014-08-12T07:47:08.000Z</time>
      </trkpt>
      <trkpt lat="47.38911" lon="5.01073">
        <ele>349.39999389648</ele>
        <time>2014-08-12T07:47:12.000Z</time>
      </trkpt>
      <trkpt lat="47.3891" lon="5.01072">
        <ele>349.39999389648</ele>
        <time>2014-08-12T07:47:13.000Z</time>
      </trkpt>
      <trkpt lat="47.38909" lon="5.0107">
        <ele>349.39999389648</ele>
        <time>2014-08-12T07:47:15.000Z</time>
      </trkpt>
      <trkpt lat="47.38903" lon="5.01062">
        <ele>349.79998779297</ele>
        <time>2014-08-12T07:47:21.000Z</time>
      </trkpt>
      <trkpt lat="47.38901" lon="5.01058">
        <ele>350</ele>
        <time>2014-08-12T07:47:23.000Z</time>
      </trkpt>
      <trkpt lat="47.38895" lon="5.01046">
        <ele>350.20001220703</ele>
        <time>2014-08-12T07:47:30.000Z</time>
      </trkpt>
      <trkpt lat="47.38889" lon="5.01038">
        <ele>350.60000610352</ele>
        <time>2014-08-12T07:47:35.000Z</time>
      </trkpt>
      <trkpt lat="47.38884" lon="5.01029">
        <ele>350.79998779297</ele>
        <time>2014-08-12T07:47:40.000Z</time>
      </trkpt>
      <trkpt lat="47.38877" lon="5.01018">
        <ele>351</ele>
        <time>2014-08-12T07:47:47.000Z</time>
      </trkpt>
      <trkpt lat="47.38869" lon="5.01005">
        <ele>351.20001220703</ele>
        <time>2014-08-12T07:47:53.000Z</time>
      </trkpt>
      <trkpt lat="47.38868" lon="5.01003">
        <ele>351.20001220703</ele>
        <time>2014-08-12T07:47:54.000Z</time>
      </trkpt>
      <trkpt lat="47.3886" lon="5.00991">
        <ele>351.60000610352</ele>
        <time>2014-08-12T07:48:01.000Z</time>
      </trkpt>
      <trkpt lat="47.38855" lon="5.00982">
        <ele>351.79998779297</ele>
        <time>2014-08-12T07:48:05.000Z</time>
      </trkpt>
      <trkpt lat="47.38853" lon="5.00979">
        <ele>351.79998779297</ele>
        <time>2014-08-12T07:48:07.000Z</time>
      </trkpt>
      <trkpt lat="47.38848" lon="5.00972">
        <ele>352</ele>
        <time>2014-08-12T07:48:11.000Z</time>
      </trkpt>
      <trkpt lat="47.38843" lon="5.00966">
        <ele>352.20001220703</ele>
        <time>2014-08-12T07:48:16.000Z</time>
      </trkpt>
      <trkpt lat="47.38842" lon="5.00964">
        <ele>352.20001220703</ele>
        <time>2014-08-12T07:48:17.000Z</time>
      </trkpt>
      <trkpt lat="47.3884" lon="5.00963">
        <ele>352.20001220703</ele>
        <time>2014-08-12T07:48:19.000Z</time>
      </trkpt>
      <trkpt lat="47.38832" lon="5.00945">
        <ele>352.79998779297</ele>
        <time>2014-08-12T07:48:27.000Z</time>
      </trkpt>
      <trkpt lat="47.38831" lon="5.00943">
        <ele>353</ele>
        <time>2014-08-12T07:48:28.000Z</time>
      </trkpt>
      <trkpt lat="47.38831" lon="5.00941">
        <ele>353</ele>
        <time>2014-08-12T07:48:30.000Z</time>
      </trkpt>
      <trkpt lat="47.38825" lon="5.00928">
        <ele>353.60000610352</ele>
        <time>2014-08-12T07:48:35.000Z</time>
      </trkpt>
      <trkpt lat="47.38824" lon="5.00926">
        <ele>353.60000610352</ele>
        <time>2014-08-12T07:48:36.000Z</time>
      </trkpt>
      <trkpt lat="47.38823" lon="5.00925">
        <ele>353.60000610352</ele>
        <time>2014-08-12T07:48:37.000Z</time>
      </trkpt>
      <trkpt lat="47.38821" lon="5.00923">
        <ele>353.60000610352</ele>
        <time>2014-08-12T07:48:39.000Z</time>
      </trkpt>
      <trkpt lat="47.38814" lon="5.00912">
        <ele>354</ele>
        <time>2014-08-12T07:48:45.000Z</time>
      </trkpt>
      <trkpt lat="47.38807" lon="5.009">
        <ele>354.39999389648</ele>
        <time>2014-08-12T07:48:49.000Z</time>
      </trkpt>
      <trkpt lat="47.38806" lon="5.00898">
        <ele>354.39999389648</ele>
        <time>2014-08-12T07:48:50.000Z</time>
      </trkpt>
      <trkpt lat="47.388" lon="5.0089">
        <ele>354.60000610352</ele>
        <time>2014-08-12T07:48:55.000Z</time>
      </trkpt>
      <trkpt lat="47.38799" lon="5.00888">
        <ele>354.60000610352</ele>
        <time>2014-08-12T07:48:56.000Z</time>
      </trkpt>
      <trkpt lat="47.38794" lon="5.00877">
        <ele>355</ele>
        <time>2014-08-12T07:49:01.000Z</time>
      </trkpt>
      <trkpt lat="47.38791" lon="5.00873">
        <ele>355.20001220703</ele>
        <time>2014-08-12T07:49:04.000Z</time>
      </trkpt>
      <trkpt lat="47.38783" lon="5.00862">
        <ele>355.60000610352</ele>
        <time>2014-08-12T07:49:10.000Z</time>
      </trkpt>
      <trkpt lat="47.38778" lon="5.00853">
        <ele>356</ele>
        <time>2014-08-12T07:49:14.000Z</time>
      </trkpt>
      <trkpt lat="47.38774" lon="5.00845">
        <ele>356.39999389648</ele>
        <time>2014-08-12T07:49:18.000Z</time>
      </trkpt>
      <trkpt lat="47.38768" lon="5.00834">
        <ele>356.79998779297</ele>
        <time>2014-08-12T07:49:24.000Z</time>
      </trkpt>
      <trkpt lat="47.38761" lon="5.00824">
        <ele>357.20001220703</ele>
        <time>2014-08-12T07:49:28.000Z</time>
      </trkpt>
      <trkpt lat="47.38758" lon="5.0082">
        <ele>357.39999389648</ele>
        <time>2014-08-12T07:49:30.000Z</time>
      </trkpt>
      <trkpt lat="47.38753" lon="5.00814">
        <ele>357.60000610352</ele>
        <time>2014-08-12T07:49:34.000Z</time>
      </trkpt>
      <trkpt lat="47.38745" lon="5.008">
        <ele>358.20001220703</ele>
        <time>2014-08-12T07:49:39.000Z</time>
      </trkpt>
      <trkpt lat="47.38742" lon="5.00797">
        <ele>358.39999389648</ele>
        <time>2014-08-12T07:49:40.000Z</time>
      </trkpt>
      <trkpt lat="47.38734" lon="5.00786">
        <ele>358.60000610352</ele>
        <time>2014-08-12T07:49:45.000Z</time>
      </trkpt>
      <trkpt lat="47.38731" lon="5.0078">
        <ele>358.79998779297</ele>
        <time>2014-08-12T07:49:47.000Z</time>
      </trkpt>
      <trkpt lat="47.38724" lon="5.00772">
        <ele>359</ele>
        <time>2014-08-12T07:49:52.000Z</time>
      </trkpt>
      <trkpt lat="47.38715" lon="5.00762">
        <ele>359.20001220703</ele>
        <time>2014-08-12T07:49:57.000Z</time>
      </trkpt>
      <trkpt lat="47.38712" lon="5.00759">
        <ele>359.20001220703</ele>
        <time>2014-08-12T07:49:58.000Z</time>
      </trkpt>
      <trkpt lat="47.38711" lon="5.00756">
        <ele>359.39999389648</ele>
        <time>2014-08-12T07:49:59.000Z</time>
      </trkpt>
      <trkpt lat="47.38706" lon="5.00746">
        <ele>359.79998779297</ele>
        <time>2014-08-12T07:50:03.000Z</time>
      </trkpt>
      <trkpt lat="47.38705" lon="5.00744">
        <ele>359.79998779297</ele>
        <time>2014-08-12T07:50:04.000Z</time>
      </trkpt>
      <trkpt lat="47.38704" lon="5.00743">
        <ele>359.79998779297</ele>
        <time>2014-08-12T07:50:05.000Z</time>
      </trkpt>
      <trkpt lat="47.38698" lon="5.00735">
        <ele>360</ele>
        <time>2014-08-12T07:50:09.000Z</time>
      </trkpt>
      <trkpt lat="47.38693" lon="5.00727">
        <ele>360.20001220703</ele>
        <time>2014-08-12T07:50:13.000Z</time>
      </trkpt>
      <trkpt lat="47.38687" lon="5.00716">
        <ele>360.60000610352</ele>
        <time>2014-08-12T07:50:18.000Z</time>
      </trkpt>
      <trkpt lat="47.38679" lon="5.00703">
        <ele>361</ele>
        <time>2014-08-12T07:50:25.000Z</time>
      </trkpt>
      <trkpt lat="47.38674" lon="5.00699">
        <ele>361</ele>
        <time>2014-08-12T07:50:28.000Z</time>
      </trkpt>
      <trkpt lat="47.38667" lon="5.00687">
        <ele>361.39999389648</ele>
        <time>2014-08-12T07:50:34.000Z</time>
      </trkpt>
      <trkpt lat="47.38661" lon="5.00677">
        <ele>361.79998779297</ele>
        <time>2014-08-12T07:50:39.000Z</time>
      </trkpt>
      <trkpt lat="47.38656" lon="5.00668">
        <ele>362.39999389648</ele>
        <time>2014-08-12T07:50:44.000Z</time>
      </trkpt>
      <trkpt lat="47.38647" lon="5.00655">
        <ele>363</ele>
        <time>2014-08-12T07:50:50.000Z</time>
      </trkpt>
      <trkpt lat="47.3864" lon="5.00644">
        <ele>363.60000610352</ele>
        <time>2014-08-12T07:50:55.000Z</time>
      </trkpt>
      <trkpt lat="47.38635" lon="5.00635">
        <ele>364</ele>
        <time>2014-08-12T07:51:01.000Z</time>
      </trkpt>
      <trkpt lat="47.38629" lon="5.00628">
        <ele>364.39999389648</ele>
        <time>2014-08-12T07:51:06.000Z</time>
      </trkpt>
      <trkpt lat="47.38622" lon="5.00618">
        <ele>364.79998779297</ele>
        <time>2014-08-12T07:51:10.000Z</time>
      </trkpt>
      <trkpt lat="47.38616" lon="5.00613">
        <ele>365.20001220703</ele>
        <time>2014-08-12T07:51:14.000Z</time>
      </trkpt>
      <trkpt lat="47.38615" lon="5.00612">
        <ele>365.20001220703</ele>
        <time>2014-08-12T07:51:15.000Z</time>
      </trkpt>
      <trkpt lat="47.38614" lon="5.00608">
        <ele>365.39999389648</ele>
        <time>2014-08-12T07:51:16.000Z</time>
      </trkpt>
      <trkpt lat="47.3861" lon="5.006">
        <ele>365.79998779297</ele>
        <time>2014-08-12T07:51:20.000Z</time>
      </trkpt>
      <trkpt lat="47.38605" lon="5.00592">
        <ele>366.20001220703</ele>
        <time>2014-08-12T07:51:25.000Z</time>
      </trkpt>
      <trkpt lat="47.386" lon="5.00583">
        <ele>366.79998779297</ele>
        <time>2014-08-12T07:51:30.000Z</time>
      </trkpt>
      <trkpt lat="47.38599" lon="5.00581">
        <ele>366.79998779297</ele>
        <time>2014-08-12T07:51:31.000Z</time>
      </trkpt>
      <trkpt lat="47.3859" lon="5.0057">
        <ele>367.39999389648</ele>
        <time>2014-08-12T07:51:35.000Z</time>
      </trkpt>
      <trkpt lat="47.38586" lon="5.0056">
        <ele>368</ele>
        <time>2014-08-12T07:51:39.000Z</time>
      </trkpt>
      <trkpt lat="47.38585" lon="5.00558">
        <ele>368</ele>
        <time>2014-08-12T07:51:40.000Z</time>
      </trkpt>
      <trkpt lat="47.3858" lon="5.00548">
        <ele>368.60000610352</ele>
        <time>2014-08-12T07:51:45.000Z</time>
      </trkpt>
      <trkpt lat="47.38575" lon="5.00541">
        <ele>368.79998779297</ele>
        <time>2014-08-12T07:51:49.000Z</time>
      </trkpt>
      <trkpt lat="47.38573" lon="5.00539">
        <ele>369</ele>
        <time>2014-08-12T07:51:50.000Z</time>
      </trkpt>
      <trkpt lat="47.38567" lon="5.00531">
        <ele>369</ele>
        <time>2014-08-12T07:51:55.000Z</time>
      </trkpt>
      <trkpt lat="47.38565" lon="5.00526">
        <ele>369.20001220703</ele>
        <time>2014-08-12T07:51:57.000Z</time>
      </trkpt>
      <trkpt lat="47.3856" lon="5.00519">
        <ele>369.20001220703</ele>
        <time>2014-08-12T07:52:00.000Z</time>
      </trkpt>
      <trkpt lat="47.38554" lon="5.00512">
        <ele>369.39999389648</ele>
        <time>2014-08-12T07:52:04.000Z</time>
      </trkpt>
      <trkpt lat="47.38547" lon="5.00502">
        <ele>369.60000610352</ele>
        <time>2014-08-12T07:52:10.000Z</time>
      </trkpt>
      <trkpt lat="47.38537" lon="5.00485">
        <ele>370.20001220703</ele>
        <time>2014-08-12T07:52:20.000Z</time>
      </trkpt>
      <trkpt lat="47.38532" lon="5.00477">
        <ele>370.39999389648</ele>
        <time>2014-08-12T07:52:25.000Z</time>
      </trkpt>
      <trkpt lat="47.38526" lon="5.00469">
        <ele>370.39999389648</ele>
        <time>2014-08-12T07:52:28.000Z</time>
      </trkpt>
      <trkpt lat="47.3852" lon="5.00462">
        <ele>370.60000610352</ele>
        <time>2014-08-12T07:52:32.000Z</time>
      </trkpt>
      <trkpt lat="47.38519" lon="5.00459">
        <ele>370.79998779297</ele>
        <time>2014-08-12T07:52:33.000Z</time>
      </trkpt>
      <trkpt lat="47.38517" lon="5.00455">
        <ele>370.79998779297</ele>
        <time>2014-08-12T07:52:38.000Z</time>
      </trkpt>
      <trkpt lat="47.38515" lon="5.00456">
        <ele>370.60000610352</ele>
        <time>2014-08-12T07:52:52.000Z</time>
      </trkpt>
      <trkpt lat="47.38514" lon="5.00451">
        <ele>370.79998779297</ele>
        <time>2014-08-12T07:52:57.000Z</time>
      </trkpt>
      <trkpt lat="47.38513" lon="5.00447">
        <ele>371</ele>
        <time>2014-08-12T07:53:00.000Z</time>
      </trkpt>
      <trkpt lat="47.3851" lon="5.00442">
        <ele>371</ele>
        <time>2014-08-12T07:53:03.000Z</time>
      </trkpt>
      <trkpt lat="47.38505" lon="5.00437">
        <ele>371</ele>
        <time>2014-08-12T07:53:08.000Z</time>
      </trkpt>
      <trkpt lat="47.38501" lon="5.00431">
        <ele>371</ele>
        <time>2014-08-12T07:53:13.000Z</time>
      </trkpt>
      <trkpt lat="47.38499" lon="5.00428">
        <ele>371.20001220703</ele>
        <time>2014-08-12T07:53:15.000Z</time>
      </trkpt>
      <trkpt lat="47.38491" lon="5.00418">
        <ele>371.39999389648</ele>
        <time>2014-08-12T07:53:21.000Z</time>
      </trkpt>
      <trkpt lat="47.38486" lon="5.00412">
        <ele>371.60000610352</ele>
        <time>2014-08-12T07:53:25.000Z</time>
      </trkpt>
      <trkpt lat="47.38484" lon="5.00405">
        <ele>371.79998779297</ele>
        <time>2014-08-12T07:53:29.000Z</time>
      </trkpt>
      <trkpt lat="47.38481" lon="5.00399">
        <ele>372</ele>
        <time>2014-08-12T07:53:33.000Z</time>
      </trkpt>
      <trkpt lat="47.3848" lon="5.00397">
        <ele>372</ele>
        <time>2014-08-12T07:53:35.000Z</time>
      </trkpt>
      <trkpt lat="47.38477" lon="5.00391">
        <ele>372.20001220703</ele>
        <time>2014-08-12T07:53:39.000Z</time>
      </trkpt>
      <trkpt lat="47.38476" lon="5.00389">
        <ele>372.20001220703</ele>
        <time>2014-08-12T07:53:41.000Z</time>
      </trkpt>
      <trkpt lat="47.3847" lon="5.00382">
        <ele>372.39999389648</ele>
        <time>2014-08-12T07:53:46.000Z</time>
      </trkpt>
      <trkpt lat="47.38463" lon="5.00372">
        <ele>372.60000610352</ele>
        <time>2014-08-12T07:53:52.000Z</time>
      </trkpt>
      <trkpt lat="47.38458" lon="5.00366">
        <ele>372.79998779297</ele>
        <time>2014-08-12T07:53:57.000Z</time>
      </trkpt>
      <trkpt lat="47.38454" lon="5.00362">
        <ele>372.79998779297</ele>
        <time>2014-08-12T07:54:00.000Z</time>
      </trkpt>
      <trkpt lat="47.38452" lon="5.00358">
        <ele>372.79998779297</ele>
        <time>2014-08-12T07:54:02.000Z</time>
      </trkpt>
      <trkpt lat="47.38447" lon="5.00345">
        <ele>373</ele>
        <time>2014-08-12T07:54:09.000Z</time>
      </trkpt>
      <trkpt lat="47.38435" lon="5.00331">
        <ele>373.39999389648</ele>
        <time>2014-08-12T07:54:19.000Z</time>
      </trkpt>
      <trkpt lat="47.38428" lon="5.00321">
        <ele>373.39999389648</ele>
        <time>2014-08-12T07:54:25.000Z</time>
      </trkpt>
      <trkpt lat="47.38424" lon="5.00314">
        <ele>373.60000610352</ele>
        <time>2014-08-12T07:54:29.000Z</time>
      </trkpt>
      <trkpt lat="47.38418" lon="5.00303">
        <ele>373.79998779297</ele>
        <time>2014-08-12T07:54:36.000Z</time>
      </trkpt>
      <trkpt lat="47.38414" lon="5.00296">
        <ele>374</ele>
        <time>2014-08-12T07:54:40.000Z</time>
      </trkpt>
      <trkpt lat="47.38408" lon="5.00287">
        <ele>374.20001220703</ele>
        <time>2014-08-12T07:54:45.000Z</time>
      </trkpt>
      <trkpt lat="47.38403" lon="5.00278">
        <ele>374.79998779297</ele>
        <time>2014-08-12T07:54:50.000Z</time>
      </trkpt>
      <trkpt lat="47.38401" lon="5.00277">
        <ele>375</ele>
        <time>2014-08-12T07:54:51.000Z</time>
      </trkpt>
      <trkpt lat="47.38399" lon="5.00273">
        <ele>375</ele>
        <time>2014-08-12T07:54:53.000Z</time>
      </trkpt>
      <trkpt lat="47.38394" lon="5.00267">
        <ele>375.60000610352</ele>
        <time>2014-08-12T07:54:57.000Z</time>
      </trkpt>
      <trkpt lat="47.38391" lon="5.0026">
        <ele>376</ele>
        <time>2014-08-12T07:55:00.000Z</time>
      </trkpt>
      <trkpt lat="47.38388" lon="5.00255">
        <ele>376.20001220703</ele>
        <time>2014-08-12T07:55:03.000Z</time>
      </trkpt>
      <trkpt lat="47.38383" lon="5.00248">
        <ele>376.60000610352</ele>
        <time>2014-08-12T07:55:08.000Z</time>
      </trkpt>
      <trkpt lat="47.38377" lon="5.00238">
        <ele>377.20001220703</ele>
        <time>2014-08-12T07:55:14.000Z</time>
      </trkpt>
      <trkpt lat="47.38376" lon="5.00236">
        <ele>377.39999389648</ele>
        <time>2014-08-12T07:55:15.000Z</time>
      </trkpt>
      <trkpt lat="47.38373" lon="5.00232">
        <ele>377.60000610352</ele>
        <time>2014-08-12T07:55:18.000Z</time>
      </trkpt>
      <trkpt lat="47.3837" lon="5.00226">
        <ele>378</ele>
        <time>2014-08-12T07:55:22.000Z</time>
      </trkpt>
      <trkpt lat="47.38364" lon="5.00218">
        <ele>378.39999389648</ele>
        <time>2014-08-12T07:55:27.000Z</time>
      </trkpt>
      <trkpt lat="47.38359" lon="5.0021">
        <ele>379</ele>
        <time>2014-08-12T07:55:31.000Z</time>
      </trkpt>
      <trkpt lat="47.38356" lon="5.00203">
        <ele>379.20001220703</ele>
        <time>2014-08-12T07:55:36.000Z</time>
      </trkpt>
      <trkpt lat="47.38352" lon="5.00195">
        <ele>379.39999389648</ele>
        <time>2014-08-12T07:55:41.000Z</time>
      </trkpt>
      <trkpt lat="47.38349" lon="5.00191">
        <ele>379.60000610352</ele>
        <time>2014-08-12T07:55:43.000Z</time>
      </trkpt>
      <trkpt lat="47.38344" lon="5.00184">
        <ele>379.79998779297</ele>
        <time>2014-08-12T07:55:47.000Z</time>
      </trkpt>
      <trkpt lat="47.38338" lon="5.00175">
        <ele>380.20001220703</ele>
        <time>2014-08-12T07:55:52.000Z</time>
      </trkpt>
      <trkpt lat="47.38336" lon="5.00173">
        <ele>380.20001220703</ele>
        <time>2014-08-12T07:55:53.000Z</time>
      </trkpt>
      <trkpt lat="47.38333" lon="5.00169">
        <ele>380.39999389648</ele>
        <time>2014-08-12T07:55:55.000Z</time>
      </trkpt>
      <trkpt lat="47.38331" lon="5.00164">
        <ele>380.60000610352</ele>
        <time>2014-08-12T07:55:58.000Z</time>
      </trkpt>
      <trkpt lat="47.38325" lon="5.00153">
        <ele>381</ele>
        <time>2014-08-12T07:56:04.000Z</time>
      </trkpt>
      <trkpt lat="47.3832" lon="5.00148">
        <ele>381</ele>
        <time>2014-08-12T07:56:08.000Z</time>
      </trkpt>
      <trkpt lat="47.38313" lon="5.00143">
        <ele>381.20001220703</ele>
        <time>2014-08-12T07:56:12.000Z</time>
      </trkpt>
      <trkpt lat="47.3831" lon="5.00139">
        <ele>381.20001220703</ele>
        <time>2014-08-12T07:56:15.000Z</time>
      </trkpt>
      <trkpt lat="47.38304" lon="5.0013">
        <ele>381.60000610352</ele>
        <time>2014-08-12T07:56:20.000Z</time>
      </trkpt>
      <trkpt lat="47.38299" lon="5.00123">
        <ele>381.60000610352</ele>
        <time>2014-08-12T07:56:24.000Z</time>
      </trkpt>
      <trkpt lat="47.38299" lon="5.00121">
        <ele>381.79998779297</ele>
        <time>2014-08-12T07:56:25.000Z</time>
      </trkpt>
      <trkpt lat="47.38296" lon="5.00117">
        <ele>381.79998779297</ele>
        <time>2014-08-12T07:56:26.000Z</time>
      </trkpt>
      <trkpt lat="47.38291" lon="5.0011">
        <ele>382</ele>
        <time>2014-08-12T07:56:31.000Z</time>
      </trkpt>
      <trkpt lat="47.38289" lon="5.00106">
        <ele>382.20001220703</ele>
        <time>2014-08-12T07:56:33.000Z</time>
      </trkpt>
      <trkpt lat="47.38287" lon="5.00103">
        <ele>382.20001220703</ele>
        <time>2014-08-12T07:56:35.000Z</time>
      </trkpt>
      <trkpt lat="47.38284" lon="5.00098">
        <ele>382.39999389648</ele>
        <time>2014-08-12T07:56:38.000Z</time>
      </trkpt>
      <trkpt lat="47.38282" lon="5.00093">
        <ele>382.60000610352</ele>
        <time>2014-08-12T07:56:40.000Z</time>
      </trkpt>
      <trkpt lat="47.3828" lon="5.00088">
        <ele>382.79998779297</ele>
        <time>2014-08-12T07:56:44.000Z</time>
      </trkpt>
      <trkpt lat="47.38278" lon="5.00085">
        <ele>382.79998779297</ele>
        <time>2014-08-12T07:56:46.000Z</time>
      </trkpt>
      <trkpt lat="47.38277" lon="5.00083">
        <ele>382.79998779297</ele>
        <time>2014-08-12T07:56:48.000Z</time>
      </trkpt>
      <trkpt lat="47.38274" lon="5.00073">
        <ele>383.20001220703</ele>
        <time>2014-08-12T07:56:54.000Z</time>
      </trkpt>
      <trkpt lat="47.38273" lon="5.00071">
        <ele>383.20001220703</ele>
        <time>2014-08-12T07:56:55.000Z</time>
      </trkpt>
      <trkpt lat="47.38269" lon="5.00064">
        <ele>383.39999389648</ele>
        <time>2014-08-12T07:56:59.000Z</time>
      </trkpt>
      <trkpt lat="47.38267" lon="5.00059">
        <ele>383.60000610352</ele>
        <time>2014-08-12T07:57:03.000Z</time>
      </trkpt>
      <trkpt lat="47.38264" lon="5.00056">
        <ele>383.60000610352</ele>
        <time>2014-08-12T07:57:06.000Z</time>
      </trkpt>
      <trkpt lat="47.38259" lon="5.00044">
        <ele>384</ele>
        <time>2014-08-12T07:57:11.000Z</time>
      </trkpt>
      <trkpt lat="47.38256" lon="5.0004">
        <ele>392</ele>
        <time>2014-08-12T07:57:14.000Z</time>
      </trkpt>
      <trkpt lat="47.38253" lon="5.00037">
        <ele>392</ele>
        <time>2014-08-12T07:57:16.000Z</time>
      </trkpt>
      <trkpt lat="47.38244" lon="5.00028">
        <ele>393</ele>
        <time>2014-08-12T07:57:21.000Z</time>
      </trkpt>
      <trkpt lat="47.3824" lon="5.00022">
        <ele>393</ele>
        <time>2014-08-12T07:57:26.000Z</time>
      </trkpt>
      <trkpt lat="47.38239" lon="5.00021">
        <ele>393</ele>
        <time>2014-08-12T07:57:27.000Z</time>
      </trkpt>
      <trkpt lat="47.38235" lon="5.00014">
        <ele>393</ele>
        <time>2014-08-12T07:57:30.000Z</time>
      </trkpt>
      <trkpt lat="47.38229" lon="5.00005">
        <ele>393</ele>
        <time>2014-08-12T07:57:35.000Z</time>
      </trkpt>
      <trkpt lat="47.38223" lon="4.99994">
        <ele>393</ele>
        <time>2014-08-12T07:57:41.000Z</time>
      </trkpt>
      <trkpt lat="47.38219" lon="4.99987">
        <ele>393</ele>
        <time>2014-08-12T07:57:45.000Z</time>
      </trkpt>
      <trkpt lat="47.38218" lon="4.99985">
        <ele>393</ele>
        <time>2014-08-12T07:57:46.000Z</time>
      </trkpt>
      <trkpt lat="47.38215" lon="4.99982">
        <ele>393</ele>
        <time>2014-08-12T07:57:48.000Z</time>
      </trkpt>
      <trkpt lat="47.38211" lon="4.99975">
        <ele>393</ele>
        <time>2014-08-12T07:57:52.000Z</time>
      </trkpt>
      <trkpt lat="47.38207" lon="4.99971">
        <ele>393</ele>
        <time>2014-08-12T07:57:56.000Z</time>
      </trkpt>
      <trkpt lat="47.38202" lon="4.99964">
        <ele>393</ele>
        <time>2014-08-12T07:58:00.000Z</time>
      </trkpt>
      <trkpt lat="47.38201" lon="4.99962">
        <ele>393</ele>
        <time>2014-08-12T07:58:01.000Z</time>
      </trkpt>
      <trkpt lat="47.382" lon="4.9996">
        <ele>393</ele>
        <time>2014-08-12T07:58:03.000Z</time>
      </trkpt>
      <trkpt lat="47.38194" lon="4.9995">
        <ele>393.20001220703</ele>
        <time>2014-08-12T07:58:09.000Z</time>
      </trkpt>
      <trkpt lat="47.3819" lon="4.99942">
        <ele>393.39999389648</ele>
        <time>2014-08-12T07:58:13.000Z</time>
      </trkpt>
      <trkpt lat="47.38188" lon="4.9994">
        <ele>393.39999389648</ele>
        <time>2014-08-12T07:58:14.000Z</time>
      </trkpt>
      <trkpt lat="47.38184" lon="4.99937">
        <ele>393.60000610352</ele>
        <time>2014-08-12T07:58:16.000Z</time>
      </trkpt>
      <trkpt lat="47.38177" lon="4.99925">
        <ele>393.79998779297</ele>
        <time>2014-08-12T07:58:22.000Z</time>
      </trkpt>
      <trkpt lat="47.38176" lon="4.99922">
        <ele>393.79998779297</ele>
        <time>2014-08-12T07:58:24.000Z</time>
      </trkpt>
      <trkpt lat="47.38174" lon="4.99919">
        <ele>394</ele>
        <time>2014-08-12T07:58:26.000Z</time>
      </trkpt>
      <trkpt lat="47.38168" lon="4.99912">
        <ele>394.20001220703</ele>
        <time>2014-08-12T07:58:32.000Z</time>
      </trkpt>
      <trkpt lat="47.38167" lon="4.99911">
        <ele>394.20001220703</ele>
        <time>2014-08-12T07:58:33.000Z</time>
      </trkpt>
      <trkpt lat="47.3816" lon="4.999">
        <ele>394.39999389648</ele>
        <time>2014-08-12T07:58:39.000Z</time>
      </trkpt>
      <trkpt lat="47.38159" lon="4.99898">
        <ele>394.39999389648</ele>
        <time>2014-08-12T07:58:40.000Z</time>
      </trkpt>
      <trkpt lat="47.38152" lon="4.99888">
        <ele>394.39999389648</ele>
        <time>2014-08-12T07:58:46.000Z</time>
      </trkpt>
      <trkpt lat="47.38151" lon="4.99887">
        <ele>394.39999389648</ele>
        <time>2014-08-12T07:58:47.000Z</time>
      </trkpt>
      <trkpt lat="47.38149" lon="4.99885">
        <ele>394.39999389648</ele>
        <time>2014-08-12T07:58:48.000Z</time>
      </trkpt>
      <trkpt lat="47.38144" lon="4.99874">
        <ele>394.60000610352</ele>
        <time>2014-08-12T07:58:53.000Z</time>
      </trkpt>
      <trkpt lat="47.38145" lon="4.9987">
        <ele>394.79998779297</ele>
        <time>2014-08-12T07:58:56.000Z</time>
      </trkpt>
      <trkpt lat="47.38142" lon="4.99861">
        <ele>395.20001220703</ele>
        <time>2014-08-12T07:59:00.000Z</time>
      </trkpt>
      <trkpt lat="47.38139" lon="4.99858">
        <ele>395.20001220703</ele>
        <time>2014-08-12T07:59:02.000Z</time>
      </trkpt>
      <trkpt lat="47.38135" lon="4.99856">
        <ele>395.20001220703</ele>
        <time>2014-08-12T07:59:04.000Z</time>
      </trkpt>
      <trkpt lat="47.38126" lon="4.99856">
        <ele>395</ele>
        <time>2014-08-12T07:59:11.000Z</time>
      </trkpt>
      <trkpt lat="47.38115" lon="4.99855">
        <ele>394.79998779297</ele>
        <time>2014-08-12T07:59:17.000Z</time>
      </trkpt>
      <trkpt lat="47.38114" lon="4.99855">
        <ele>394.79998779297</ele>
        <time>2014-08-12T07:59:18.000Z</time>
      </trkpt>
      <trkpt lat="47.38102" lon="4.99859">
        <ele>394.20001220703</ele>
        <time>2014-08-12T07:59:25.000Z</time>
      </trkpt>
      <trkpt lat="47.38095" lon="4.99863">
        <ele>393.79998779297</ele>
        <time>2014-08-12T07:59:30.000Z</time>
      </trkpt>
      <trkpt lat="47.38086" lon="4.99869">
        <ele>393.39999389648</ele>
        <time>2014-08-12T07:59:36.000Z</time>
      </trkpt>
      <trkpt lat="47.38074" lon="4.99876">
        <ele>393</ele>
        <time>2014-08-12T07:59:44.000Z</time>
      </trkpt>
      <trkpt lat="47.38067" lon="4.99877">
        <ele>393.20001220703</ele>
        <time>2014-08-12T07:59:48.000Z</time>
      </trkpt>
      <trkpt lat="47.38056" lon="4.99878">
        <ele>393.20001220703</ele>
        <time>2014-08-12T07:59:54.000Z</time>
      </trkpt>
      <trkpt lat="47.38054" lon="4.99878">
        <ele>393.20001220703</ele>
        <time>2014-08-12T07:59:55.000Z</time>
      </trkpt>
      <trkpt lat="47.38049" lon="4.99879">
        <ele>393.20001220703</ele>
        <time>2014-08-12T07:59:58.000Z</time>
      </trkpt>
      <trkpt lat="47.38041" lon="4.99879">
        <ele>393.39999389648</ele>
        <time>2014-08-12T08:00:03.000Z</time>
      </trkpt>
      <trkpt lat="47.38027" lon="4.99879">
        <ele>393.60000610352</ele>
        <time>2014-08-12T08:00:11.000Z</time>
      </trkpt>
      <trkpt lat="47.38019" lon="4.99881">
        <ele>393.60000610352</ele>
        <time>2014-08-12T08:00:16.000Z</time>
      </trkpt>
      <trkpt lat="47.3801" lon="4.99879">
        <ele>393.79998779297</ele>
        <time>2014-08-12T08:00:21.000Z</time>
      </trkpt>
      <trkpt lat="47.38008" lon="4.9988">
        <ele>393.79998779297</ele>
        <time>2014-08-12T08:00:22.000Z</time>
      </trkpt>
      <trkpt lat="47.37999" lon="4.9988">
        <ele>393.79998779297</ele>
        <time>2014-08-12T08:00:28.000Z</time>
      </trkpt>
      <trkpt lat="47.37991" lon="4.9988">
        <ele>393.60000610352</ele>
        <time>2014-08-12T08:00:33.000Z</time>
      </trkpt>
      <trkpt lat="47.37987" lon="4.99879">
        <ele>393.39999389648</ele>
        <time>2014-08-12T08:00:35.000Z</time>
      </trkpt>
      <trkpt lat="47.37979" lon="4.99882">
        <ele>393</ele>
        <time>2014-08-12T08:00:41.000Z</time>
      </trkpt>
      <trkpt lat="47.37978" lon="4.99882">
        <ele>393</ele>
        <time>2014-08-12T08:00:42.000Z</time>
      </trkpt>
      <trkpt lat="47.37969" lon="4.99884">
        <ele>392.60000610352</ele>
        <time>2014-08-12T08:00:48.000Z</time>
      </trkpt>
      <trkpt lat="47.37966" lon="4.99885">
        <ele>392.60000610352</ele>
        <time>2014-08-12T08:00:50.000Z</time>
      </trkpt>
      <trkpt lat="47.37957" lon="4.99884">
        <ele>392.20001220703</ele>
        <time>2014-08-12T08:00:55.000Z</time>
      </trkpt>
      <trkpt lat="47.37952" lon="4.99885">
        <ele>392</ele>
        <time>2014-08-12T08:00:59.000Z</time>
      </trkpt>
      <trkpt lat="47.3795" lon="4.99885">
        <ele>392</ele>
        <time>2014-08-12T08:01:00.000Z</time>
      </trkpt>
      <trkpt lat="47.37948" lon="4.99885">
        <ele>391.79998779297</ele>
        <time>2014-08-12T08:01:01.000Z</time>
      </trkpt>
      <trkpt lat="47.37938" lon="4.99885">
        <ele>391.60000610352</ele>
        <time>2014-08-12T08:01:07.000Z</time>
      </trkpt>
      <trkpt lat="47.37937" lon="4.99885">
        <ele>391.39999389648</ele>
        <time>2014-08-12T08:01:08.000Z</time>
      </trkpt>
      <trkpt lat="47.37929" lon="4.99887">
        <ele>391</ele>
        <time>2014-08-12T08:01:14.000Z</time>
      </trkpt>
      <trkpt lat="47.3792" lon="4.99885">
        <ele>391</ele>
        <time>2014-08-12T08:01:21.000Z</time>
      </trkpt>
      <trkpt lat="47.37907" lon="4.99884">
        <ele>391</ele>
        <time>2014-08-12T08:01:27.000Z</time>
      </trkpt>
      <trkpt lat="47.37895" lon="4.99884">
        <ele>391</ele>
        <time>2014-08-12T08:01:33.000Z</time>
      </trkpt>
      <trkpt lat="47.37885" lon="4.99881">
        <ele>391</ele>
        <time>2014-08-12T08:01:39.000Z</time>
      </trkpt>
      <trkpt lat="47.37877" lon="4.99881">
        <ele>391</ele>
        <time>2014-08-12T08:01:44.000Z</time>
      </trkpt>
      <trkpt lat="47.37867" lon="4.99877">
        <ele>391</ele>
        <time>2014-08-12T08:01:51.000Z</time>
      </trkpt>
      <trkpt lat="47.37855" lon="4.99871">
        <ele>391</ele>
        <time>2014-08-12T08:01:59.000Z</time>
      </trkpt>
      <trkpt lat="47.37846" lon="4.99868">
        <ele>391</ele>
        <time>2014-08-12T08:02:06.000Z</time>
      </trkpt>
      <trkpt lat="47.37843" lon="4.99868">
        <ele>391</ele>
        <time>2014-08-12T08:02:08.000Z</time>
      </trkpt>
      <trkpt lat="47.37841" lon="4.9987">
        <ele>391</ele>
        <time>2014-08-12T08:02:15.000Z</time>
      </trkpt>
      <trkpt lat="47.37836" lon="4.99876">
        <ele>391</ele>
        <time>2014-08-12T08:02:21.000Z</time>
      </trkpt>
      <trkpt lat="47.37834" lon="4.99879">
        <ele>391</ele>
        <time>2014-08-12T08:02:24.000Z</time>
      </trkpt>
      <trkpt lat="47.37829" lon="4.99885">
        <ele>391.20001220703</ele>
        <time>2014-08-12T08:02:31.000Z</time>
      </trkpt>
      <trkpt lat="47.37825" lon="4.99889">
        <ele>391.20001220703</ele>
        <time>2014-08-12T08:02:36.000Z</time>
      </trkpt>
      <trkpt lat="47.37825" lon="4.99889">
        <ele>391.20001220703</ele>
        <time>2014-08-12T08:02:41.000Z</time>
      </trkpt>
      <trkpt lat="47.37828" lon="4.99883">
        <ele>391</ele>
        <time>2014-08-12T08:02:46.000Z</time>
      </trkpt>
      <trkpt lat="47.37827" lon="4.99879">
        <ele>391</ele>
        <time>2014-08-12T08:02:52.000Z</time>
      </trkpt>
      <trkpt lat="47.37831" lon="4.99882">
        <ele>391</ele>
        <time>2014-08-12T08:03:13.000Z</time>
      </trkpt>
      <trkpt lat="47.37832" lon="4.99888">
        <ele>391.20001220703</ele>
        <time>2014-08-12T08:03:19.000Z</time>
      </trkpt>
      <trkpt lat="47.37832" lon="4.99889">
        <ele>391.20001220703</ele>
        <time>2014-08-12T08:03:20.000Z</time>
      </trkpt>
      <trkpt lat="47.37827" lon="4.99893">
        <ele>391.20001220703</ele>
        <time>2014-08-12T08:03:28.000Z</time>
      </trkpt>
      <trkpt lat="47.37827" lon="4.99892">
        <ele>391.20001220703</ele>
        <time>2014-08-12T08:03:39.000Z</time>
      </trkpt>
      <trkpt lat="47.37826" lon="4.99895">
        <ele>391.20001220703</ele>
        <time>2014-08-12T08:04:03.000Z</time>
      </trkpt>
      <trkpt lat="47.37827" lon="4.99895">
        <ele>391.20001220703</ele>
        <time>2014-08-12T08:04:17.000Z</time>
      </trkpt>
      <trkpt lat="47.37824" lon="4.99897">
        <ele>391.20001220703</ele>
        <time>2014-08-12T08:04:23.000Z</time>
      </trkpt>
      <trkpt lat="47.37815" lon="4.99899">
        <ele>391.20001220703</ele>
        <time>2014-08-12T08:05:09.000Z</time>
      </trkpt>
      <trkpt lat="47.37809" lon="4.99904">
        <ele>391.39999389648</ele>
        <time>2014-08-12T08:05:18.000Z</time>
      </trkpt>
      <trkpt lat="47.37805" lon="4.99909">
        <ele>391.39999389648</ele>
        <time>2014-08-12T08:05:22.000Z</time>
      </trkpt>
      <trkpt lat="47.37801" lon="4.99917">
        <ele>391.60000610352</ele>
        <time>2014-08-12T08:05:28.000Z</time>
      </trkpt>
      <trkpt lat="47.37799" lon="4.99921">
        <ele>391.60000610352</ele>
        <time>2014-08-12T08:05:31.000Z</time>
      </trkpt>
      <trkpt lat="47.37798" lon="4.99924">
        <ele>391.60000610352</ele>
        <time>2014-08-12T08:05:33.000Z</time>
      </trkpt>
      <trkpt lat="47.37797" lon="4.99926">
        <ele>391.60000610352</ele>
        <time>2014-08-12T08:05:34.000Z</time>
      </trkpt>
      <trkpt lat="47.37793" lon="4.9994">
        <ele>390.79998779297</ele>
        <time>2014-08-12T08:05:41.000Z</time>
      </trkpt>
      <trkpt lat="47.37793" lon="4.99955">
        <ele>390.20001220703</ele>
        <time>2014-08-12T08:05:48.000Z</time>
      </trkpt>
      <trkpt lat="47.3779" lon="4.99962">
        <ele>390</ele>
        <time>2014-08-12T08:05:52.000Z</time>
      </trkpt>
      <trkpt lat="47.37787" lon="4.99969">
        <ele>389.60000610352</ele>
        <time>2014-08-12T08:05:56.000Z</time>
      </trkpt>
      <trkpt lat="47.37785" lon="4.99981">
        <ele>389.20001220703</ele>
        <time>2014-08-12T08:06:02.000Z</time>
      </trkpt>
      <trkpt lat="47.37782" lon="4.99989">
        <ele>389</ele>
        <time>2014-08-12T08:06:06.000Z</time>
      </trkpt>
      <trkpt lat="47.3778" lon="4.99998">
        <ele>389</ele>
        <time>2014-08-12T08:06:10.000Z</time>
      </trkpt>
      <trkpt lat="47.3778" lon="5">
        <ele>389</ele>
        <time>2014-08-12T08:06:11.000Z</time>
      </trkpt>
      <trkpt lat="47.37777" lon="5.00007">
        <ele>389.20001220703</ele>
        <time>2014-08-12T08:06:15.000Z</time>
      </trkpt>
      <trkpt lat="47.37771" lon="5.00022">
        <ele>389.60000610352</ele>
        <time>2014-08-12T08:06:21.000Z</time>
      </trkpt>
      <trkpt lat="47.37769" lon="5.00029">
        <ele>389.60000610352</ele>
        <time>2014-08-12T08:06:24.000Z</time>
      </trkpt>
      <trkpt lat="47.37769" lon="5.00031">
        <ele>389.79998779297</ele>
        <time>2014-08-12T08:06:25.000Z</time>
      </trkpt>
      <trkpt lat="47.37769" lon="5.00041">
        <ele>390</ele>
        <time>2014-08-12T08:06:29.000Z</time>
      </trkpt>
      <trkpt lat="47.37771" lon="5.00048">
        <ele>382.79998779297</ele>
        <time>2014-08-12T08:06:32.000Z</time>
      </trkpt>
      <trkpt lat="47.37769" lon="5.00053">
        <ele>382.60000610352</ele>
        <time>2014-08-12T08:06:34.000Z</time>
      </trkpt>
      <trkpt lat="47.3777" lon="5.00064">
        <ele>382.20001220703</ele>
        <time>2014-08-12T08:06:39.000Z</time>
      </trkpt>
      <trkpt lat="47.37769" lon="5.00066">
        <ele>382.20001220703</ele>
        <time>2014-08-12T08:06:40.000Z</time>
      </trkpt>
      <trkpt lat="47.37769" lon="5.00071">
        <ele>381.79998779297</ele>
        <time>2014-08-12T08:06:42.000Z</time>
      </trkpt>
      <trkpt lat="47.37767" lon="5.00077">
        <ele>381.39999389648</ele>
        <time>2014-08-12T08:06:45.000Z</time>
      </trkpt>
      <trkpt lat="47.37765" lon="5.00086">
        <ele>380.79998779297</ele>
        <time>2014-08-12T08:06:49.000Z</time>
      </trkpt>
      <trkpt lat="47.37763" lon="5.00104">
        <ele>380</ele>
        <time>2014-08-12T08:06:56.000Z</time>
      </trkpt>
      <trkpt lat="47.37763" lon="5.00116">
        <ele>379.39999389648</ele>
        <time>2014-08-12T08:07:01.000Z</time>
      </trkpt>
      <trkpt lat="47.37762" lon="5.00127">
        <ele>378.79998779297</ele>
        <time>2014-08-12T08:07:06.000Z</time>
      </trkpt>
      <trkpt lat="47.37761" lon="5.0013">
        <ele>378.60000610352</ele>
        <time>2014-08-12T08:07:07.000Z</time>
      </trkpt>
      <trkpt lat="47.3776" lon="5.00134">
        <ele>378.39999389648</ele>
        <time>2014-08-12T08:07:09.000Z</time>
      </trkpt>
      <trkpt lat="47.37759" lon="5.00145">
        <ele>378</ele>
        <time>2014-08-12T08:07:14.000Z</time>
      </trkpt>
      <trkpt lat="47.37759" lon="5.00147">
        <ele>377.79998779297</ele>
        <time>2014-08-12T08:07:15.000Z</time>
      </trkpt>
      <trkpt lat="47.37757" lon="5.00166">
        <ele>377</ele>
        <time>2014-08-12T08:07:23.000Z</time>
      </trkpt>
      <trkpt lat="47.37756" lon="5.00181">
        <ele>376.39999389648</ele>
        <time>2014-08-12T08:07:29.000Z</time>
      </trkpt>
      <trkpt lat="47.37756" lon="5.00183">
        <ele>376.39999389648</ele>
        <time>2014-08-12T08:07:30.000Z</time>
      </trkpt>
      <trkpt lat="47.37755" lon="5.0019">
        <ele>376</ele>
        <time>2014-08-12T08:07:33.000Z</time>
      </trkpt>
      <trkpt lat="47.37754" lon="5.00202">
        <ele>375.60000610352</ele>
        <time>2014-08-12T08:07:39.000Z</time>
      </trkpt>
      <trkpt lat="47.37753" lon="5.00214">
        <ele>375.20001220703</ele>
        <time>2014-08-12T08:07:44.000Z</time>
      </trkpt>
      <trkpt lat="47.37753" lon="5.00218">
        <ele>375</ele>
        <time>2014-08-12T08:07:46.000Z</time>
      </trkpt>
      <trkpt lat="47.37753" lon="5.00222">
        <ele>374.79998779297</ele>
        <time>2014-08-12T08:07:48.000Z</time>
      </trkpt>
      <trkpt lat="47.37752" lon="5.00228">
        <ele>374.79998779297</ele>
        <time>2014-08-12T08:07:51.000Z</time>
      </trkpt>
      <trkpt lat="47.37752" lon="5.00246">
        <ele>374.20001220703</ele>
        <time>2014-08-12T08:08:00.000Z</time>
      </trkpt>
      <trkpt lat="47.37755" lon="5.00256">
        <ele>374.20001220703</ele>
        <time>2014-08-12T08:08:04.000Z</time>
      </trkpt>
      <trkpt lat="47.37755" lon="5.00258">
        <ele>374.20001220703</ele>
        <time>2014-08-12T08:08:05.000Z</time>
      </trkpt>
      <trkpt lat="47.37753" lon="5.00269">
        <ele>373.79998779297</ele>
        <time>2014-08-12T08:08:09.000Z</time>
      </trkpt>
      <trkpt lat="47.3775" lon="5.00274">
        <ele>373.60000610352</ele>
        <time>2014-08-12T08:08:11.000Z</time>
      </trkpt>
      <trkpt lat="47.37745" lon="5.00288">
        <ele>373</ele>
        <time>2014-08-12T08:08:17.000Z</time>
      </trkpt>
      <trkpt lat="47.37743" lon="5.00292">
        <ele>372.79998779297</ele>
        <time>2014-08-12T08:08:19.000Z</time>
      </trkpt>
      <trkpt lat="47.37739" lon="5.00302">
        <ele>372</ele>
        <time>2014-08-12T08:08:24.000Z</time>
      </trkpt>
      <trkpt lat="47.37738" lon="5.00306">
        <ele>371.79998779297</ele>
        <time>2014-08-12T08:08:26.000Z</time>
      </trkpt>
      <trkpt lat="47.37737" lon="5.00319">
        <ele>370.79998779297</ele>
        <time>2014-08-12T08:08:34.000Z</time>
      </trkpt>
      <trkpt lat="47.37737" lon="5.00326">
        <ele>370.20001220703</ele>
        <time>2014-08-12T08:08:39.000Z</time>
      </trkpt>
      <trkpt lat="47.37736" lon="5.0033">
        <ele>370</ele>
        <time>2014-08-12T08:08:41.000Z</time>
      </trkpt>
      <trkpt lat="47.37736" lon="5.00334">
        <ele>369.60000610352</ele>
        <time>2014-08-12T08:08:43.000Z</time>
      </trkpt>
      <trkpt lat="47.37736" lon="5.00339">
        <ele>369.39999389648</ele>
        <time>2014-08-12T08:08:45.000Z</time>
      </trkpt>
      <trkpt lat="47.37736" lon="5.00349">
        <ele>368.60000610352</ele>
        <time>2014-08-12T08:08:50.000Z</time>
      </trkpt>
      <trkpt lat="47.37739" lon="5.00358">
        <ele>368</ele>
        <time>2014-08-12T08:08:55.000Z</time>
      </trkpt>
      <trkpt lat="47.37741" lon="5.00362">
        <ele>367.79998779297</ele>
        <time>2014-08-12T08:08:57.000Z</time>
      </trkpt>
      <trkpt lat="47.37747" lon="5.00375">
        <ele>367</ele>
        <time>2014-08-12T08:09:04.000Z</time>
      </trkpt>
      <trkpt lat="47.37751" lon="5.00384">
        <ele>366.20001220703</ele>
        <time>2014-08-12T08:09:09.000Z</time>
      </trkpt>
      <trkpt lat="47.3776" lon="5.00398">
        <ele>365.20001220703</ele>
        <time>2014-08-12T08:09:17.000Z</time>
      </trkpt>
      <trkpt lat="47.37768" lon="5.00417">
        <ele>363.79998779297</ele>
        <time>2014-08-12T08:09:25.000Z</time>
      </trkpt>
      <trkpt lat="47.37769" lon="5.00439">
        <ele>361.79998779297</ele>
        <time>2014-08-12T08:09:33.000Z</time>
      </trkpt>
      <trkpt lat="47.37768" lon="5.0046">
        <ele>360.20001220703</ele>
        <time>2014-08-12T08:09:41.000Z</time>
      </trkpt>
      <trkpt lat="47.37766" lon="5.00474">
        <ele>359.39999389648</ele>
        <time>2014-08-12T08:09:47.000Z</time>
      </trkpt>
      <trkpt lat="47.37766" lon="5.00495">
        <ele>358.60000610352</ele>
        <time>2014-08-12T08:09:55.000Z</time>
      </trkpt>
      <trkpt lat="47.37764" lon="5.00518">
        <ele>357.79998779297</ele>
        <time>2014-08-12T08:10:04.000Z</time>
      </trkpt>
      <trkpt lat="47.37763" lon="5.00533">
        <ele>357.39999389648</ele>
        <time>2014-08-12T08:10:10.000Z</time>
      </trkpt>
      <trkpt lat="47.37761" lon="5.00557">
        <ele>356.20001220703</ele>
        <time>2014-08-12T08:10:19.000Z</time>
      </trkpt>
      <trkpt lat="47.37761" lon="5.00574">
        <ele>355.20001220703</ele>
        <time>2014-08-12T08:10:26.000Z</time>
      </trkpt>
      <trkpt lat="47.37759" lon="5.00591">
        <ele>354.39999389648</ele>
        <time>2014-08-12T08:10:33.000Z</time>
      </trkpt>
      <trkpt lat="47.37758" lon="5.00603">
        <ele>354</ele>
        <time>2014-08-12T08:10:38.000Z</time>
      </trkpt>
      <trkpt lat="47.37756" lon="5.00615">
        <ele>353.39999389648</ele>
        <time>2014-08-12T08:10:44.000Z</time>
      </trkpt>
      <trkpt lat="47.37751" lon="5.00633">
        <ele>352.60000610352</ele>
        <time>2014-08-12T08:10:52.000Z</time>
      </trkpt>
      <trkpt lat="47.37742" lon="5.00645">
        <ele>352.39999389648</ele>
        <time>2014-08-12T08:11:00.000Z</time>
      </trkpt>
      <trkpt lat="47.37732" lon="5.00658">
        <ele>352</ele>
        <time>2014-08-12T08:11:09.000Z</time>
      </trkpt>
      <trkpt lat="47.37724" lon="5.00669">
        <ele>351.79998779297</ele>
        <time>2014-08-12T08:11:16.000Z</time>
      </trkpt>
      <trkpt lat="47.37717" lon="5.00676">
        <ele>351.60000610352</ele>
        <time>2014-08-12T08:11:22.000Z</time>
      </trkpt>
      <trkpt lat="47.37705" lon="5.00687">
        <ele>351.60000610352</ele>
        <time>2014-08-12T08:11:31.000Z</time>
      </trkpt>
      <trkpt lat="47.37693" lon="5.00696">
        <ele>351.60000610352</ele>
        <time>2014-08-12T08:11:39.000Z</time>
      </trkpt>
      <trkpt lat="47.37685" lon="5.00706">
        <ele>351.60000610352</ele>
        <time>2014-08-12T08:11:46.000Z</time>
      </trkpt>
      <trkpt lat="47.37673" lon="5.00718">
        <ele>351.20001220703</ele>
        <time>2014-08-12T08:11:55.000Z</time>
      </trkpt>
      <trkpt lat="47.37665" lon="5.00727">
        <ele>350.79998779297</ele>
        <time>2014-08-12T08:12:02.000Z</time>
      </trkpt>
      <trkpt lat="47.37654" lon="5.00739">
        <ele>350.60000610352</ele>
        <time>2014-08-12T08:12:11.000Z</time>
      </trkpt>
      <trkpt lat="47.37643" lon="5.00752">
        <ele>350.39999389648</ele>
        <time>2014-08-12T08:12:20.000Z</time>
      </trkpt>
      <trkpt lat="47.37632" lon="5.00766">
        <ele>350</ele>
        <time>2014-08-12T08:12:29.000Z</time>
      </trkpt>
      <trkpt lat="47.37622" lon="5.00777">
        <ele>349.60000610352</ele>
        <time>2014-08-12T08:12:36.000Z</time>
      </trkpt>
      <trkpt lat="47.37612" lon="5.0079">
        <ele>349</ele>
        <time>2014-08-12T08:12:44.000Z</time>
      </trkpt>
      <trkpt lat="47.37601" lon="5.00805">
        <ele>348</ele>
        <time>2014-08-12T08:12:53.000Z</time>
      </trkpt>
      <trkpt lat="47.37596" lon="5.00815">
        <ele>347.60000610352</ele>
        <time>2014-08-12T08:12:59.000Z</time>
      </trkpt>
      <trkpt lat="47.3759" lon="5.00825">
        <ele>347.39999389648</ele>
        <time>2014-08-12T08:13:05.000Z</time>
      </trkpt>
      <trkpt lat="47.37585" lon="5.00835">
        <ele>347.20001220703</ele>
        <time>2014-08-12T08:13:11.000Z</time>
      </trkpt>
      <trkpt lat="47.37577" lon="5.00843">
        <ele>347</ele>
        <time>2014-08-12T08:13:17.000Z</time>
      </trkpt>
      <trkpt lat="47.37576" lon="5.00845">
        <ele>347</ele>
        <time>2014-08-12T08:13:18.000Z</time>
      </trkpt>
      <trkpt lat="47.37571" lon="5.0085">
        <ele>346.79998779297</ele>
        <time>2014-08-12T08:13:22.000Z</time>
      </trkpt>
      <trkpt lat="47.37567" lon="5.00856">
        <ele>346.39999389648</ele>
        <time>2014-08-12T08:13:26.000Z</time>
      </trkpt>
      <trkpt lat="47.37563" lon="5.00861">
        <ele>346.20001220703</ele>
        <time>2014-08-12T08:13:29.000Z</time>
      </trkpt>
      <trkpt lat="47.37558" lon="5.00866">
        <ele>346</ele>
        <time>2014-08-12T08:13:33.000Z</time>
      </trkpt>
      <trkpt lat="47.37556" lon="5.00869">
        <ele>346</ele>
        <time>2014-08-12T08:13:35.000Z</time>
      </trkpt>
      <trkpt lat="47.37551" lon="5.00877">
        <ele>345.60000610352</ele>
        <time>2014-08-12T08:13:40.000Z</time>
      </trkpt>
      <trkpt lat="47.37547" lon="5.00881">
        <ele>345.60000610352</ele>
        <time>2014-08-12T08:13:43.000Z</time>
      </trkpt>
      <trkpt lat="47.37544" lon="5.00883">
        <ele>345.60000610352</ele>
        <time>2014-08-12T08:13:45.000Z</time>
      </trkpt>
      <trkpt lat="47.37541" lon="5.00888">
        <ele>345.39999389648</ele>
        <time>2014-08-12T08:13:48.000Z</time>
      </trkpt>
      <trkpt lat="47.37538" lon="5.00891">
        <ele>345.20001220703</ele>
        <time>2014-08-12T08:13:50.000Z</time>
      </trkpt>
      <trkpt lat="47.37535" lon="5.00894">
        <ele>345.20001220703</ele>
        <time>2014-08-12T08:13:52.000Z</time>
      </trkpt>
      <trkpt lat="47.37529" lon="5.00901">
        <ele>345</ele>
        <time>2014-08-12T08:13:58.000Z</time>
      </trkpt>
      <trkpt lat="47.37525" lon="5.00904">
        <ele>345</ele>
        <time>2014-08-12T08:14:01.000Z</time>
      </trkpt>
      <trkpt lat="47.37518" lon="5.0091">
        <ele>345</ele>
        <time>2014-08-12T08:14:07.000Z</time>
      </trkpt>
      <trkpt lat="47.37511" lon="5.00915">
        <ele>345.20001220703</ele>
        <time>2014-08-12T08:14:11.000Z</time>
      </trkpt>
      <trkpt lat="47.37501" lon="5.00926">
        <ele>345</ele>
        <time>2014-08-12T08:14:18.000Z</time>
      </trkpt>
      <trkpt lat="47.37494" lon="5.00943">
        <ele>344.60000610352</ele>
        <time>2014-08-12T08:14:25.000Z</time>
      </trkpt>
      <trkpt lat="47.37489" lon="5.00957">
        <ele>344.39999389648</ele>
        <time>2014-08-12T08:14:31.000Z</time>
      </trkpt>
      <trkpt lat="47.37485" lon="5.00975">
        <ele>344.39999389648</ele>
        <time>2014-08-12T08:14:39.000Z</time>
      </trkpt>
      <trkpt lat="47.37485" lon="5.0099">
        <ele>344.39999389648</ele>
        <time>2014-08-12T08:14:45.000Z</time>
      </trkpt>
      <trkpt lat="47.37483" lon="5.00999">
        <ele>344.60000610352</ele>
        <time>2014-08-12T08:14:49.000Z</time>
      </trkpt>
      <trkpt lat="47.3748" lon="5.01012">
        <ele>344.60000610352</ele>
        <time>2014-08-12T08:14:54.000Z</time>
      </trkpt>
      <trkpt lat="47.37478" lon="5.01022">
        <ele>344.79998779297</ele>
        <time>2014-08-12T08:14:58.000Z</time>
      </trkpt>
      <trkpt lat="47.3748" lon="5.01035">
        <ele>344.60000610352</ele>
        <time>2014-08-12T08:15:03.000Z</time>
      </trkpt>
      <trkpt lat="47.37481" lon="5.01043">
        <ele>344.39999389648</ele>
        <time>2014-08-12T08:15:06.000Z</time>
      </trkpt>
      <trkpt lat="47.37477" lon="5.01062">
        <ele>344.60000610352</ele>
        <time>2014-08-12T08:15:14.000Z</time>
      </trkpt>
      <trkpt lat="47.37476" lon="5.01069">
        <ele>344.60000610352</ele>
        <time>2014-08-12T08:15:17.000Z</time>
      </trkpt>
      <trkpt lat="47.37475" lon="5.01081">
        <ele>344.60000610352</ele>
        <time>2014-08-12T08:15:22.000Z</time>
      </trkpt>
      <trkpt lat="47.37474" lon="5.01083">
        <ele>344.60000610352</ele>
        <time>2014-08-12T08:15:23.000Z</time>
      </trkpt>
      <trkpt lat="47.3747" lon="5.01088">
        <ele>344.60000610352</ele>
        <time>2014-08-12T08:15:26.000Z</time>
      </trkpt>
      <trkpt lat="47.37467" lon="5.01097">
        <ele>344.60000610352</ele>
        <time>2014-08-12T08:15:31.000Z</time>
      </trkpt>
      <trkpt lat="47.37465" lon="5.011">
        <ele>344.39999389648</ele>
        <time>2014-08-12T08:15:33.000Z</time>
      </trkpt>
      <trkpt lat="47.37461" lon="5.01105">
        <ele>344</ele>
        <time>2014-08-12T08:15:36.000Z</time>
      </trkpt>
      <trkpt lat="47.37453" lon="5.01116">
        <ele>343.39999389648</ele>
        <time>2014-08-12T08:15:43.000Z</time>
      </trkpt>
      <trkpt lat="47.3745" lon="5.0112">
        <ele>343.20001220703</ele>
        <time>2014-08-12T08:15:45.000Z</time>
      </trkpt>
      <trkpt lat="47.37447" lon="5.01128">
        <ele>342.79998779297</ele>
        <time>2014-08-12T08:15:50.000Z</time>
      </trkpt>
      <trkpt lat="47.37444" lon="5.01138">
        <ele>342.39999389648</ele>
        <time>2014-08-12T08:15:55.000Z</time>
      </trkpt>
      <trkpt lat="47.37444" lon="5.0114">
        <ele>342.39999389648</ele>
        <time>2014-08-12T08:15:56.000Z</time>
      </trkpt>
      <trkpt lat="47.37439" lon="5.01144">
        <ele>342.20001220703</ele>
        <time>2014-08-12T08:16:00.000Z</time>
      </trkpt>
      <trkpt lat="47.37439" lon="5.01146">
        <ele>342</ele>
        <time>2014-08-12T08:16:01.000Z</time>
      </trkpt>
      <trkpt lat="47.3744" lon="5.01153">
        <ele>342</ele>
        <time>2014-08-12T08:16:05.000Z</time>
      </trkpt>
      <trkpt lat="47.37438" lon="5.01161">
        <ele>341.60000610352</ele>
        <time>2014-08-12T08:16:09.000Z</time>
      </trkpt>
      <trkpt lat="47.37439" lon="5.01165">
        <ele>341.39999389648</ele>
        <time>2014-08-12T08:16:11.000Z</time>
      </trkpt>
      <trkpt lat="47.37431" lon="5.01171">
        <ele>341</ele>
        <time>2014-08-12T08:16:15.000Z</time>
      </trkpt>
      <trkpt lat="47.37426" lon="5.01175">
        <ele>340.60000610352</ele>
        <time>2014-08-12T08:16:18.000Z</time>
      </trkpt>
      <trkpt lat="47.37421" lon="5.01187">
        <ele>340</ele>
        <time>2014-08-12T08:16:24.000Z</time>
      </trkpt>
      <trkpt lat="47.37418" lon="5.01195">
        <ele>339.60000610352</ele>
        <time>2014-08-12T08:16:28.000Z</time>
      </trkpt>
      <trkpt lat="47.37415" lon="5.01206">
        <ele>339.20001220703</ele>
        <time>2014-08-12T08:16:33.000Z</time>
      </trkpt>
      <trkpt lat="47.37414" lon="5.01208">
        <ele>339</ele>
        <time>2014-08-12T08:16:34.000Z</time>
      </trkpt>
      <trkpt lat="47.37409" lon="5.01217">
        <ele>338.60000610352</ele>
        <time>2014-08-12T08:16:40.000Z</time>
      </trkpt>
      <trkpt lat="47.374" lon="5.01227">
        <ele>338.20001220703</ele>
        <time>2014-08-12T08:16:45.000Z</time>
      </trkpt>
      <trkpt lat="47.37399" lon="5.01229">
        <ele>338</ele>
        <time>2014-08-12T08:16:46.000Z</time>
      </trkpt>
      <trkpt lat="47.37396" lon="5.01234">
        <ele>337.79998779297</ele>
        <time>2014-08-12T08:16:49.000Z</time>
      </trkpt>
      <trkpt lat="47.37388" lon="5.01246">
        <ele>337.39999389648</ele>
        <time>2014-08-12T08:16:55.000Z</time>
      </trkpt>
      <trkpt lat="47.37385" lon="5.01248">
        <ele>337.20001220703</ele>
        <time>2014-08-12T08:16:57.000Z</time>
      </trkpt>
      <trkpt lat="47.37384" lon="5.01256">
        <ele>337</ele>
        <time>2014-08-12T08:17:03.000Z</time>
      </trkpt>
      <trkpt lat="47.37381" lon="5.01262">
        <ele>336.60000610352</ele>
        <time>2014-08-12T08:17:07.000Z</time>
      </trkpt>
      <trkpt lat="47.37381" lon="5.01263">
        <ele>336.39999389648</ele>
        <time>2014-08-12T08:17:08.000Z</time>
      </trkpt>
      <trkpt lat="47.37379" lon="5.01265">
        <ele>336.39999389648</ele>
        <time>2014-08-12T08:17:09.000Z</time>
      </trkpt>
      <trkpt lat="47.37376" lon="5.01269">
        <ele>336</ele>
        <time>2014-08-12T08:17:12.000Z</time>
      </trkpt>
      <trkpt lat="47.3737" lon="5.01273">
        <ele>335.60000610352</ele>
        <time>2014-08-12T08:17:15.000Z</time>
      </trkpt>
      <trkpt lat="47.37363" lon="5.01283">
        <ele>334.60000610352</ele>
        <time>2014-08-12T08:17:21.000Z</time>
      </trkpt>
      <trkpt lat="47.37362" lon="5.01285">
        <ele>334.60000610352</ele>
        <time>2014-08-12T08:17:22.000Z</time>
      </trkpt>
      <trkpt lat="47.37358" lon="5.01288">
        <ele>334.20001220703</ele>
        <time>2014-08-12T08:17:25.000Z</time>
      </trkpt>
      <trkpt lat="47.37351" lon="5.01292">
        <ele>333.60000610352</ele>
        <time>2014-08-12T08:17:30.000Z</time>
      </trkpt>
      <trkpt lat="47.37349" lon="5.01293">
        <ele>333.60000610352</ele>
        <time>2014-08-12T08:17:31.000Z</time>
      </trkpt>
      <trkpt lat="47.37343" lon="5.01301">
        <ele>333.20001220703</ele>
        <time>2014-08-12T08:17:36.000Z</time>
      </trkpt>
      <trkpt lat="47.37331" lon="5.01308">
        <ele>332</ele>
        <time>2014-08-12T08:17:43.000Z</time>
      </trkpt>
      <trkpt lat="47.37325" lon="5.01314">
        <ele>331.60000610352</ele>
        <time>2014-08-12T08:17:48.000Z</time>
      </trkpt>
      <trkpt lat="47.37324" lon="5.01315">
        <ele>331.60000610352</ele>
        <time>2014-08-12T08:17:49.000Z</time>
      </trkpt>
      <trkpt lat="47.3732" lon="5.0132">
        <ele>331.20001220703</ele>
        <time>2014-08-12T08:17:54.000Z</time>
      </trkpt>
      <trkpt lat="47.37314" lon="5.01326">
        <ele>330.79998779297</ele>
        <time>2014-08-12T08:17:59.000Z</time>
      </trkpt>
      <trkpt lat="47.37309" lon="5.0133">
        <ele>330.39999389648</ele>
        <time>2014-08-12T08:18:03.000Z</time>
      </trkpt>
      <trkpt lat="47.37302" lon="5.01336">
        <ele>330</ele>
        <time>2014-08-12T08:18:08.000Z</time>
      </trkpt>
      <trkpt lat="47.373" lon="5.01337">
        <ele>330</ele>
        <time>2014-08-12T08:18:09.000Z</time>
      </trkpt>
      <trkpt lat="47.37297" lon="5.01339">
        <ele>329.79998779297</ele>
        <time>2014-08-12T08:18:11.000Z</time>
      </trkpt>
      <trkpt lat="47.37293" lon="5.0134">
        <ele>329.60000610352</ele>
        <time>2014-08-12T08:18:13.000Z</time>
      </trkpt>
      <trkpt lat="47.37288" lon="5.01343">
        <ele>329.20001220703</ele>
        <time>2014-08-12T08:18:17.000Z</time>
      </trkpt>
      <trkpt lat="47.37282" lon="5.01348">
        <ele>328.60000610352</ele>
        <time>2014-08-12T08:18:22.000Z</time>
      </trkpt>
      <trkpt lat="47.37281" lon="5.01349">
        <ele>328.39999389648</ele>
        <time>2014-08-12T08:18:23.000Z</time>
      </trkpt>
      <trkpt lat="47.37271" lon="5.01356">
        <ele>327.39999389648</ele>
        <time>2014-08-12T08:18:30.000Z</time>
      </trkpt>
      <trkpt lat="47.37264" lon="5.01361">
        <ele>326.79998779297</ele>
        <time>2014-08-12T08:18:36.000Z</time>
      </trkpt>
      <trkpt lat="47.37254" lon="5.01368">
        <ele>325.79998779297</ele>
        <time>2014-08-12T08:18:43.000Z</time>
      </trkpt>
      <trkpt lat="47.37249" lon="5.01374">
        <ele>325.20001220703</ele>
        <time>2014-08-12T08:18:48.000Z</time>
      </trkpt>
      <trkpt lat="47.3724" lon="5.0138">
        <ele>324.60000610352</ele>
        <time>2014-08-12T08:18:55.000Z</time>
      </trkpt>
      <trkpt lat="47.37238" lon="5.01381">
        <ele>324.60000610352</ele>
        <time>2014-08-12T08:18:56.000Z</time>
      </trkpt>
      <trkpt lat="47.37232" lon="5.01386">
        <ele>324.20001220703</ele>
        <time>2014-08-12T08:19:01.000Z</time>
      </trkpt>
      <trkpt lat="47.37231" lon="5.01387">
        <ele>324.20001220703</ele>
        <time>2014-08-12T08:19:02.000Z</time>
      </trkpt>
      <trkpt lat="47.37222" lon="5.01393">
        <ele>323.79998779297</ele>
        <time>2014-08-12T08:19:09.000Z</time>
      </trkpt>
      <trkpt lat="47.37207" lon="5.014">
        <ele>323.39999389648</ele>
        <time>2014-08-12T08:19:18.000Z</time>
      </trkpt>
      <trkpt lat="47.37197" lon="5.01407">
        <ele>322.79998779297</ele>
        <time>2014-08-12T08:19:25.000Z</time>
      </trkpt>
      <trkpt lat="47.37187" lon="5.01414">
        <ele>322.79998779297</ele>
        <time>2014-08-12T08:19:32.000Z</time>
      </trkpt>
      <trkpt lat="47.37176" lon="5.01421">
        <ele>322.79998779297</ele>
        <time>2014-08-12T08:19:39.000Z</time>
      </trkpt>
      <trkpt lat="47.37174" lon="5.01423">
        <ele>322.79998779297</ele>
        <time>2014-08-12T08:19:41.000Z</time>
      </trkpt>
      <trkpt lat="47.37165" lon="5.01431">
        <ele>322.60000610352</ele>
        <time>2014-08-12T08:19:47.000Z</time>
      </trkpt>
      <trkpt lat="47.37158" lon="5.01439">
        <ele>322</ele>
        <time>2014-08-12T08:19:52.000Z</time>
      </trkpt>
      <trkpt lat="47.37149" lon="5.01452">
        <ele>321.39999389648</ele>
        <time>2014-08-12T08:20:00.000Z</time>
      </trkpt>
      <trkpt lat="47.37141" lon="5.01463">
        <ele>320.60000610352</ele>
        <time>2014-08-12T08:20:06.000Z</time>
      </trkpt>
      <trkpt lat="47.37134" lon="5.01476">
        <ele>319.79998779297</ele>
        <time>2014-08-12T08:20:13.000Z</time>
      </trkpt>
      <trkpt lat="47.37126" lon="5.01491">
        <ele>318.60000610352</ele>
        <time>2014-08-12T08:20:21.000Z</time>
      </trkpt>
      <trkpt lat="47.37118" lon="5.01504">
        <ele>317.79998779297</ele>
        <time>2014-08-12T08:20:28.000Z</time>
      </trkpt>
      <trkpt lat="47.37109" lon="5.01519">
        <ele>317.60000610352</ele>
        <time>2014-08-12T08:20:36.000Z</time>
      </trkpt>
      <trkpt lat="47.37102" lon="5.01532">
        <ele>317.39999389648</ele>
        <time>2014-08-12T08:20:43.000Z</time>
      </trkpt>
      <trkpt lat="47.37101" lon="5.01536">
        <ele>317.39999389648</ele>
        <time>2014-08-12T08:20:45.000Z</time>
      </trkpt>
      <trkpt lat="47.37097" lon="5.01543">
        <ele>317.20001220703</ele>
        <time>2014-08-12T08:20:49.000Z</time>
      </trkpt>
      <trkpt lat="47.37089" lon="5.01555">
        <ele>316.60000610352</ele>
        <time>2014-08-12T08:20:56.000Z</time>
      </trkpt>
      <trkpt lat="47.37081" lon="5.01568">
        <ele>315.60000610352</ele>
        <time>2014-08-12T08:21:04.000Z</time>
      </trkpt>
      <trkpt lat="47.3707" lon="5.0158">
        <ele>313.60000610352</ele>
        <time>2014-08-12T08:21:12.000Z</time>
      </trkpt>
      <trkpt lat="47.37059" lon="5.01591">
        <ele>311.79998779297</ele>
        <time>2014-08-12T08:21:21.000Z</time>
      </trkpt>
      <trkpt lat="47.37052" lon="5.01599">
        <ele>310.39999389648</ele>
        <time>2014-08-12T08:21:27.000Z</time>
      </trkpt>
      <trkpt lat="47.37043" lon="5.01614">
        <ele>309.20001220703</ele>
        <time>2014-08-12T08:21:36.000Z</time>
      </trkpt>
      <trkpt lat="47.37037" lon="5.01632">
        <ele>307.79998779297</ele>
        <time>2014-08-12T08:21:45.000Z</time>
      </trkpt>
      <trkpt lat="47.37038" lon="5.01645">
        <ele>307.20001220703</ele>
        <time>2014-08-12T08:21:51.000Z</time>
      </trkpt>
      <trkpt lat="47.37038" lon="5.01652">
        <ele>306.79998779297</ele>
        <time>2014-08-12T08:21:54.000Z</time>
      </trkpt>
      <trkpt lat="47.37036" lon="5.01665">
        <ele>305.79998779297</ele>
        <time>2014-08-12T08:22:00.000Z</time>
      </trkpt>
      <trkpt lat="47.37032" lon="5.01679">
        <ele>305.20001220703</ele>
        <time>2014-08-12T08:22:07.000Z</time>
      </trkpt>
      <trkpt lat="47.37032" lon="5.0168">
        <ele>305.20001220703</ele>
        <time>2014-08-12T08:22:08.000Z</time>
      </trkpt>
      <trkpt lat="47.37025" lon="5.01697">
        <ele>304.20001220703</ele>
        <time>2014-08-12T08:22:18.000Z</time>
      </trkpt>
      <trkpt lat="47.37025" lon="5.01699">
        <ele>304.20001220703</ele>
        <time>2014-08-12T08:22:19.000Z</time>
      </trkpt>
    </trkseg>
  </trk>
</gpx>